<?xml version="1.0" encoding="UTF-8" standalone="no" ?>
<gpx xmlns="http://www.topografix.com/GPX/1/1" xmlns:xsi="http://www.w3.org/2001/XMLSchema-instance" xsi:schemaLocation="http://www.topografix.com/GPX/1/1 http://www.topografix.com/GPX/1/1/gpx.xsd" version="1.1" creator="VisuGPX - https://www.visugpx.com">
  <metadata>
    <name>Lac merlet courchevel</name>
  </metadata>
  <trk>
    <name><![CDATA[23 août 2020 à 08:54:28]]></name>
    <extensions>
      <line xmlns="http://www.topografix.com/GPX/gpx_style/0/2">
        <color>0000FF</color>
        <width>4</width>
      </line>
    </extensions>
    <trkseg>
      <trkpt lat="45.40821" lon="6.66092">
        <ele>1716</ele>
        <time>2020-08-23T06:54:29Z</time>
      </trkpt>
      <trkpt lat="45.40823" lon="6.66082">
        <ele>1716</ele>
        <time>2020-08-23T06:54:37Z</time>
      </trkpt>
      <trkpt lat="45.40825" lon="6.66076">
        <ele>1716</ele>
        <time>2020-08-23T06:54:42Z</time>
      </trkpt>
      <trkpt lat="45.4083" lon="6.66057">
        <ele>1716</ele>
        <time>2020-08-23T06:55:01Z</time>
      </trkpt>
      <trkpt lat="45.40827" lon="6.66051">
        <ele>1716</ele>
        <time>2020-08-23T06:55:35Z</time>
      </trkpt>
      <trkpt lat="45.40822" lon="6.66048">
        <ele>1717</ele>
        <time>2020-08-23T06:55:39Z</time>
      </trkpt>
      <trkpt lat="45.40817" lon="6.66047">
        <ele>1717</ele>
        <time>2020-08-23T06:55:43Z</time>
      </trkpt>
      <trkpt lat="45.40812" lon="6.66044">
        <ele>1717</ele>
        <time>2020-08-23T06:55:47Z</time>
      </trkpt>
      <trkpt lat="45.40809" lon="6.6604">
        <ele>1717</ele>
        <time>2020-08-23T06:55:51Z</time>
      </trkpt>
      <trkpt lat="45.40804" lon="6.66038">
        <ele>1717</ele>
        <time>2020-08-23T06:55:55Z</time>
      </trkpt>
      <trkpt lat="45.40798" lon="6.66039">
        <ele>1717</ele>
        <time>2020-08-23T06:56:02Z</time>
      </trkpt>
      <trkpt lat="45.40793" lon="6.66038">
        <ele>1717</ele>
        <time>2020-08-23T06:56:07Z</time>
      </trkpt>
      <trkpt lat="45.40788" lon="6.66037">
        <ele>1717</ele>
        <time>2020-08-23T06:56:11Z</time>
      </trkpt>
      <trkpt lat="45.40782" lon="6.66032">
        <ele>1718</ele>
        <time>2020-08-23T06:56:28Z</time>
      </trkpt>
      <trkpt lat="45.4079" lon="6.66013">
        <ele>1718</ele>
        <time>2020-08-23T06:56:50Z</time>
      </trkpt>
      <trkpt lat="45.40809" lon="6.6599">
        <ele>1718</ele>
        <time>2020-08-23T06:57:15Z</time>
      </trkpt>
      <trkpt lat="45.40812" lon="6.65983">
        <ele>1719</ele>
        <time>2020-08-23T06:57:23Z</time>
      </trkpt>
      <trkpt lat="45.40816" lon="6.65975">
        <ele>1719</ele>
        <time>2020-08-23T06:57:52Z</time>
      </trkpt>
      <trkpt lat="45.40834" lon="6.65958">
        <ele>1720</ele>
        <time>2020-08-23T06:58:13Z</time>
      </trkpt>
      <trkpt lat="45.40854" lon="6.65936">
        <ele>1718</ele>
        <time>2020-08-23T06:58:36Z</time>
      </trkpt>
      <trkpt lat="45.40875" lon="6.65895">
        <ele>1717</ele>
        <time>2020-08-23T06:59:09Z</time>
      </trkpt>
      <trkpt lat="45.40882" lon="6.65884">
        <ele>1717</ele>
        <time>2020-08-23T06:59:19Z</time>
      </trkpt>
      <trkpt lat="45.40895" lon="6.65874">
        <ele>1717</ele>
        <time>2020-08-23T06:59:32Z</time>
      </trkpt>
      <trkpt lat="45.40901" lon="6.65873">
        <ele>1717</ele>
        <time>2020-08-23T06:59:37Z</time>
      </trkpt>
      <trkpt lat="45.4091" lon="6.65871">
        <ele>1717</ele>
        <time>2020-08-23T06:59:46Z</time>
      </trkpt>
      <trkpt lat="45.40914" lon="6.65868">
        <ele>1718</ele>
        <time>2020-08-23T06:59:51Z</time>
      </trkpt>
      <trkpt lat="45.40933" lon="6.65852">
        <ele>1719</ele>
        <time>2020-08-23T07:00:11Z</time>
      </trkpt>
      <trkpt lat="45.40941" lon="6.65843">
        <ele>1719</ele>
        <time>2020-08-23T07:00:20Z</time>
      </trkpt>
      <trkpt lat="45.40944" lon="6.65838">
        <ele>1719</ele>
        <time>2020-08-23T07:00:25Z</time>
      </trkpt>
      <trkpt lat="45.40956" lon="6.65803">
        <ele>1722</ele>
        <time>2020-08-23T07:00:53Z</time>
      </trkpt>
      <trkpt lat="45.40959" lon="6.65782">
        <ele>1723</ele>
        <time>2020-08-23T07:01:08Z</time>
      </trkpt>
      <trkpt lat="45.40958" lon="6.65761">
        <ele>1725</ele>
        <time>2020-08-23T07:01:23Z</time>
      </trkpt>
      <trkpt lat="45.40957" lon="6.65754">
        <ele>1725</ele>
        <time>2020-08-23T07:01:28Z</time>
      </trkpt>
      <trkpt lat="45.40954" lon="6.65745">
        <ele>1726</ele>
        <time>2020-08-23T07:01:36Z</time>
      </trkpt>
      <trkpt lat="45.40949" lon="6.65738">
        <ele>1727</ele>
        <time>2020-08-23T07:01:44Z</time>
      </trkpt>
      <trkpt lat="45.40944" lon="6.65736">
        <ele>1728</ele>
        <time>2020-08-23T07:01:49Z</time>
      </trkpt>
      <trkpt lat="45.40938" lon="6.65735">
        <ele>1729</ele>
        <time>2020-08-23T07:01:57Z</time>
      </trkpt>
      <trkpt lat="45.40912" lon="6.65751">
        <ele>1732</ele>
        <time>2020-08-23T07:02:27Z</time>
      </trkpt>
      <trkpt lat="45.40904" lon="6.65756">
        <ele>1733</ele>
        <time>2020-08-23T07:02:37Z</time>
      </trkpt>
      <trkpt lat="45.40898" lon="6.6576">
        <ele>1733</ele>
        <time>2020-08-23T07:03:14Z</time>
      </trkpt>
      <trkpt lat="45.40865" lon="6.6578">
        <ele>1734</ele>
        <time>2020-08-23T07:04:00Z</time>
      </trkpt>
      <trkpt lat="45.40856" lon="6.65784">
        <ele>1734</ele>
        <time>2020-08-23T07:04:10Z</time>
      </trkpt>
      <trkpt lat="45.40849" lon="6.65784">
        <ele>1734</ele>
        <time>2020-08-23T07:04:17Z</time>
      </trkpt>
      <trkpt lat="45.40814" lon="6.65791">
        <ele>1735</ele>
        <time>2020-08-23T07:04:50Z</time>
      </trkpt>
      <trkpt lat="45.40801" lon="6.658">
        <ele>1736</ele>
        <time>2020-08-23T07:05:04Z</time>
      </trkpt>
      <trkpt lat="45.40792" lon="6.65807">
        <ele>1736</ele>
        <time>2020-08-23T07:05:14Z</time>
      </trkpt>
      <trkpt lat="45.40787" lon="6.65809">
        <ele>1736</ele>
        <time>2020-08-23T07:05:19Z</time>
      </trkpt>
      <trkpt lat="45.40763" lon="6.65815">
        <ele>1736</ele>
        <time>2020-08-23T07:05:41Z</time>
      </trkpt>
      <trkpt lat="45.40758" lon="6.65817">
        <ele>1736</ele>
        <time>2020-08-23T07:05:46Z</time>
      </trkpt>
      <trkpt lat="45.4074" lon="6.6582">
        <ele>1736</ele>
        <time>2020-08-23T07:06:02Z</time>
      </trkpt>
      <trkpt lat="45.40705" lon="6.65834">
        <ele>1738</ele>
        <time>2020-08-23T07:06:36Z</time>
      </trkpt>
      <trkpt lat="45.40671" lon="6.65834">
        <ele>1743</ele>
        <time>2020-08-23T07:07:13Z</time>
      </trkpt>
      <trkpt lat="45.40644" lon="6.65843">
        <ele>1747</ele>
        <time>2020-08-23T07:07:44Z</time>
      </trkpt>
      <trkpt lat="45.40627" lon="6.65841">
        <ele>1748</ele>
        <time>2020-08-23T07:08:03Z</time>
      </trkpt>
      <trkpt lat="45.40607" lon="6.65837">
        <ele>1749</ele>
        <time>2020-08-23T07:08:23Z</time>
      </trkpt>
      <trkpt lat="45.40597" lon="6.65839">
        <ele>1749</ele>
        <time>2020-08-23T07:08:33Z</time>
      </trkpt>
      <trkpt lat="45.40583" lon="6.65848">
        <ele>1750</ele>
        <time>2020-08-23T07:08:48Z</time>
      </trkpt>
      <trkpt lat="45.40558" lon="6.65873">
        <ele>1754</ele>
        <time>2020-08-23T07:09:20Z</time>
      </trkpt>
      <trkpt lat="45.40543" lon="6.6589">
        <ele>1756</ele>
        <time>2020-08-23T07:09:40Z</time>
      </trkpt>
      <trkpt lat="45.40509" lon="6.65907">
        <ele>1759</ele>
        <time>2020-08-23T07:10:15Z</time>
      </trkpt>
      <trkpt lat="45.40475" lon="6.6592">
        <ele>1762</ele>
        <time>2020-08-23T07:10:50Z</time>
      </trkpt>
      <trkpt lat="45.40471" lon="6.65923">
        <ele>1763</ele>
        <time>2020-08-23T07:10:55Z</time>
      </trkpt>
      <trkpt lat="45.40461" lon="6.65937">
        <ele>1764</ele>
        <time>2020-08-23T07:11:10Z</time>
      </trkpt>
      <trkpt lat="45.40442" lon="6.65975">
        <ele>1769</ele>
        <time>2020-08-23T07:11:48Z</time>
      </trkpt>
      <trkpt lat="45.40422" lon="6.66001">
        <ele>1773</ele>
        <time>2020-08-23T07:12:25Z</time>
      </trkpt>
      <trkpt lat="45.40407" lon="6.66024">
        <ele>1775</ele>
        <time>2020-08-23T07:12:48Z</time>
      </trkpt>
      <trkpt lat="45.40399" lon="6.66029">
        <ele>1776</ele>
        <time>2020-08-23T07:12:58Z</time>
      </trkpt>
      <trkpt lat="45.40393" lon="6.66027">
        <ele>1777</ele>
        <time>2020-08-23T07:13:06Z</time>
      </trkpt>
      <trkpt lat="45.4039" lon="6.66022">
        <ele>1777</ele>
        <time>2020-08-23T07:13:11Z</time>
      </trkpt>
      <trkpt lat="45.40385" lon="6.66004">
        <ele>1778</ele>
        <time>2020-08-23T07:13:26Z</time>
      </trkpt>
      <trkpt lat="45.4038" lon="6.6597">
        <ele>1780</ele>
        <time>2020-08-23T07:13:51Z</time>
      </trkpt>
      <trkpt lat="45.40374" lon="6.65956">
        <ele>1781</ele>
        <time>2020-08-23T07:14:03Z</time>
      </trkpt>
      <trkpt lat="45.4037" lon="6.65952">
        <ele>1782</ele>
        <time>2020-08-23T07:14:08Z</time>
      </trkpt>
      <trkpt lat="45.4036" lon="6.65952">
        <ele>1782</ele>
        <time>2020-08-23T07:14:18Z</time>
      </trkpt>
      <trkpt lat="45.40334" lon="6.65965">
        <ele>1786</ele>
        <time>2020-08-23T07:14:49Z</time>
      </trkpt>
      <trkpt lat="45.40318" lon="6.65976">
        <ele>1789</ele>
        <time>2020-08-23T07:15:11Z</time>
      </trkpt>
      <trkpt lat="45.40313" lon="6.65978">
        <ele>1790</ele>
        <time>2020-08-23T07:15:16Z</time>
      </trkpt>
      <trkpt lat="45.40306" lon="6.6598">
        <ele>1791</ele>
        <time>2020-08-23T07:15:24Z</time>
      </trkpt>
      <trkpt lat="45.40287" lon="6.6599">
        <ele>1794</ele>
        <time>2020-08-23T07:15:48Z</time>
      </trkpt>
      <trkpt lat="45.40258" lon="6.65994">
        <ele>1796</ele>
        <time>2020-08-23T07:16:21Z</time>
      </trkpt>
      <trkpt lat="45.40239" lon="6.65995">
        <ele>1798</ele>
        <time>2020-08-23T07:16:41Z</time>
      </trkpt>
      <trkpt lat="45.40234" lon="6.65997">
        <ele>1798</ele>
        <time>2020-08-23T07:16:46Z</time>
      </trkpt>
      <trkpt lat="45.40229" lon="6.66003">
        <ele>1799</ele>
        <time>2020-08-23T07:16:54Z</time>
      </trkpt>
      <trkpt lat="45.40226" lon="6.66009">
        <ele>1799</ele>
        <time>2020-08-23T07:16:59Z</time>
      </trkpt>
      <trkpt lat="45.40218" lon="6.66037">
        <ele>1802</ele>
        <time>2020-08-23T07:17:25Z</time>
      </trkpt>
      <trkpt lat="45.40211" lon="6.66048">
        <ele>1804</ele>
        <time>2020-08-23T07:17:37Z</time>
      </trkpt>
      <trkpt lat="45.40208" lon="6.66053">
        <ele>1804</ele>
        <time>2020-08-23T07:17:43Z</time>
      </trkpt>
      <trkpt lat="45.40199" lon="6.66057">
        <ele>1805</ele>
        <time>2020-08-23T07:17:55Z</time>
      </trkpt>
      <trkpt lat="45.40192" lon="6.66052">
        <ele>1807</ele>
        <time>2020-08-23T07:18:07Z</time>
      </trkpt>
      <trkpt lat="45.40189" lon="6.66047">
        <ele>1807</ele>
        <time>2020-08-23T07:18:11Z</time>
      </trkpt>
      <trkpt lat="45.40186" lon="6.66039">
        <ele>1808</ele>
        <time>2020-08-23T07:18:19Z</time>
      </trkpt>
      <trkpt lat="45.40186" lon="6.66023">
        <ele>1809</ele>
        <time>2020-08-23T07:18:33Z</time>
      </trkpt>
      <trkpt lat="45.40181" lon="6.66016">
        <ele>1810</ele>
        <time>2020-08-23T07:18:45Z</time>
      </trkpt>
      <trkpt lat="45.40172" lon="6.66017">
        <ele>1811</ele>
        <time>2020-08-23T07:18:57Z</time>
      </trkpt>
      <trkpt lat="45.40153" lon="6.66032">
        <ele>1816</ele>
        <time>2020-08-23T07:19:27Z</time>
      </trkpt>
      <trkpt lat="45.40146" lon="6.6604">
        <ele>1818</ele>
        <time>2020-08-23T07:19:39Z</time>
      </trkpt>
      <trkpt lat="45.40132" lon="6.66051">
        <ele>1820</ele>
        <time>2020-08-23T07:19:59Z</time>
      </trkpt>
      <trkpt lat="45.40119" lon="6.66059">
        <ele>1822</ele>
        <time>2020-08-23T07:20:17Z</time>
      </trkpt>
      <trkpt lat="45.40112" lon="6.66066">
        <ele>1823</ele>
        <time>2020-08-23T07:20:29Z</time>
      </trkpt>
      <trkpt lat="45.40106" lon="6.66071">
        <ele>1825</ele>
        <time>2020-08-23T07:20:41Z</time>
      </trkpt>
      <trkpt lat="45.40101" lon="6.66072">
        <ele>1825</ele>
        <time>2020-08-23T07:20:47Z</time>
      </trkpt>
      <trkpt lat="45.40094" lon="6.66065">
        <ele>1826</ele>
        <time>2020-08-23T07:20:59Z</time>
      </trkpt>
      <trkpt lat="45.40093" lon="6.66059">
        <ele>1827</ele>
        <time>2020-08-23T07:21:04Z</time>
      </trkpt>
      <trkpt lat="45.40094" lon="6.66048">
        <ele>1827</ele>
        <time>2020-08-23T07:21:13Z</time>
      </trkpt>
      <trkpt lat="45.4009" lon="6.66043">
        <ele>1828</ele>
        <time>2020-08-23T07:21:25Z</time>
      </trkpt>
      <trkpt lat="45.40083" lon="6.6605">
        <ele>1830</ele>
        <time>2020-08-23T07:21:37Z</time>
      </trkpt>
      <trkpt lat="45.4008" lon="6.66054">
        <ele>1831</ele>
        <time>2020-08-23T07:21:49Z</time>
      </trkpt>
      <trkpt lat="45.40074" lon="6.66055">
        <ele>1833</ele>
        <time>2020-08-23T07:22:25Z</time>
      </trkpt>
      <trkpt lat="45.4006" lon="6.66063">
        <ele>1835</ele>
        <time>2020-08-23T07:22:55Z</time>
      </trkpt>
      <trkpt lat="45.40055" lon="6.66066">
        <ele>1838</ele>
        <time>2020-08-23T07:23:07Z</time>
      </trkpt>
      <trkpt lat="45.40047" lon="6.6607">
        <ele>1839</ele>
        <time>2020-08-23T07:23:23Z</time>
      </trkpt>
      <trkpt lat="45.40043" lon="6.66073">
        <ele>1839</ele>
        <time>2020-08-23T07:23:29Z</time>
      </trkpt>
      <trkpt lat="45.40029" lon="6.66093">
        <ele>1842</ele>
        <time>2020-08-23T07:23:57Z</time>
      </trkpt>
      <trkpt lat="45.40025" lon="6.66101">
        <ele>1844</ele>
        <time>2020-08-23T07:24:09Z</time>
      </trkpt>
      <trkpt lat="45.40018" lon="6.66105">
        <ele>1845</ele>
        <time>2020-08-23T07:24:21Z</time>
      </trkpt>
      <trkpt lat="45.40001" lon="6.66124">
        <ele>1850</ele>
        <time>2020-08-23T07:24:57Z</time>
      </trkpt>
      <trkpt lat="45.39983" lon="6.6614">
        <ele>1855</ele>
        <time>2020-08-23T07:25:33Z</time>
      </trkpt>
      <trkpt lat="45.39976" lon="6.66144">
        <ele>1856</ele>
        <time>2020-08-23T07:25:45Z</time>
      </trkpt>
      <trkpt lat="45.39962" lon="6.66151">
        <ele>1859</ele>
        <time>2020-08-23T07:26:09Z</time>
      </trkpt>
      <trkpt lat="45.39948" lon="6.66154">
        <ele>1862</ele>
        <time>2020-08-23T07:26:33Z</time>
      </trkpt>
      <trkpt lat="45.39939" lon="6.66164">
        <ele>1864</ele>
        <time>2020-08-23T07:26:57Z</time>
      </trkpt>
      <trkpt lat="45.39932" lon="6.66167">
        <ele>1865</ele>
        <time>2020-08-23T07:27:09Z</time>
      </trkpt>
      <trkpt lat="45.39926" lon="6.66165">
        <ele>1866</ele>
        <time>2020-08-23T07:27:21Z</time>
      </trkpt>
      <trkpt lat="45.39921" lon="6.6616">
        <ele>1868</ele>
        <time>2020-08-23T07:27:33Z</time>
      </trkpt>
      <trkpt lat="45.39916" lon="6.66157">
        <ele>1869</ele>
        <time>2020-08-23T07:27:45Z</time>
      </trkpt>
      <trkpt lat="45.39912" lon="6.66157">
        <ele>1870</ele>
        <time>2020-08-23T07:27:57Z</time>
      </trkpt>
      <trkpt lat="45.39908" lon="6.66162">
        <ele>1872</ele>
        <time>2020-08-23T07:28:09Z</time>
      </trkpt>
      <trkpt lat="45.39907" lon="6.66172">
        <ele>1872</ele>
        <time>2020-08-23T07:28:21Z</time>
      </trkpt>
      <trkpt lat="45.39904" lon="6.66181">
        <ele>1873</ele>
        <time>2020-08-23T07:28:33Z</time>
      </trkpt>
      <trkpt lat="45.399" lon="6.66185">
        <ele>1874</ele>
        <time>2020-08-23T07:28:45Z</time>
      </trkpt>
      <trkpt lat="45.39889" lon="6.66184">
        <ele>1878</ele>
        <time>2020-08-23T07:29:28Z</time>
      </trkpt>
      <trkpt lat="45.39886" lon="6.66189">
        <ele>1879</ele>
        <time>2020-08-23T07:29:40Z</time>
      </trkpt>
      <trkpt lat="45.39879" lon="6.66191">
        <ele>1881</ele>
        <time>2020-08-23T07:29:56Z</time>
      </trkpt>
      <trkpt lat="45.39875" lon="6.66189">
        <ele>1884</ele>
        <time>2020-08-23T07:30:21Z</time>
      </trkpt>
      <trkpt lat="45.39873" lon="6.66183">
        <ele>1886</ele>
        <time>2020-08-23T07:30:46Z</time>
      </trkpt>
      <trkpt lat="45.39868" lon="6.66181">
        <ele>1888</ele>
        <time>2020-08-23T07:31:01Z</time>
      </trkpt>
      <trkpt lat="45.39872" lon="6.66169">
        <ele>1891</ele>
        <time>2020-08-23T07:31:43Z</time>
      </trkpt>
      <trkpt lat="45.39868" lon="6.66166">
        <ele>1894</ele>
        <time>2020-08-23T07:32:07Z</time>
      </trkpt>
      <trkpt lat="45.39862" lon="6.6617">
        <ele>1895</ele>
        <time>2020-08-23T07:32:19Z</time>
      </trkpt>
      <trkpt lat="45.39855" lon="6.66175">
        <ele>1896</ele>
        <time>2020-08-23T07:32:31Z</time>
      </trkpt>
      <trkpt lat="45.3985" lon="6.66176">
        <ele>1897</ele>
        <time>2020-08-23T07:32:43Z</time>
      </trkpt>
      <trkpt lat="45.39852" lon="6.66169">
        <ele>1899</ele>
        <time>2020-08-23T07:33:01Z</time>
      </trkpt>
      <trkpt lat="45.39857" lon="6.66166">
        <ele>1899</ele>
        <time>2020-08-23T07:33:13Z</time>
      </trkpt>
      <trkpt lat="45.39854" lon="6.66159">
        <ele>1901</ele>
        <time>2020-08-23T07:33:25Z</time>
      </trkpt>
      <trkpt lat="45.3985" lon="6.66146">
        <ele>1904</ele>
        <time>2020-08-23T07:33:49Z</time>
      </trkpt>
      <trkpt lat="45.39853" lon="6.66139">
        <ele>1905</ele>
        <time>2020-08-23T07:34:01Z</time>
      </trkpt>
      <trkpt lat="45.39855" lon="6.66133">
        <ele>1906</ele>
        <time>2020-08-23T07:34:13Z</time>
      </trkpt>
      <trkpt lat="45.39849" lon="6.66134">
        <ele>1907</ele>
        <time>2020-08-23T07:34:25Z</time>
      </trkpt>
      <trkpt lat="45.39845" lon="6.66136">
        <ele>1909</ele>
        <time>2020-08-23T07:34:37Z</time>
      </trkpt>
      <trkpt lat="45.39838" lon="6.66141">
        <ele>1911</ele>
        <time>2020-08-23T07:34:55Z</time>
      </trkpt>
      <trkpt lat="45.39832" lon="6.6614">
        <ele>1913</ele>
        <time>2020-08-23T07:35:07Z</time>
      </trkpt>
      <trkpt lat="45.39828" lon="6.66146">
        <ele>1913</ele>
        <time>2020-08-23T07:35:19Z</time>
      </trkpt>
      <trkpt lat="45.39825" lon="6.66155">
        <ele>1913</ele>
        <time>2020-08-23T07:35:37Z</time>
      </trkpt>
      <trkpt lat="45.3982" lon="6.66159">
        <ele>1915</ele>
        <time>2020-08-23T07:35:49Z</time>
      </trkpt>
      <trkpt lat="45.39814" lon="6.66159">
        <ele>1916</ele>
        <time>2020-08-23T07:36:07Z</time>
      </trkpt>
      <trkpt lat="45.39809" lon="6.66164">
        <ele>1919</ele>
        <time>2020-08-23T07:36:37Z</time>
      </trkpt>
      <trkpt lat="45.39805" lon="6.66155">
        <ele>1921</ele>
        <time>2020-08-23T07:37:01Z</time>
      </trkpt>
      <trkpt lat="45.39798" lon="6.66157">
        <ele>1922</ele>
        <time>2020-08-23T07:37:15Z</time>
      </trkpt>
      <trkpt lat="45.39793" lon="6.66158">
        <ele>1923</ele>
        <time>2020-08-23T07:37:20Z</time>
      </trkpt>
      <trkpt lat="45.39789" lon="6.66156">
        <ele>1923</ele>
        <time>2020-08-23T07:37:25Z</time>
      </trkpt>
      <trkpt lat="45.39786" lon="6.66146">
        <ele>1929</ele>
        <time>2020-08-23T07:39:00Z</time>
      </trkpt>
      <trkpt lat="45.39795" lon="6.6612">
        <ele>1935</ele>
        <time>2020-08-23T07:39:48Z</time>
      </trkpt>
      <trkpt lat="45.39796" lon="6.66108">
        <ele>1936</ele>
        <time>2020-08-23T07:40:06Z</time>
      </trkpt>
      <trkpt lat="45.39795" lon="6.66094">
        <ele>1941</ele>
        <time>2020-08-23T07:40:36Z</time>
      </trkpt>
      <trkpt lat="45.3979" lon="6.66089">
        <ele>1946</ele>
        <time>2020-08-23T07:41:24Z</time>
      </trkpt>
      <trkpt lat="45.39792" lon="6.66082">
        <ele>1947</ele>
        <time>2020-08-23T07:42:25Z</time>
      </trkpt>
      <trkpt lat="45.39791" lon="6.66075">
        <ele>1951</ele>
        <time>2020-08-23T07:43:20Z</time>
      </trkpt>
      <trkpt lat="45.39791" lon="6.66064">
        <ele>1955</ele>
        <time>2020-08-23T07:43:50Z</time>
      </trkpt>
      <trkpt lat="45.39789" lon="6.66058">
        <ele>1957</ele>
        <time>2020-08-23T07:44:14Z</time>
      </trkpt>
      <trkpt lat="45.39781" lon="6.66049">
        <ele>1965</ele>
        <time>2020-08-23T07:45:26Z</time>
      </trkpt>
      <trkpt lat="45.39776" lon="6.66041">
        <ele>1972</ele>
        <time>2020-08-23T07:47:00Z</time>
      </trkpt>
      <trkpt lat="45.39773" lon="6.66047">
        <ele>1972</ele>
        <time>2020-08-23T07:47:18Z</time>
      </trkpt>
      <trkpt lat="45.39761" lon="6.66055">
        <ele>1975</ele>
        <time>2020-08-23T07:47:48Z</time>
      </trkpt>
      <trkpt lat="45.39755" lon="6.66051">
        <ele>1978</ele>
        <time>2020-08-23T07:48:12Z</time>
      </trkpt>
      <trkpt lat="45.39749" lon="6.66053">
        <ele>1982</ele>
        <time>2020-08-23T07:48:42Z</time>
      </trkpt>
      <trkpt lat="45.39743" lon="6.66059">
        <ele>1982</ele>
        <time>2020-08-23T07:49:42Z</time>
      </trkpt>
      <trkpt lat="45.3974" lon="6.66051">
        <ele>1984</ele>
        <time>2020-08-23T07:49:55Z</time>
      </trkpt>
      <trkpt lat="45.39745" lon="6.66049">
        <ele>1985</ele>
        <time>2020-08-23T07:50:09Z</time>
      </trkpt>
      <trkpt lat="45.39749" lon="6.66038">
        <ele>1986</ele>
        <time>2020-08-23T07:50:21Z</time>
      </trkpt>
      <trkpt lat="45.3976" lon="6.66026">
        <ele>1989</ele>
        <time>2020-08-23T07:50:45Z</time>
      </trkpt>
      <trkpt lat="45.39763" lon="6.66026">
        <ele>1989</ele>
        <time>2020-08-23T07:52:09Z</time>
      </trkpt>
      <trkpt lat="45.39767" lon="6.66021">
        <ele>1989</ele>
        <time>2020-08-23T07:55:03Z</time>
      </trkpt>
      <trkpt lat="45.39762" lon="6.66019">
        <ele>1991</ele>
        <time>2020-08-23T07:57:45Z</time>
      </trkpt>
      <trkpt lat="45.39759" lon="6.66013">
        <ele>1991</ele>
        <time>2020-08-23T07:57:50Z</time>
      </trkpt>
      <trkpt lat="45.39754" lon="6.6601">
        <ele>1991</ele>
        <time>2020-08-23T07:57:57Z</time>
      </trkpt>
      <trkpt lat="45.3975" lon="6.66004">
        <ele>1992</ele>
        <time>2020-08-23T07:58:07Z</time>
      </trkpt>
      <trkpt lat="45.39754" lon="6.65996">
        <ele>1992</ele>
        <time>2020-08-23T07:58:27Z</time>
      </trkpt>
      <trkpt lat="45.39758" lon="6.65988">
        <ele>1991</ele>
        <time>2020-08-23T07:58:37Z</time>
      </trkpt>
      <trkpt lat="45.39754" lon="6.65981">
        <ele>1993</ele>
        <time>2020-08-23T07:58:53Z</time>
      </trkpt>
      <trkpt lat="45.39756" lon="6.65972">
        <ele>1994</ele>
        <time>2020-08-23T07:59:05Z</time>
      </trkpt>
      <trkpt lat="45.39761" lon="6.65964">
        <ele>1994</ele>
        <time>2020-08-23T07:59:17Z</time>
      </trkpt>
      <trkpt lat="45.39766" lon="6.65958">
        <ele>1994</ele>
        <time>2020-08-23T07:59:41Z</time>
      </trkpt>
      <trkpt lat="45.39771" lon="6.65956">
        <ele>1994</ele>
        <time>2020-08-23T07:59:53Z</time>
      </trkpt>
      <trkpt lat="45.39778" lon="6.65946">
        <ele>1998</ele>
        <time>2020-08-23T08:00:17Z</time>
      </trkpt>
      <trkpt lat="45.39776" lon="6.65938">
        <ele>1999</ele>
        <time>2020-08-23T08:00:29Z</time>
      </trkpt>
      <trkpt lat="45.39774" lon="6.65927">
        <ele>1999</ele>
        <time>2020-08-23T08:00:41Z</time>
      </trkpt>
      <trkpt lat="45.39769" lon="6.65919">
        <ele>1998</ele>
        <time>2020-08-23T08:00:53Z</time>
      </trkpt>
      <trkpt lat="45.39764" lon="6.65922">
        <ele>2000</ele>
        <time>2020-08-23T08:01:05Z</time>
      </trkpt>
      <trkpt lat="45.39764" lon="6.65936">
        <ele>2004</ele>
        <time>2020-08-23T08:01:35Z</time>
      </trkpt>
      <trkpt lat="45.39762" lon="6.65942">
        <ele>2004</ele>
        <time>2020-08-23T08:01:53Z</time>
      </trkpt>
      <trkpt lat="45.39755" lon="6.65945">
        <ele>2004</ele>
        <time>2020-08-23T08:02:05Z</time>
      </trkpt>
      <trkpt lat="45.39746" lon="6.65941">
        <ele>2006</ele>
        <time>2020-08-23T08:02:23Z</time>
      </trkpt>
      <trkpt lat="45.39742" lon="6.65938">
        <ele>2006</ele>
        <time>2020-08-23T08:02:29Z</time>
      </trkpt>
      <trkpt lat="45.39736" lon="6.65934">
        <ele>2007</ele>
        <time>2020-08-23T08:02:41Z</time>
      </trkpt>
      <trkpt lat="45.39724" lon="6.65933">
        <ele>2010</ele>
        <time>2020-08-23T08:03:05Z</time>
      </trkpt>
      <trkpt lat="45.3972" lon="6.65932">
        <ele>2012</ele>
        <time>2020-08-23T08:03:17Z</time>
      </trkpt>
      <trkpt lat="45.39713" lon="6.65921">
        <ele>2015</ele>
        <time>2020-08-23T08:03:41Z</time>
      </trkpt>
      <trkpt lat="45.39717" lon="6.65913">
        <ele>2016</ele>
        <time>2020-08-23T08:03:53Z</time>
      </trkpt>
      <trkpt lat="45.39717" lon="6.65904">
        <ele>2017</ele>
        <time>2020-08-23T08:04:05Z</time>
      </trkpt>
      <trkpt lat="45.39712" lon="6.65903">
        <ele>2016</ele>
        <time>2020-08-23T08:04:11Z</time>
      </trkpt>
      <trkpt lat="45.39705" lon="6.65904">
        <ele>2017</ele>
        <time>2020-08-23T08:04:19Z</time>
      </trkpt>
      <trkpt lat="45.39691" lon="6.65903">
        <ele>2019</ele>
        <time>2020-08-23T08:04:43Z</time>
      </trkpt>
      <trkpt lat="45.39685" lon="6.65911">
        <ele>2021</ele>
        <time>2020-08-23T08:04:55Z</time>
      </trkpt>
      <trkpt lat="45.39681" lon="6.65914">
        <ele>2022</ele>
        <time>2020-08-23T08:05:07Z</time>
      </trkpt>
      <trkpt lat="45.39679" lon="6.65908">
        <ele>2023</ele>
        <time>2020-08-23T08:05:17Z</time>
      </trkpt>
      <trkpt lat="45.39674" lon="6.65904">
        <ele>2024</ele>
        <time>2020-08-23T08:05:32Z</time>
      </trkpt>
      <trkpt lat="45.39669" lon="6.65903">
        <ele>2026</ele>
        <time>2020-08-23T08:05:42Z</time>
      </trkpt>
      <trkpt lat="45.39664" lon="6.659">
        <ele>2027</ele>
        <time>2020-08-23T08:05:53Z</time>
      </trkpt>
      <trkpt lat="45.39658" lon="6.65897">
        <ele>2028</ele>
        <time>2020-08-23T08:06:05Z</time>
      </trkpt>
      <trkpt lat="45.39645" lon="6.65888">
        <ele>2030</ele>
        <time>2020-08-23T08:06:29Z</time>
      </trkpt>
      <trkpt lat="45.39637" lon="6.65885">
        <ele>2030</ele>
        <time>2020-08-23T08:06:41Z</time>
      </trkpt>
      <trkpt lat="45.39632" lon="6.65884">
        <ele>2030</ele>
        <time>2020-08-23T08:06:53Z</time>
      </trkpt>
      <trkpt lat="45.3962" lon="6.65877">
        <ele>2030</ele>
        <time>2020-08-23T08:07:11Z</time>
      </trkpt>
      <trkpt lat="45.39598" lon="6.65861">
        <ele>2032</ele>
        <time>2020-08-23T08:07:47Z</time>
      </trkpt>
      <trkpt lat="45.39594" lon="6.65857">
        <ele>2032</ele>
        <time>2020-08-23T08:07:53Z</time>
      </trkpt>
      <trkpt lat="45.39568" lon="6.65835">
        <ele>2035</ele>
        <time>2020-08-23T08:08:35Z</time>
      </trkpt>
      <trkpt lat="45.3956" lon="6.65834">
        <ele>2035</ele>
        <time>2020-08-23T08:08:47Z</time>
      </trkpt>
      <trkpt lat="45.39555" lon="6.65832">
        <ele>2035</ele>
        <time>2020-08-23T08:08:53Z</time>
      </trkpt>
      <trkpt lat="45.39548" lon="6.65829">
        <ele>2036</ele>
        <time>2020-08-23T08:09:05Z</time>
      </trkpt>
      <trkpt lat="45.39528" lon="6.65811">
        <ele>2041</ele>
        <time>2020-08-23T08:09:41Z</time>
      </trkpt>
      <trkpt lat="45.39524" lon="6.65802">
        <ele>2043</ele>
        <time>2020-08-23T08:09:53Z</time>
      </trkpt>
      <trkpt lat="45.39518" lon="6.65793">
        <ele>2044</ele>
        <time>2020-08-23T08:10:05Z</time>
      </trkpt>
      <trkpt lat="45.39514" lon="6.65782">
        <ele>2045</ele>
        <time>2020-08-23T08:10:17Z</time>
      </trkpt>
      <trkpt lat="45.39512" lon="6.65771">
        <ele>2044</ele>
        <time>2020-08-23T08:10:29Z</time>
      </trkpt>
      <trkpt lat="45.39511" lon="6.65765">
        <ele>2044</ele>
        <time>2020-08-23T08:10:41Z</time>
      </trkpt>
      <trkpt lat="45.39517" lon="6.65764">
        <ele>2045</ele>
        <time>2020-08-23T08:12:47Z</time>
      </trkpt>
      <trkpt lat="45.39511" lon="6.65754">
        <ele>2045</ele>
        <time>2020-08-23T08:13:00Z</time>
      </trkpt>
      <trkpt lat="45.39506" lon="6.65754">
        <ele>2045</ele>
        <time>2020-08-23T08:13:04Z</time>
      </trkpt>
      <trkpt lat="45.39496" lon="6.65748">
        <ele>2046</ele>
        <time>2020-08-23T08:13:16Z</time>
      </trkpt>
      <trkpt lat="45.39491" lon="6.65748">
        <ele>2046</ele>
        <time>2020-08-23T08:13:23Z</time>
      </trkpt>
      <trkpt lat="45.39466" lon="6.65735">
        <ele>2049</ele>
        <time>2020-08-23T08:13:56Z</time>
      </trkpt>
      <trkpt lat="45.39457" lon="6.65734">
        <ele>2049</ele>
        <time>2020-08-23T08:14:07Z</time>
      </trkpt>
      <trkpt lat="45.39434" lon="6.65728">
        <ele>2051</ele>
        <time>2020-08-23T08:14:37Z</time>
      </trkpt>
      <trkpt lat="45.39418" lon="6.65719">
        <ele>2053</ele>
        <time>2020-08-23T08:15:01Z</time>
      </trkpt>
      <trkpt lat="45.39407" lon="6.65718">
        <ele>2053</ele>
        <time>2020-08-23T08:15:19Z</time>
      </trkpt>
      <trkpt lat="45.39402" lon="6.65715">
        <ele>2054</ele>
        <time>2020-08-23T08:15:25Z</time>
      </trkpt>
      <trkpt lat="45.39397" lon="6.65714">
        <ele>2054</ele>
        <time>2020-08-23T08:15:31Z</time>
      </trkpt>
      <trkpt lat="45.39393" lon="6.65715">
        <ele>2055</ele>
        <time>2020-08-23T08:15:37Z</time>
      </trkpt>
      <trkpt lat="45.39375" lon="6.65713">
        <ele>2056</ele>
        <time>2020-08-23T08:16:01Z</time>
      </trkpt>
      <trkpt lat="45.3937" lon="6.6571">
        <ele>2057</ele>
        <time>2020-08-23T08:16:07Z</time>
      </trkpt>
      <trkpt lat="45.39347" lon="6.6571">
        <ele>2060</ele>
        <time>2020-08-23T08:16:37Z</time>
      </trkpt>
      <trkpt lat="45.3932" lon="6.65719">
        <ele>2064</ele>
        <time>2020-08-23T08:17:18Z</time>
      </trkpt>
      <trkpt lat="45.39313" lon="6.65722">
        <ele>2065</ele>
        <time>2020-08-23T08:17:30Z</time>
      </trkpt>
      <trkpt lat="45.39307" lon="6.65724">
        <ele>2067</ele>
        <time>2020-08-23T08:17:42Z</time>
      </trkpt>
      <trkpt lat="45.39301" lon="6.65728">
        <ele>2068</ele>
        <time>2020-08-23T08:17:54Z</time>
      </trkpt>
      <trkpt lat="45.39296" lon="6.6573">
        <ele>2070</ele>
        <time>2020-08-23T08:18:42Z</time>
      </trkpt>
      <trkpt lat="45.39286" lon="6.65728">
        <ele>2072</ele>
        <time>2020-08-23T08:18:59Z</time>
      </trkpt>
      <trkpt lat="45.39276" lon="6.65722">
        <ele>2074</ele>
        <time>2020-08-23T08:19:13Z</time>
      </trkpt>
      <trkpt lat="45.39271" lon="6.6572">
        <ele>2075</ele>
        <time>2020-08-23T08:19:25Z</time>
      </trkpt>
      <trkpt lat="45.39263" lon="6.65715">
        <ele>2076</ele>
        <time>2020-08-23T08:19:37Z</time>
      </trkpt>
      <trkpt lat="45.39256" lon="6.65713">
        <ele>2077</ele>
        <time>2020-08-23T08:19:49Z</time>
      </trkpt>
      <trkpt lat="45.39229" lon="6.65699">
        <ele>2081</ele>
        <time>2020-08-23T08:20:30Z</time>
      </trkpt>
      <trkpt lat="45.39208" lon="6.65686">
        <ele>2085</ele>
        <time>2020-08-23T08:21:05Z</time>
      </trkpt>
      <trkpt lat="45.39189" lon="6.65678">
        <ele>2089</ele>
        <time>2020-08-23T08:21:47Z</time>
      </trkpt>
      <trkpt lat="45.39167" lon="6.65665">
        <ele>2093</ele>
        <time>2020-08-23T08:22:23Z</time>
      </trkpt>
      <trkpt lat="45.39143" lon="6.6565">
        <ele>2097</ele>
        <time>2020-08-23T08:23:03Z</time>
      </trkpt>
      <trkpt lat="45.39124" lon="6.65634">
        <ele>2101</ele>
        <time>2020-08-23T08:23:39Z</time>
      </trkpt>
      <trkpt lat="45.39104" lon="6.65614">
        <ele>2105</ele>
        <time>2020-08-23T08:24:15Z</time>
      </trkpt>
      <trkpt lat="45.39093" lon="6.65603">
        <ele>2106</ele>
        <time>2020-08-23T08:24:33Z</time>
      </trkpt>
      <trkpt lat="45.39086" lon="6.65589">
        <ele>2106</ele>
        <time>2020-08-23T08:24:48Z</time>
      </trkpt>
      <trkpt lat="45.39061" lon="6.65569">
        <ele>2109</ele>
        <time>2020-08-23T08:25:23Z</time>
      </trkpt>
      <trkpt lat="45.39047" lon="6.65563">
        <ele>2110</ele>
        <time>2020-08-23T08:25:39Z</time>
      </trkpt>
      <trkpt lat="45.39043" lon="6.65561">
        <ele>2110</ele>
        <time>2020-08-23T08:25:43Z</time>
      </trkpt>
      <trkpt lat="45.39016" lon="6.6556">
        <ele>2112</ele>
        <time>2020-08-23T08:26:16Z</time>
      </trkpt>
      <trkpt lat="45.39011" lon="6.65561">
        <ele>2112</ele>
        <time>2020-08-23T08:26:21Z</time>
      </trkpt>
      <trkpt lat="45.39007" lon="6.65559">
        <ele>2113</ele>
        <time>2020-08-23T08:26:26Z</time>
      </trkpt>
      <trkpt lat="45.39" lon="6.6556">
        <ele>2113</ele>
        <time>2020-08-23T08:26:34Z</time>
      </trkpt>
      <trkpt lat="45.38996" lon="6.65559">
        <ele>2113</ele>
        <time>2020-08-23T08:26:39Z</time>
      </trkpt>
      <trkpt lat="45.38979" lon="6.65559">
        <ele>2115</ele>
        <time>2020-08-23T08:26:59Z</time>
      </trkpt>
      <trkpt lat="45.38974" lon="6.65557">
        <ele>2115</ele>
        <time>2020-08-23T08:27:04Z</time>
      </trkpt>
      <trkpt lat="45.38953" lon="6.65557">
        <ele>2117</ele>
        <time>2020-08-23T08:27:32Z</time>
      </trkpt>
      <trkpt lat="45.38943" lon="6.6556">
        <ele>2118</ele>
        <time>2020-08-23T08:27:45Z</time>
      </trkpt>
      <trkpt lat="45.38918" lon="6.65563">
        <ele>2122</ele>
        <time>2020-08-23T08:28:19Z</time>
      </trkpt>
      <trkpt lat="45.38905" lon="6.65564">
        <ele>2124</ele>
        <time>2020-08-23T08:28:43Z</time>
      </trkpt>
      <trkpt lat="45.389" lon="6.65563">
        <ele>2125</ele>
        <time>2020-08-23T08:28:49Z</time>
      </trkpt>
      <trkpt lat="45.38892" lon="6.65563">
        <ele>2126</ele>
        <time>2020-08-23T08:29:01Z</time>
      </trkpt>
      <trkpt lat="45.38884" lon="6.65561">
        <ele>2128</ele>
        <time>2020-08-23T08:29:13Z</time>
      </trkpt>
      <trkpt lat="45.38872" lon="6.65564">
        <ele>2131</ele>
        <time>2020-08-23T08:29:37Z</time>
      </trkpt>
      <trkpt lat="45.38849" lon="6.65563">
        <ele>2135</ele>
        <time>2020-08-23T08:30:14Z</time>
      </trkpt>
      <trkpt lat="45.38838" lon="6.65562">
        <ele>2138</ele>
        <time>2020-08-23T08:30:32Z</time>
      </trkpt>
      <trkpt lat="45.38823" lon="6.65566">
        <ele>2141</ele>
        <time>2020-08-23T08:30:56Z</time>
      </trkpt>
      <trkpt lat="45.3881" lon="6.65561">
        <ele>2143</ele>
        <time>2020-08-23T08:31:20Z</time>
      </trkpt>
      <trkpt lat="45.38797" lon="6.65551">
        <ele>2146</ele>
        <time>2020-08-23T08:32:14Z</time>
      </trkpt>
      <trkpt lat="45.38792" lon="6.65547">
        <ele>2146</ele>
        <time>2020-08-23T08:32:39Z</time>
      </trkpt>
      <trkpt lat="45.38786" lon="6.65545">
        <ele>2148</ele>
        <time>2020-08-23T08:32:51Z</time>
      </trkpt>
      <trkpt lat="45.38782" lon="6.6554">
        <ele>2149</ele>
        <time>2020-08-23T08:32:57Z</time>
      </trkpt>
      <trkpt lat="45.38759" lon="6.65529">
        <ele>2154</ele>
        <time>2020-08-23T08:33:39Z</time>
      </trkpt>
      <trkpt lat="45.38736" lon="6.65511">
        <ele>2157</ele>
        <time>2020-08-23T08:34:21Z</time>
      </trkpt>
      <trkpt lat="45.3872" lon="6.65501">
        <ele>2159</ele>
        <time>2020-08-23T08:34:49Z</time>
      </trkpt>
      <trkpt lat="45.38714" lon="6.65504">
        <ele>2159</ele>
        <time>2020-08-23T08:36:29Z</time>
      </trkpt>
      <trkpt lat="45.38711" lon="6.65499">
        <ele>2161</ele>
        <time>2020-08-23T08:41:23Z</time>
      </trkpt>
      <trkpt lat="45.38696" lon="6.655">
        <ele>2164</ele>
        <time>2020-08-23T08:41:41Z</time>
      </trkpt>
      <trkpt lat="45.38689" lon="6.65496">
        <ele>2165</ele>
        <time>2020-08-23T08:41:53Z</time>
      </trkpt>
      <trkpt lat="45.38674" lon="6.6549">
        <ele>2168</ele>
        <time>2020-08-23T08:42:15Z</time>
      </trkpt>
      <trkpt lat="45.38667" lon="6.65486">
        <ele>2169</ele>
        <time>2020-08-23T08:42:25Z</time>
      </trkpt>
      <trkpt lat="45.38645" lon="6.65485">
        <ele>2173</ele>
        <time>2020-08-23T08:42:58Z</time>
      </trkpt>
      <trkpt lat="45.38636" lon="6.65482">
        <ele>2175</ele>
        <time>2020-08-23T08:43:10Z</time>
      </trkpt>
      <trkpt lat="45.3862" lon="6.65483">
        <ele>2177</ele>
        <time>2020-08-23T08:43:34Z</time>
      </trkpt>
      <trkpt lat="45.38599" lon="6.6547">
        <ele>2180</ele>
        <time>2020-08-23T08:44:02Z</time>
      </trkpt>
      <trkpt lat="45.38572" lon="6.65465">
        <ele>2182</ele>
        <time>2020-08-23T08:44:36Z</time>
      </trkpt>
      <trkpt lat="45.38567" lon="6.65464">
        <ele>2183</ele>
        <time>2020-08-23T08:44:42Z</time>
      </trkpt>
      <trkpt lat="45.38543" lon="6.65467">
        <ele>2185</ele>
        <time>2020-08-23T08:45:12Z</time>
      </trkpt>
      <trkpt lat="45.38528" lon="6.65463">
        <ele>2185</ele>
        <time>2020-08-23T08:45:32Z</time>
      </trkpt>
      <trkpt lat="45.3851" lon="6.65448">
        <ele>2187</ele>
        <time>2020-08-23T08:45:58Z</time>
      </trkpt>
      <trkpt lat="45.38504" lon="6.65449">
        <ele>2188</ele>
        <time>2020-08-23T08:46:30Z</time>
      </trkpt>
      <trkpt lat="45.3848" lon="6.65446">
        <ele>2189</ele>
        <time>2020-08-23T08:46:58Z</time>
      </trkpt>
      <trkpt lat="45.38475" lon="6.65447">
        <ele>2189</ele>
        <time>2020-08-23T08:47:03Z</time>
      </trkpt>
      <trkpt lat="45.38466" lon="6.65447">
        <ele>2190</ele>
        <time>2020-08-23T08:47:13Z</time>
      </trkpt>
      <trkpt lat="45.38446" lon="6.6545">
        <ele>2191</ele>
        <time>2020-08-23T08:47:37Z</time>
      </trkpt>
      <trkpt lat="45.38441" lon="6.6545">
        <ele>2191</ele>
        <time>2020-08-23T08:47:43Z</time>
      </trkpt>
      <trkpt lat="45.38414" lon="6.65458">
        <ele>2194</ele>
        <time>2020-08-23T08:48:14Z</time>
      </trkpt>
      <trkpt lat="45.38403" lon="6.6546">
        <ele>2195</ele>
        <time>2020-08-23T08:48:27Z</time>
      </trkpt>
      <trkpt lat="45.38398" lon="6.65462">
        <ele>2195</ele>
        <time>2020-08-23T08:48:33Z</time>
      </trkpt>
      <trkpt lat="45.38369" lon="6.65465">
        <ele>2198</ele>
        <time>2020-08-23T08:49:05Z</time>
      </trkpt>
      <trkpt lat="45.38344" lon="6.65478">
        <ele>2201</ele>
        <time>2020-08-23T08:49:36Z</time>
      </trkpt>
      <trkpt lat="45.38321" lon="6.65492">
        <ele>2203</ele>
        <time>2020-08-23T08:50:06Z</time>
      </trkpt>
      <trkpt lat="45.38297" lon="6.65508">
        <ele>2205</ele>
        <time>2020-08-23T08:50:38Z</time>
      </trkpt>
      <trkpt lat="45.38287" lon="6.65514">
        <ele>2206</ele>
        <time>2020-08-23T08:50:50Z</time>
      </trkpt>
      <trkpt lat="45.38262" lon="6.65518">
        <ele>2209</ele>
        <time>2020-08-23T08:51:21Z</time>
      </trkpt>
      <trkpt lat="45.38231" lon="6.65504">
        <ele>2213</ele>
        <time>2020-08-23T08:52:01Z</time>
      </trkpt>
      <trkpt lat="45.38207" lon="6.65488">
        <ele>2218</ele>
        <time>2020-08-23T08:52:39Z</time>
      </trkpt>
      <trkpt lat="45.38185" lon="6.65475">
        <ele>2221</ele>
        <time>2020-08-23T08:53:10Z</time>
      </trkpt>
      <trkpt lat="45.38171" lon="6.65471">
        <ele>2223</ele>
        <time>2020-08-23T08:53:35Z</time>
      </trkpt>
      <trkpt lat="45.38164" lon="6.65476">
        <ele>2224</ele>
        <time>2020-08-23T08:53:47Z</time>
      </trkpt>
      <trkpt lat="45.38157" lon="6.6548">
        <ele>2224</ele>
        <time>2020-08-23T08:53:59Z</time>
      </trkpt>
      <trkpt lat="45.38149" lon="6.65482">
        <ele>2224</ele>
        <time>2020-08-23T08:54:11Z</time>
      </trkpt>
      <trkpt lat="45.38144" lon="6.65481">
        <ele>2226</ele>
        <time>2020-08-23T08:54:41Z</time>
      </trkpt>
      <trkpt lat="45.38122" lon="6.65485">
        <ele>2226</ele>
        <time>2020-08-23T08:55:11Z</time>
      </trkpt>
      <trkpt lat="45.38115" lon="6.6549">
        <ele>2227</ele>
        <time>2020-08-23T08:55:23Z</time>
      </trkpt>
      <trkpt lat="45.38111" lon="6.65494">
        <ele>2227</ele>
        <time>2020-08-23T08:55:35Z</time>
      </trkpt>
      <trkpt lat="45.381" lon="6.65503">
        <ele>2228</ele>
        <time>2020-08-23T08:55:58Z</time>
      </trkpt>
      <trkpt lat="45.38093" lon="6.65504">
        <ele>2229</ele>
        <time>2020-08-23T08:56:06Z</time>
      </trkpt>
      <trkpt lat="45.38088" lon="6.65509">
        <ele>2229</ele>
        <time>2020-08-23T08:56:14Z</time>
      </trkpt>
      <trkpt lat="45.38082" lon="6.65512">
        <ele>2231</ele>
        <time>2020-08-23T08:56:25Z</time>
      </trkpt>
      <trkpt lat="45.38075" lon="6.65514">
        <ele>2232</ele>
        <time>2020-08-23T08:56:35Z</time>
      </trkpt>
      <trkpt lat="45.3807" lon="6.65516">
        <ele>2233</ele>
        <time>2020-08-23T08:56:45Z</time>
      </trkpt>
      <trkpt lat="45.38064" lon="6.65514">
        <ele>2235</ele>
        <time>2020-08-23T08:57:29Z</time>
      </trkpt>
      <trkpt lat="45.38061" lon="6.65522">
        <ele>2237</ele>
        <time>2020-08-23T08:57:41Z</time>
      </trkpt>
      <trkpt lat="45.38054" lon="6.65518">
        <ele>2239</ele>
        <time>2020-08-23T08:57:53Z</time>
      </trkpt>
      <trkpt lat="45.38048" lon="6.65516">
        <ele>2240</ele>
        <time>2020-08-23T08:58:05Z</time>
      </trkpt>
      <trkpt lat="45.38043" lon="6.65518">
        <ele>2242</ele>
        <time>2020-08-23T08:58:17Z</time>
      </trkpt>
      <trkpt lat="45.38033" lon="6.65519">
        <ele>2245</ele>
        <time>2020-08-23T08:58:41Z</time>
      </trkpt>
      <trkpt lat="45.38029" lon="6.65516">
        <ele>2246</ele>
        <time>2020-08-23T08:59:29Z</time>
      </trkpt>
      <trkpt lat="45.38017" lon="6.65508">
        <ele>2249</ele>
        <time>2020-08-23T09:00:02Z</time>
      </trkpt>
      <trkpt lat="45.38012" lon="6.65514">
        <ele>2251</ele>
        <time>2020-08-23T09:00:14Z</time>
      </trkpt>
      <trkpt lat="45.38007" lon="6.65514">
        <ele>2253</ele>
        <time>2020-08-23T09:00:26Z</time>
      </trkpt>
      <trkpt lat="45.37995" lon="6.65512">
        <ele>2256</ele>
        <time>2020-08-23T09:00:56Z</time>
      </trkpt>
      <trkpt lat="45.37989" lon="6.65507">
        <ele>2258</ele>
        <time>2020-08-23T09:01:08Z</time>
      </trkpt>
      <trkpt lat="45.37985" lon="6.65503">
        <ele>2259</ele>
        <time>2020-08-23T09:01:20Z</time>
      </trkpt>
      <trkpt lat="45.37981" lon="6.655">
        <ele>2261</ele>
        <time>2020-08-23T09:01:32Z</time>
      </trkpt>
      <trkpt lat="45.37966" lon="6.65482">
        <ele>2266</ele>
        <time>2020-08-23T09:02:14Z</time>
      </trkpt>
      <trkpt lat="45.37962" lon="6.65473">
        <ele>2267</ele>
        <time>2020-08-23T09:02:26Z</time>
      </trkpt>
      <trkpt lat="45.37966" lon="6.65469">
        <ele>2267</ele>
        <time>2020-08-23T09:03:21Z</time>
      </trkpt>
      <trkpt lat="45.37968" lon="6.65475">
        <ele>2266</ele>
        <time>2020-08-23T09:04:37Z</time>
      </trkpt>
      <trkpt lat="45.37965" lon="6.65475">
        <ele>2267</ele>
        <time>2020-08-23T09:06:39Z</time>
      </trkpt>
      <trkpt lat="45.37961" lon="6.65466">
        <ele>2269</ele>
        <time>2020-08-23T09:06:50Z</time>
      </trkpt>
      <trkpt lat="45.3796" lon="6.6546">
        <ele>2269</ele>
        <time>2020-08-23T09:06:55Z</time>
      </trkpt>
      <trkpt lat="45.37947" lon="6.65458">
        <ele>2273</ele>
        <time>2020-08-23T09:07:21Z</time>
      </trkpt>
      <trkpt lat="45.37942" lon="6.65458">
        <ele>2276</ele>
        <time>2020-08-23T09:07:39Z</time>
      </trkpt>
      <trkpt lat="45.37935" lon="6.65455">
        <ele>2279</ele>
        <time>2020-08-23T09:08:07Z</time>
      </trkpt>
      <trkpt lat="45.37929" lon="6.65454">
        <ele>2280</ele>
        <time>2020-08-23T09:08:15Z</time>
      </trkpt>
      <trkpt lat="45.37923" lon="6.65458">
        <ele>2281</ele>
        <time>2020-08-23T09:08:27Z</time>
      </trkpt>
      <trkpt lat="45.37899" lon="6.65449">
        <ele>2286</ele>
        <time>2020-08-23T09:09:15Z</time>
      </trkpt>
      <trkpt lat="45.37892" lon="6.65446">
        <ele>2288</ele>
        <time>2020-08-23T09:09:27Z</time>
      </trkpt>
      <trkpt lat="45.37887" lon="6.65439">
        <ele>2290</ele>
        <time>2020-08-23T09:09:39Z</time>
      </trkpt>
      <trkpt lat="45.37879" lon="6.65435">
        <ele>2291</ele>
        <time>2020-08-23T09:09:51Z</time>
      </trkpt>
      <trkpt lat="45.37872" lon="6.65437">
        <ele>2293</ele>
        <time>2020-08-23T09:10:03Z</time>
      </trkpt>
      <trkpt lat="45.37866" lon="6.65439">
        <ele>2295</ele>
        <time>2020-08-23T09:10:21Z</time>
      </trkpt>
      <trkpt lat="45.37859" lon="6.65437">
        <ele>2296</ele>
        <time>2020-08-23T09:10:33Z</time>
      </trkpt>
      <trkpt lat="45.37852" lon="6.6544">
        <ele>2298</ele>
        <time>2020-08-23T09:10:45Z</time>
      </trkpt>
      <trkpt lat="45.37847" lon="6.6544">
        <ele>2299</ele>
        <time>2020-08-23T09:11:01Z</time>
      </trkpt>
      <trkpt lat="45.37841" lon="6.65439">
        <ele>2300</ele>
        <time>2020-08-23T09:11:06Z</time>
      </trkpt>
      <trkpt lat="45.37836" lon="6.65438">
        <ele>2300</ele>
        <time>2020-08-23T09:11:11Z</time>
      </trkpt>
      <trkpt lat="45.37831" lon="6.65438">
        <ele>2300</ele>
        <time>2020-08-23T09:11:18Z</time>
      </trkpt>
      <trkpt lat="45.37826" lon="6.65436">
        <ele>2300</ele>
        <time>2020-08-23T09:11:28Z</time>
      </trkpt>
      <trkpt lat="45.37809" lon="6.65437">
        <ele>2302</ele>
        <time>2020-08-23T09:11:50Z</time>
      </trkpt>
      <trkpt lat="45.37805" lon="6.65435">
        <ele>2302</ele>
        <time>2020-08-23T09:11:56Z</time>
      </trkpt>
      <trkpt lat="45.378" lon="6.65436">
        <ele>2303</ele>
        <time>2020-08-23T09:12:02Z</time>
      </trkpt>
      <trkpt lat="45.37792" lon="6.65434">
        <ele>2304</ele>
        <time>2020-08-23T09:12:13Z</time>
      </trkpt>
      <trkpt lat="45.37786" lon="6.65435">
        <ele>2305</ele>
        <time>2020-08-23T09:12:22Z</time>
      </trkpt>
      <trkpt lat="45.37761" lon="6.65427">
        <ele>2308</ele>
        <time>2020-08-23T09:13:00Z</time>
      </trkpt>
      <trkpt lat="45.37754" lon="6.65423">
        <ele>2310</ele>
        <time>2020-08-23T09:13:12Z</time>
      </trkpt>
      <trkpt lat="45.37735" lon="6.6541">
        <ele>2314</ele>
        <time>2020-08-23T09:13:48Z</time>
      </trkpt>
      <trkpt lat="45.37729" lon="6.6541">
        <ele>2315</ele>
        <time>2020-08-23T09:14:00Z</time>
      </trkpt>
      <trkpt lat="45.3772" lon="6.65408">
        <ele>2316</ele>
        <time>2020-08-23T09:14:12Z</time>
      </trkpt>
      <trkpt lat="45.37714" lon="6.65408">
        <ele>2317</ele>
        <time>2020-08-23T09:14:24Z</time>
      </trkpt>
      <trkpt lat="45.37707" lon="6.65407">
        <ele>2318</ele>
        <time>2020-08-23T09:14:36Z</time>
      </trkpt>
      <trkpt lat="45.377" lon="6.65406">
        <ele>2320</ele>
        <time>2020-08-23T09:14:48Z</time>
      </trkpt>
      <trkpt lat="45.37693" lon="6.65399">
        <ele>2321</ele>
        <time>2020-08-23T09:15:00Z</time>
      </trkpt>
      <trkpt lat="45.37689" lon="6.65378">
        <ele>2324</ele>
        <time>2020-08-23T09:15:24Z</time>
      </trkpt>
      <trkpt lat="45.37688" lon="6.65365">
        <ele>2325</ele>
        <time>2020-08-23T09:15:36Z</time>
      </trkpt>
      <trkpt lat="45.37693" lon="6.65336">
        <ele>2329</ele>
        <time>2020-08-23T09:16:08Z</time>
      </trkpt>
      <trkpt lat="45.37691" lon="6.65325">
        <ele>2331</ele>
        <time>2020-08-23T09:16:20Z</time>
      </trkpt>
      <trkpt lat="45.37676" lon="6.65308">
        <ele>2335</ele>
        <time>2020-08-23T09:16:51Z</time>
      </trkpt>
      <trkpt lat="45.37673" lon="6.65303">
        <ele>2335</ele>
        <time>2020-08-23T09:17:00Z</time>
      </trkpt>
      <trkpt lat="45.37666" lon="6.653">
        <ele>2335</ele>
        <time>2020-08-23T09:17:12Z</time>
      </trkpt>
      <trkpt lat="45.37641" lon="6.65286">
        <ele>2336</ele>
        <time>2020-08-23T09:17:44Z</time>
      </trkpt>
      <trkpt lat="45.37626" lon="6.65283">
        <ele>2336</ele>
        <time>2020-08-23T09:18:02Z</time>
      </trkpt>
      <trkpt lat="45.3761" lon="6.65289">
        <ele>2340</ele>
        <time>2020-08-23T09:18:30Z</time>
      </trkpt>
      <trkpt lat="45.37604" lon="6.65288">
        <ele>2341</ele>
        <time>2020-08-23T09:18:40Z</time>
      </trkpt>
      <trkpt lat="45.3759" lon="6.65288">
        <ele>2343</ele>
        <time>2020-08-23T09:19:03Z</time>
      </trkpt>
      <trkpt lat="45.37586" lon="6.6529">
        <ele>2344</ele>
        <time>2020-08-23T09:19:15Z</time>
      </trkpt>
      <trkpt lat="45.37573" lon="6.65289">
        <ele>2346</ele>
        <time>2020-08-23T09:19:32Z</time>
      </trkpt>
      <trkpt lat="45.37569" lon="6.65288">
        <ele>2346</ele>
        <time>2020-08-23T09:19:41Z</time>
      </trkpt>
      <trkpt lat="45.37553" lon="6.65286">
        <ele>2348</ele>
        <time>2020-08-23T09:20:05Z</time>
      </trkpt>
      <trkpt lat="45.37545" lon="6.65289">
        <ele>2349</ele>
        <time>2020-08-23T09:20:23Z</time>
      </trkpt>
      <trkpt lat="45.3754" lon="6.65291">
        <ele>2349</ele>
        <time>2020-08-23T09:20:29Z</time>
      </trkpt>
      <trkpt lat="45.37521" lon="6.65285">
        <ele>2352</ele>
        <time>2020-08-23T09:20:59Z</time>
      </trkpt>
      <trkpt lat="45.37507" lon="6.6529">
        <ele>2356</ele>
        <time>2020-08-23T09:21:23Z</time>
      </trkpt>
      <trkpt lat="45.375" lon="6.6529">
        <ele>2357</ele>
        <time>2020-08-23T09:21:35Z</time>
      </trkpt>
      <trkpt lat="45.37494" lon="6.65293">
        <ele>2359</ele>
        <time>2020-08-23T09:21:47Z</time>
      </trkpt>
      <trkpt lat="45.37473" lon="6.65319">
        <ele>2361</ele>
        <time>2020-08-23T09:22:25Z</time>
      </trkpt>
      <trkpt lat="45.37459" lon="6.65329">
        <ele>2362</ele>
        <time>2020-08-23T09:22:48Z</time>
      </trkpt>
      <trkpt lat="45.37453" lon="6.65334">
        <ele>2364</ele>
        <time>2020-08-23T09:23:00Z</time>
      </trkpt>
      <trkpt lat="45.37448" lon="6.65336">
        <ele>2364</ele>
        <time>2020-08-23T09:23:06Z</time>
      </trkpt>
      <trkpt lat="45.37443" lon="6.65336">
        <ele>2366</ele>
        <time>2020-08-23T09:23:18Z</time>
      </trkpt>
      <trkpt lat="45.37429" lon="6.65343">
        <ele>2368</ele>
        <time>2020-08-23T09:23:42Z</time>
      </trkpt>
      <trkpt lat="45.37422" lon="6.65345">
        <ele>2370</ele>
        <time>2020-08-23T09:23:54Z</time>
      </trkpt>
      <trkpt lat="45.37414" lon="6.65345">
        <ele>2371</ele>
        <time>2020-08-23T09:24:06Z</time>
      </trkpt>
      <trkpt lat="45.374" lon="6.65338">
        <ele>2373</ele>
        <time>2020-08-23T09:24:30Z</time>
      </trkpt>
      <trkpt lat="45.37396" lon="6.65328">
        <ele>2374</ele>
        <time>2020-08-23T09:24:42Z</time>
      </trkpt>
      <trkpt lat="45.37396" lon="6.65316">
        <ele>2376</ele>
        <time>2020-08-23T09:24:54Z</time>
      </trkpt>
      <trkpt lat="45.37394" lon="6.65305">
        <ele>2377</ele>
        <time>2020-08-23T09:25:06Z</time>
      </trkpt>
      <trkpt lat="45.37397" lon="6.65299">
        <ele>2378</ele>
        <time>2020-08-23T09:25:12Z</time>
      </trkpt>
      <trkpt lat="45.37399" lon="6.6528">
        <ele>2380</ele>
        <time>2020-08-23T09:25:32Z</time>
      </trkpt>
      <trkpt lat="45.37398" lon="6.65272">
        <ele>2382</ele>
        <time>2020-08-23T09:25:42Z</time>
      </trkpt>
      <trkpt lat="45.37393" lon="6.65272">
        <ele>2383</ele>
        <time>2020-08-23T09:25:52Z</time>
      </trkpt>
      <trkpt lat="45.37388" lon="6.65277">
        <ele>2384</ele>
        <time>2020-08-23T09:26:03Z</time>
      </trkpt>
      <trkpt lat="45.37378" lon="6.65302">
        <ele>2387</ele>
        <time>2020-08-23T09:26:33Z</time>
      </trkpt>
      <trkpt lat="45.37368" lon="6.65314">
        <ele>2390</ele>
        <time>2020-08-23T09:26:57Z</time>
      </trkpt>
      <trkpt lat="45.37364" lon="6.65317">
        <ele>2391</ele>
        <time>2020-08-23T09:27:09Z</time>
      </trkpt>
      <trkpt lat="45.3735" lon="6.6532">
        <ele>2394</ele>
        <time>2020-08-23T09:27:33Z</time>
      </trkpt>
      <trkpt lat="45.37344" lon="6.65319">
        <ele>2396</ele>
        <time>2020-08-23T09:27:45Z</time>
      </trkpt>
      <trkpt lat="45.3732" lon="6.65309">
        <ele>2401</ele>
        <time>2020-08-23T09:28:27Z</time>
      </trkpt>
      <trkpt lat="45.37313" lon="6.65307">
        <ele>2402</ele>
        <time>2020-08-23T09:28:39Z</time>
      </trkpt>
      <trkpt lat="45.37286" lon="6.65295">
        <ele>2405</ele>
        <time>2020-08-23T09:29:18Z</time>
      </trkpt>
      <trkpt lat="45.37281" lon="6.65296">
        <ele>2405</ele>
        <time>2020-08-23T09:29:26Z</time>
      </trkpt>
      <trkpt lat="45.37271" lon="6.65297">
        <ele>2404</ele>
        <time>2020-08-23T09:29:36Z</time>
      </trkpt>
      <trkpt lat="45.37267" lon="6.65297">
        <ele>2405</ele>
        <time>2020-08-23T09:29:44Z</time>
      </trkpt>
      <trkpt lat="45.37266" lon="6.6529">
        <ele>2405</ele>
        <time>2020-08-23T09:29:56Z</time>
      </trkpt>
      <trkpt lat="45.37263" lon="6.65286">
        <ele>2405</ele>
        <time>2020-08-23T09:30:08Z</time>
      </trkpt>
      <trkpt lat="45.37256" lon="6.65284">
        <ele>2406</ele>
        <time>2020-08-23T09:30:20Z</time>
      </trkpt>
      <trkpt lat="45.37251" lon="6.65282">
        <ele>2406</ele>
        <time>2020-08-23T09:30:26Z</time>
      </trkpt>
      <trkpt lat="45.37247" lon="6.65282">
        <ele>2407</ele>
        <time>2020-08-23T09:30:38Z</time>
      </trkpt>
      <trkpt lat="45.37243" lon="6.65276">
        <ele>2407</ele>
        <time>2020-08-23T09:31:31Z</time>
      </trkpt>
      <trkpt lat="45.37234" lon="6.65269">
        <ele>2407</ele>
        <time>2020-08-23T09:31:35Z</time>
      </trkpt>
      <trkpt lat="45.3723" lon="6.65273">
        <ele>2407</ele>
        <time>2020-08-23T09:31:43Z</time>
      </trkpt>
      <trkpt lat="45.37235" lon="6.65276">
        <ele>2408</ele>
        <time>2020-08-23T09:32:24Z</time>
      </trkpt>
      <trkpt lat="45.3724" lon="6.65279">
        <ele>2408</ele>
        <time>2020-08-23T09:32:32Z</time>
      </trkpt>
      <trkpt lat="45.37236" lon="6.65278">
        <ele>2410</ele>
        <time>2020-08-23T09:36:15Z</time>
      </trkpt>
      <trkpt lat="45.37232" lon="6.65274">
        <ele>2410</ele>
        <time>2020-08-23T09:36:21Z</time>
      </trkpt>
      <trkpt lat="45.37227" lon="6.65268">
        <ele>2411</ele>
        <time>2020-08-23T09:36:33Z</time>
      </trkpt>
      <trkpt lat="45.37205" lon="6.65248">
        <ele>2413</ele>
        <time>2020-08-23T09:37:04Z</time>
      </trkpt>
      <trkpt lat="45.37182" lon="6.65234">
        <ele>2416</ele>
        <time>2020-08-23T09:37:38Z</time>
      </trkpt>
      <trkpt lat="45.37157" lon="6.65217">
        <ele>2420</ele>
        <time>2020-08-23T09:38:14Z</time>
      </trkpt>
      <trkpt lat="45.37133" lon="6.65207">
        <ele>2423</ele>
        <time>2020-08-23T09:38:50Z</time>
      </trkpt>
      <trkpt lat="45.37123" lon="6.65207">
        <ele>2424</ele>
        <time>2020-08-23T09:39:02Z</time>
      </trkpt>
      <trkpt lat="45.37104" lon="6.65207">
        <ele>2424</ele>
        <time>2020-08-23T09:39:24Z</time>
      </trkpt>
      <trkpt lat="45.37085" lon="6.65204">
        <ele>2425</ele>
        <time>2020-08-23T09:39:53Z</time>
      </trkpt>
      <trkpt lat="45.37078" lon="6.65204">
        <ele>2426</ele>
        <time>2020-08-23T09:40:03Z</time>
      </trkpt>
      <trkpt lat="45.37066" lon="6.65201">
        <ele>2426</ele>
        <time>2020-08-23T09:40:24Z</time>
      </trkpt>
      <trkpt lat="45.37059" lon="6.65204">
        <ele>2427</ele>
        <time>2020-08-23T09:40:42Z</time>
      </trkpt>
      <trkpt lat="45.37052" lon="6.65202">
        <ele>2428</ele>
        <time>2020-08-23T09:40:50Z</time>
      </trkpt>
      <trkpt lat="45.3704" lon="6.65206">
        <ele>2429</ele>
        <time>2020-08-23T09:41:08Z</time>
      </trkpt>
      <trkpt lat="45.37035" lon="6.65206">
        <ele>2428</ele>
        <time>2020-08-23T09:41:14Z</time>
      </trkpt>
      <trkpt lat="45.3703" lon="6.65211">
        <ele>2428</ele>
        <time>2020-08-23T09:41:32Z</time>
      </trkpt>
      <trkpt lat="45.3702" lon="6.65209">
        <ele>2428</ele>
        <time>2020-08-23T09:41:42Z</time>
      </trkpt>
      <trkpt lat="45.37015" lon="6.6521">
        <ele>2428</ele>
        <time>2020-08-23T09:41:47Z</time>
      </trkpt>
      <trkpt lat="45.37011" lon="6.65214">
        <ele>2428</ele>
        <time>2020-08-23T09:41:52Z</time>
      </trkpt>
      <trkpt lat="45.37007" lon="6.65218">
        <ele>2428</ele>
        <time>2020-08-23T09:41:57Z</time>
      </trkpt>
      <trkpt lat="45.37002" lon="6.65218">
        <ele>2427</ele>
        <time>2020-08-23T09:42:11Z</time>
      </trkpt>
      <trkpt lat="45.36998" lon="6.65221">
        <ele>2428</ele>
        <time>2020-08-23T09:43:11Z</time>
      </trkpt>
      <trkpt lat="45.36992" lon="6.65223">
        <ele>2428</ele>
        <time>2020-08-23T09:43:17Z</time>
      </trkpt>
      <trkpt lat="45.36987" lon="6.65223">
        <ele>2428</ele>
        <time>2020-08-23T09:43:21Z</time>
      </trkpt>
      <trkpt lat="45.36982" lon="6.65225">
        <ele>2428</ele>
        <time>2020-08-23T09:43:26Z</time>
      </trkpt>
      <trkpt lat="45.36972" lon="6.65226">
        <ele>2428</ele>
        <time>2020-08-23T09:43:39Z</time>
      </trkpt>
      <trkpt lat="45.36967" lon="6.6523">
        <ele>2428</ele>
        <time>2020-08-23T09:43:44Z</time>
      </trkpt>
      <trkpt lat="45.36963" lon="6.65231">
        <ele>2429</ele>
        <time>2020-08-23T09:43:49Z</time>
      </trkpt>
      <trkpt lat="45.36958" lon="6.65233">
        <ele>2428</ele>
        <time>2020-08-23T09:44:20Z</time>
      </trkpt>
      <trkpt lat="45.36954" lon="6.65237">
        <ele>2428</ele>
        <time>2020-08-23T09:44:30Z</time>
      </trkpt>
      <trkpt lat="45.36946" lon="6.65245">
        <ele>2429</ele>
        <time>2020-08-23T09:44:40Z</time>
      </trkpt>
      <trkpt lat="45.36937" lon="6.65251">
        <ele>2428</ele>
        <time>2020-08-23T09:44:46Z</time>
      </trkpt>
      <trkpt lat="45.36932" lon="6.65259">
        <ele>2429</ele>
        <time>2020-08-23T09:44:57Z</time>
      </trkpt>
      <trkpt lat="45.36927" lon="6.65266">
        <ele>2429</ele>
        <time>2020-08-23T09:45:09Z</time>
      </trkpt>
      <trkpt lat="45.36919" lon="6.6527">
        <ele>2430</ele>
        <time>2020-08-23T09:45:26Z</time>
      </trkpt>
      <trkpt lat="45.36913" lon="6.6527">
        <ele>2430</ele>
        <time>2020-08-23T09:45:31Z</time>
      </trkpt>
      <trkpt lat="45.36904" lon="6.65271">
        <ele>2430</ele>
        <time>2020-08-23T09:45:40Z</time>
      </trkpt>
      <trkpt lat="45.369" lon="6.65273">
        <ele>2431</ele>
        <time>2020-08-23T09:45:54Z</time>
      </trkpt>
      <trkpt lat="45.36893" lon="6.6527">
        <ele>2432</ele>
        <time>2020-08-23T09:46:06Z</time>
      </trkpt>
      <trkpt lat="45.36894" lon="6.65278">
        <ele>2433</ele>
        <time>2020-08-23T09:46:24Z</time>
      </trkpt>
      <trkpt lat="45.36891" lon="6.65286">
        <ele>2434</ele>
        <time>2020-08-23T09:46:42Z</time>
      </trkpt>
      <trkpt lat="45.3689" lon="6.65292">
        <ele>2434</ele>
        <time>2020-08-23T09:46:47Z</time>
      </trkpt>
      <trkpt lat="45.36887" lon="6.65299">
        <ele>2435</ele>
        <time>2020-08-23T09:46:54Z</time>
      </trkpt>
      <trkpt lat="45.36878" lon="6.65309">
        <ele>2436</ele>
        <time>2020-08-23T09:47:06Z</time>
      </trkpt>
      <trkpt lat="45.36866" lon="6.65312">
        <ele>2437</ele>
        <time>2020-08-23T09:47:29Z</time>
      </trkpt>
      <trkpt lat="45.36859" lon="6.65318">
        <ele>2437</ele>
        <time>2020-08-23T09:47:53Z</time>
      </trkpt>
      <trkpt lat="45.36855" lon="6.65324">
        <ele>2438</ele>
        <time>2020-08-23T09:47:59Z</time>
      </trkpt>
      <trkpt lat="45.36847" lon="6.65335">
        <ele>2440</ele>
        <time>2020-08-23T09:48:16Z</time>
      </trkpt>
      <trkpt lat="45.36844" lon="6.65345">
        <ele>2442</ele>
        <time>2020-08-23T09:48:28Z</time>
      </trkpt>
      <trkpt lat="45.36839" lon="6.6535">
        <ele>2443</ele>
        <time>2020-08-23T09:48:40Z</time>
      </trkpt>
      <trkpt lat="45.36837" lon="6.65344">
        <ele>2443</ele>
        <time>2020-08-23T09:49:35Z</time>
      </trkpt>
      <trkpt lat="45.36831" lon="6.65329">
        <ele>2446</ele>
        <time>2020-08-23T09:49:49Z</time>
      </trkpt>
      <trkpt lat="45.36828" lon="6.65324">
        <ele>2446</ele>
        <time>2020-08-23T09:49:53Z</time>
      </trkpt>
      <trkpt lat="45.36824" lon="6.65318">
        <ele>2447</ele>
        <time>2020-08-23T09:50:04Z</time>
      </trkpt>
      <trkpt lat="45.3682" lon="6.65313">
        <ele>2447</ele>
        <time>2020-08-23T09:50:22Z</time>
      </trkpt>
      <trkpt lat="45.36816" lon="6.65308">
        <ele>2447</ele>
        <time>2020-08-23T09:50:40Z</time>
      </trkpt>
      <trkpt lat="45.36811" lon="6.65304">
        <ele>2447</ele>
        <time>2020-08-23T09:50:58Z</time>
      </trkpt>
      <trkpt lat="45.36803" lon="6.65296">
        <ele>2447</ele>
        <time>2020-08-23T09:51:09Z</time>
      </trkpt>
      <trkpt lat="45.36795" lon="6.65288">
        <ele>2446</ele>
        <time>2020-08-23T09:51:17Z</time>
      </trkpt>
      <trkpt lat="45.36788" lon="6.65283">
        <ele>2445</ele>
        <time>2020-08-23T09:51:27Z</time>
      </trkpt>
      <trkpt lat="45.36779" lon="6.65274">
        <ele>2444</ele>
        <time>2020-08-23T09:51:41Z</time>
      </trkpt>
      <trkpt lat="45.36775" lon="6.65272">
        <ele>2444</ele>
        <time>2020-08-23T09:51:46Z</time>
      </trkpt>
      <trkpt lat="45.36746" lon="6.65267">
        <ele>2445</ele>
        <time>2020-08-23T09:52:16Z</time>
      </trkpt>
      <trkpt lat="45.36741" lon="6.65267">
        <ele>2446</ele>
        <time>2020-08-23T09:52:21Z</time>
      </trkpt>
      <trkpt lat="45.36736" lon="6.65268">
        <ele>2446</ele>
        <time>2020-08-23T09:52:52Z</time>
      </trkpt>
      <trkpt lat="45.36731" lon="6.65267">
        <ele>2446</ele>
        <time>2020-08-23T09:52:57Z</time>
      </trkpt>
      <trkpt lat="45.36725" lon="6.65265">
        <ele>2447</ele>
        <time>2020-08-23T09:53:05Z</time>
      </trkpt>
      <trkpt lat="45.3672" lon="6.65266">
        <ele>2447</ele>
        <time>2020-08-23T09:53:10Z</time>
      </trkpt>
      <trkpt lat="45.36715" lon="6.65268">
        <ele>2447</ele>
        <time>2020-08-23T09:53:15Z</time>
      </trkpt>
      <trkpt lat="45.36709" lon="6.65269">
        <ele>2448</ele>
        <time>2020-08-23T09:53:46Z</time>
      </trkpt>
      <trkpt lat="45.36704" lon="6.6527">
        <ele>2448</ele>
        <time>2020-08-23T09:53:51Z</time>
      </trkpt>
      <trkpt lat="45.36698" lon="6.65274">
        <ele>2449</ele>
        <time>2020-08-23T09:53:59Z</time>
      </trkpt>
      <trkpt lat="45.36685" lon="6.65279">
        <ele>2451</ele>
        <time>2020-08-23T09:54:19Z</time>
      </trkpt>
      <trkpt lat="45.3668" lon="6.65276">
        <ele>2451</ele>
        <time>2020-08-23T09:54:26Z</time>
      </trkpt>
      <trkpt lat="45.36673" lon="6.65279">
        <ele>2452</ele>
        <time>2020-08-23T09:54:36Z</time>
      </trkpt>
      <trkpt lat="45.36669" lon="6.65285">
        <ele>2453</ele>
        <time>2020-08-23T09:54:46Z</time>
      </trkpt>
      <trkpt lat="45.36664" lon="6.65286">
        <ele>2453</ele>
        <time>2020-08-23T09:54:52Z</time>
      </trkpt>
      <trkpt lat="45.36657" lon="6.65293">
        <ele>2454</ele>
        <time>2020-08-23T09:55:04Z</time>
      </trkpt>
      <trkpt lat="45.36651" lon="6.65297">
        <ele>2454</ele>
        <time>2020-08-23T09:55:16Z</time>
      </trkpt>
      <trkpt lat="45.36644" lon="6.65305">
        <ele>2455</ele>
        <time>2020-08-23T09:55:28Z</time>
      </trkpt>
      <trkpt lat="45.36642" lon="6.6531">
        <ele>2456</ele>
        <time>2020-08-23T09:55:34Z</time>
      </trkpt>
      <trkpt lat="45.36637" lon="6.65319">
        <ele>2458</ele>
        <time>2020-08-23T09:55:46Z</time>
      </trkpt>
      <trkpt lat="45.36634" lon="6.65331">
        <ele>2459</ele>
        <time>2020-08-23T09:55:57Z</time>
      </trkpt>
      <trkpt lat="45.36631" lon="6.65337">
        <ele>2459</ele>
        <time>2020-08-23T09:56:05Z</time>
      </trkpt>
      <trkpt lat="45.36627" lon="6.65339">
        <ele>2459</ele>
        <time>2020-08-23T09:56:10Z</time>
      </trkpt>
      <trkpt lat="45.3662" lon="6.65348">
        <ele>2459</ele>
        <time>2020-08-23T09:56:20Z</time>
      </trkpt>
      <trkpt lat="45.36616" lon="6.65351">
        <ele>2460</ele>
        <time>2020-08-23T09:56:29Z</time>
      </trkpt>
      <trkpt lat="45.36607" lon="6.65351">
        <ele>2460</ele>
        <time>2020-08-23T09:56:41Z</time>
      </trkpt>
      <trkpt lat="45.36589" lon="6.65363">
        <ele>2464</ele>
        <time>2020-08-23T09:57:18Z</time>
      </trkpt>
      <trkpt lat="45.36583" lon="6.65365">
        <ele>2464</ele>
        <time>2020-08-23T09:57:24Z</time>
      </trkpt>
      <trkpt lat="45.36579" lon="6.65368">
        <ele>2465</ele>
        <time>2020-08-23T09:57:32Z</time>
      </trkpt>
      <trkpt lat="45.36576" lon="6.65374">
        <ele>2467</ele>
        <time>2020-08-23T09:57:50Z</time>
      </trkpt>
      <trkpt lat="45.36572" lon="6.65377">
        <ele>2467</ele>
        <time>2020-08-23T09:57:55Z</time>
      </trkpt>
      <trkpt lat="45.36566" lon="6.65384">
        <ele>2468</ele>
        <time>2020-08-23T09:58:04Z</time>
      </trkpt>
      <trkpt lat="45.36559" lon="6.65397">
        <ele>2469</ele>
        <time>2020-08-23T09:58:19Z</time>
      </trkpt>
      <trkpt lat="45.36548" lon="6.65408">
        <ele>2471</ele>
        <time>2020-08-23T09:58:35Z</time>
      </trkpt>
      <trkpt lat="45.36535" lon="6.6543">
        <ele>2474</ele>
        <time>2020-08-23T09:59:07Z</time>
      </trkpt>
      <trkpt lat="45.36531" lon="6.65437">
        <ele>2476</ele>
        <time>2020-08-23T09:59:19Z</time>
      </trkpt>
      <trkpt lat="45.36524" lon="6.65443">
        <ele>2477</ele>
        <time>2020-08-23T09:59:31Z</time>
      </trkpt>
      <trkpt lat="45.36527" lon="6.65447">
        <ele>2478</ele>
        <time>2020-08-23T09:59:44Z</time>
      </trkpt>
      <trkpt lat="45.36521" lon="6.65448">
        <ele>2478</ele>
        <time>2020-08-23T09:59:56Z</time>
      </trkpt>
      <trkpt lat="45.36508" lon="6.65465">
        <ele>2480</ele>
        <time>2020-08-23T10:00:20Z</time>
      </trkpt>
      <trkpt lat="45.36503" lon="6.65465">
        <ele>2480</ele>
        <time>2020-08-23T10:00:25Z</time>
      </trkpt>
      <trkpt lat="45.36498" lon="6.65461">
        <ele>2480</ele>
        <time>2020-08-23T10:00:39Z</time>
      </trkpt>
      <trkpt lat="45.36494" lon="6.65458">
        <ele>2480</ele>
        <time>2020-08-23T10:00:43Z</time>
      </trkpt>
      <trkpt lat="45.36489" lon="6.65457">
        <ele>2480</ele>
        <time>2020-08-23T10:00:47Z</time>
      </trkpt>
      <trkpt lat="45.36484" lon="6.65457">
        <ele>2480</ele>
        <time>2020-08-23T10:00:51Z</time>
      </trkpt>
      <trkpt lat="45.36476" lon="6.65456">
        <ele>2481</ele>
        <time>2020-08-23T10:01:11Z</time>
      </trkpt>
      <trkpt lat="45.36471" lon="6.65455">
        <ele>2481</ele>
        <time>2020-08-23T10:01:26Z</time>
      </trkpt>
      <trkpt lat="45.36464" lon="6.65448">
        <ele>2481</ele>
        <time>2020-08-23T10:01:36Z</time>
      </trkpt>
      <trkpt lat="45.36454" lon="6.65432">
        <ele>2480</ele>
        <time>2020-08-23T10:02:06Z</time>
      </trkpt>
      <trkpt lat="45.36449" lon="6.6543">
        <ele>2480</ele>
        <time>2020-08-23T10:02:11Z</time>
      </trkpt>
      <trkpt lat="45.36445" lon="6.65427">
        <ele>2480</ele>
        <time>2020-08-23T10:02:15Z</time>
      </trkpt>
      <trkpt lat="45.36437" lon="6.65417">
        <ele>2479</ele>
        <time>2020-08-23T10:02:27Z</time>
      </trkpt>
      <trkpt lat="45.36432" lon="6.65409">
        <ele>2479</ele>
        <time>2020-08-23T10:02:35Z</time>
      </trkpt>
      <trkpt lat="45.36427" lon="6.65406">
        <ele>2478</ele>
        <time>2020-08-23T10:02:40Z</time>
      </trkpt>
      <trkpt lat="45.36408" lon="6.6539">
        <ele>2479</ele>
        <time>2020-08-23T10:03:03Z</time>
      </trkpt>
      <trkpt lat="45.36393" lon="6.65368">
        <ele>2478</ele>
        <time>2020-08-23T10:03:29Z</time>
      </trkpt>
      <trkpt lat="45.36386" lon="6.65363">
        <ele>2477</ele>
        <time>2020-08-23T10:03:41Z</time>
      </trkpt>
      <trkpt lat="45.36382" lon="6.65362">
        <ele>2476</ele>
        <time>2020-08-23T10:03:47Z</time>
      </trkpt>
      <trkpt lat="45.36377" lon="6.65363">
        <ele>2476</ele>
        <time>2020-08-23T10:03:53Z</time>
      </trkpt>
      <trkpt lat="45.36367" lon="6.65364">
        <ele>2476</ele>
        <time>2020-08-23T10:04:05Z</time>
      </trkpt>
      <trkpt lat="45.36358" lon="6.65364">
        <ele>2478</ele>
        <time>2020-08-23T10:05:05Z</time>
      </trkpt>
      <trkpt lat="45.36351" lon="6.6537">
        <ele>2479</ele>
        <time>2020-08-23T10:05:16Z</time>
      </trkpt>
      <trkpt lat="45.3634" lon="6.65372">
        <ele>2482</ele>
        <time>2020-08-23T10:05:30Z</time>
      </trkpt>
      <trkpt lat="45.36333" lon="6.65367">
        <ele>2484</ele>
        <time>2020-08-23T10:05:40Z</time>
      </trkpt>
      <trkpt lat="45.36328" lon="6.65365">
        <ele>2485</ele>
        <time>2020-08-23T10:05:52Z</time>
      </trkpt>
      <trkpt lat="45.36324" lon="6.6537">
        <ele>2486</ele>
        <time>2020-08-23T10:06:04Z</time>
      </trkpt>
      <trkpt lat="45.36318" lon="6.65374">
        <ele>2486</ele>
        <time>2020-08-23T10:06:22Z</time>
      </trkpt>
      <trkpt lat="45.36314" lon="6.65375">
        <ele>2486</ele>
        <time>2020-08-23T10:06:28Z</time>
      </trkpt>
      <trkpt lat="45.36314" lon="6.65371">
        <ele>2486</ele>
        <time>2020-08-23T10:09:26Z</time>
      </trkpt>
      <trkpt lat="45.36319" lon="6.6537">
        <ele>2487</ele>
        <time>2020-08-23T10:09:30Z</time>
      </trkpt>
      <trkpt lat="45.36316" lon="6.65375">
        <ele>2487</ele>
        <time>2020-08-23T10:12:16Z</time>
      </trkpt>
      <trkpt lat="45.36312" lon="6.65369">
        <ele>2486</ele>
        <time>2020-08-23T10:12:57Z</time>
      </trkpt>
      <trkpt lat="45.36311" lon="6.65368">
        <ele>2484</ele>
        <time>2020-08-23T10:16:51Z</time>
      </trkpt>
      <trkpt lat="45.36307" lon="6.65366">
        <ele>2490</ele>
        <time>2020-08-23T10:57:42Z</time>
      </trkpt>
      <trkpt lat="45.36309" lon="6.65374">
        <ele>2492</ele>
        <time>2020-08-23T10:59:18Z</time>
      </trkpt>
      <trkpt lat="45.36304" lon="6.65374">
        <ele>2487</ele>
        <time>2020-08-23T11:06:39Z</time>
      </trkpt>
      <trkpt lat="45.363" lon="6.65372">
        <ele>2486</ele>
        <time>2020-08-23T11:06:45Z</time>
      </trkpt>
      <trkpt lat="45.3629" lon="6.65367">
        <ele>2486</ele>
        <time>2020-08-23T11:06:57Z</time>
      </trkpt>
      <trkpt lat="45.36284" lon="6.65368">
        <ele>2485</ele>
        <time>2020-08-23T11:07:04Z</time>
      </trkpt>
      <trkpt lat="45.36274" lon="6.65366">
        <ele>2484</ele>
        <time>2020-08-23T11:07:17Z</time>
      </trkpt>
      <trkpt lat="45.3627" lon="6.65364">
        <ele>2482</ele>
        <time>2020-08-23T11:08:25Z</time>
      </trkpt>
      <trkpt lat="45.36265" lon="6.65365">
        <ele>2481</ele>
        <time>2020-08-23T11:08:43Z</time>
      </trkpt>
      <trkpt lat="45.36255" lon="6.65355">
        <ele>2479</ele>
        <time>2020-08-23T11:09:01Z</time>
      </trkpt>
      <trkpt lat="45.36251" lon="6.65349">
        <ele>2479</ele>
        <time>2020-08-23T11:09:43Z</time>
      </trkpt>
      <trkpt lat="45.36246" lon="6.65348">
        <ele>2478</ele>
        <time>2020-08-23T11:09:54Z</time>
      </trkpt>
      <trkpt lat="45.36232" lon="6.65332">
        <ele>2473</ele>
        <time>2020-08-23T11:10:19Z</time>
      </trkpt>
      <trkpt lat="45.36229" lon="6.65327">
        <ele>2473</ele>
        <time>2020-08-23T11:10:25Z</time>
      </trkpt>
      <trkpt lat="45.36225" lon="6.65323">
        <ele>2473</ele>
        <time>2020-08-23T11:10:31Z</time>
      </trkpt>
      <trkpt lat="45.3622" lon="6.65322">
        <ele>2473</ele>
        <time>2020-08-23T11:10:37Z</time>
      </trkpt>
      <trkpt lat="45.36215" lon="6.6532">
        <ele>2473</ele>
        <time>2020-08-23T11:10:43Z</time>
      </trkpt>
      <trkpt lat="45.3622" lon="6.65314">
        <ele>2472</ele>
        <time>2020-08-23T11:11:09Z</time>
      </trkpt>
      <trkpt lat="45.36227" lon="6.65301">
        <ele>2467</ele>
        <time>2020-08-23T11:11:27Z</time>
      </trkpt>
      <trkpt lat="45.36244" lon="6.65282">
        <ele>2461</ele>
        <time>2020-08-23T11:12:03Z</time>
      </trkpt>
      <trkpt lat="45.36249" lon="6.65281">
        <ele>2458</ele>
        <time>2020-08-23T11:12:21Z</time>
      </trkpt>
      <trkpt lat="45.36252" lon="6.65274">
        <ele>2457</ele>
        <time>2020-08-23T11:12:39Z</time>
      </trkpt>
      <trkpt lat="45.36252" lon="6.65264">
        <ele>2454</ele>
        <time>2020-08-23T11:12:51Z</time>
      </trkpt>
      <trkpt lat="45.36252" lon="6.65254">
        <ele>2452</ele>
        <time>2020-08-23T11:13:03Z</time>
      </trkpt>
      <trkpt lat="45.36244" lon="6.65238">
        <ele>2450</ele>
        <time>2020-08-23T11:13:27Z</time>
      </trkpt>
      <trkpt lat="45.36243" lon="6.65228">
        <ele>2449</ele>
        <time>2020-08-23T11:13:39Z</time>
      </trkpt>
      <trkpt lat="45.36241" lon="6.65218">
        <ele>2448</ele>
        <time>2020-08-23T11:14:03Z</time>
      </trkpt>
      <trkpt lat="45.3624" lon="6.65211">
        <ele>2448</ele>
        <time>2020-08-23T11:14:15Z</time>
      </trkpt>
      <trkpt lat="45.36234" lon="6.65208">
        <ele>2447</ele>
        <time>2020-08-23T11:14:27Z</time>
      </trkpt>
      <trkpt lat="45.36231" lon="6.65202">
        <ele>2448</ele>
        <time>2020-08-23T11:14:47Z</time>
      </trkpt>
      <trkpt lat="45.36221" lon="6.65192">
        <ele>2446</ele>
        <time>2020-08-23T11:15:14Z</time>
      </trkpt>
      <trkpt lat="45.36216" lon="6.65185">
        <ele>2445</ele>
        <time>2020-08-23T11:15:26Z</time>
      </trkpt>
      <trkpt lat="45.3621" lon="6.65182">
        <ele>2443</ele>
        <time>2020-08-23T11:15:38Z</time>
      </trkpt>
      <trkpt lat="45.36196" lon="6.65169">
        <ele>2441</ele>
        <time>2020-08-23T11:16:03Z</time>
      </trkpt>
      <trkpt lat="45.36193" lon="6.65164">
        <ele>2440</ele>
        <time>2020-08-23T11:16:09Z</time>
      </trkpt>
      <trkpt lat="45.36185" lon="6.65148">
        <ele>2436</ele>
        <time>2020-08-23T11:16:33Z</time>
      </trkpt>
      <trkpt lat="45.36183" lon="6.65142">
        <ele>2435</ele>
        <time>2020-08-23T11:16:51Z</time>
      </trkpt>
      <trkpt lat="45.36178" lon="6.6514">
        <ele>2433</ele>
        <time>2020-08-23T11:17:51Z</time>
      </trkpt>
      <trkpt lat="45.36175" lon="6.65134">
        <ele>2431</ele>
        <time>2020-08-23T11:18:03Z</time>
      </trkpt>
      <trkpt lat="45.36177" lon="6.65128">
        <ele>2430</ele>
        <time>2020-08-23T11:18:15Z</time>
      </trkpt>
      <trkpt lat="45.36173" lon="6.65125">
        <ele>2430</ele>
        <time>2020-08-23T11:18:21Z</time>
      </trkpt>
      <trkpt lat="45.36171" lon="6.65115">
        <ele>2430</ele>
        <time>2020-08-23T11:18:40Z</time>
      </trkpt>
      <trkpt lat="45.36172" lon="6.65111">
        <ele>2428</ele>
        <time>2020-08-23T11:19:03Z</time>
      </trkpt>
      <trkpt lat="45.36166" lon="6.65096">
        <ele>2426</ele>
        <time>2020-08-23T11:19:19Z</time>
      </trkpt>
      <trkpt lat="45.36166" lon="6.65089">
        <ele>2427</ele>
        <time>2020-08-23T11:19:31Z</time>
      </trkpt>
      <trkpt lat="45.36164" lon="6.65081">
        <ele>2427</ele>
        <time>2020-08-23T11:19:43Z</time>
      </trkpt>
      <trkpt lat="45.36159" lon="6.65068">
        <ele>2426</ele>
        <time>2020-08-23T11:20:01Z</time>
      </trkpt>
      <trkpt lat="45.36155" lon="6.65055">
        <ele>2426</ele>
        <time>2020-08-23T11:20:13Z</time>
      </trkpt>
      <trkpt lat="45.36151" lon="6.65028">
        <ele>2429</ele>
        <time>2020-08-23T11:20:38Z</time>
      </trkpt>
      <trkpt lat="45.36142" lon="6.65016">
        <ele>2431</ele>
        <time>2020-08-23T11:20:56Z</time>
      </trkpt>
      <trkpt lat="45.36141" lon="6.65004">
        <ele>2432</ele>
        <time>2020-08-23T11:21:38Z</time>
      </trkpt>
      <trkpt lat="45.36135" lon="6.64998">
        <ele>2431</ele>
        <time>2020-08-23T11:24:28Z</time>
      </trkpt>
      <trkpt lat="45.36131" lon="6.64989">
        <ele>2431</ele>
        <time>2020-08-23T11:24:40Z</time>
      </trkpt>
      <trkpt lat="45.36127" lon="6.64968">
        <ele>2432</ele>
        <time>2020-08-23T11:24:57Z</time>
      </trkpt>
      <trkpt lat="45.36123" lon="6.64958">
        <ele>2433</ele>
        <time>2020-08-23T11:25:07Z</time>
      </trkpt>
      <trkpt lat="45.36119" lon="6.64954">
        <ele>2434</ele>
        <time>2020-08-23T11:25:12Z</time>
      </trkpt>
      <trkpt lat="45.36116" lon="6.64947">
        <ele>2435</ele>
        <time>2020-08-23T11:25:39Z</time>
      </trkpt>
      <trkpt lat="45.36105" lon="6.64937">
        <ele>2432</ele>
        <time>2020-08-23T11:25:56Z</time>
      </trkpt>
      <trkpt lat="45.36102" lon="6.64929">
        <ele>2431</ele>
        <time>2020-08-23T11:26:05Z</time>
      </trkpt>
      <trkpt lat="45.361" lon="6.64923">
        <ele>2430</ele>
        <time>2020-08-23T11:26:37Z</time>
      </trkpt>
      <trkpt lat="45.36094" lon="6.64911">
        <ele>2429</ele>
        <time>2020-08-23T11:26:48Z</time>
      </trkpt>
      <trkpt lat="45.36089" lon="6.64906">
        <ele>2429</ele>
        <time>2020-08-23T11:26:54Z</time>
      </trkpt>
      <trkpt lat="45.36084" lon="6.64903">
        <ele>2429</ele>
        <time>2020-08-23T11:27:00Z</time>
      </trkpt>
      <trkpt lat="45.36083" lon="6.64897">
        <ele>2430</ele>
        <time>2020-08-23T11:27:12Z</time>
      </trkpt>
      <trkpt lat="45.36081" lon="6.6489">
        <ele>2431</ele>
        <time>2020-08-23T11:27:24Z</time>
      </trkpt>
      <trkpt lat="45.36068" lon="6.64858">
        <ele>2435</ele>
        <time>2020-08-23T11:28:06Z</time>
      </trkpt>
      <trkpt lat="45.36063" lon="6.64848">
        <ele>2436</ele>
        <time>2020-08-23T11:28:18Z</time>
      </trkpt>
      <trkpt lat="45.36058" lon="6.64842">
        <ele>2437</ele>
        <time>2020-08-23T11:28:30Z</time>
      </trkpt>
      <trkpt lat="45.36057" lon="6.64833">
        <ele>2437</ele>
        <time>2020-08-23T11:28:53Z</time>
      </trkpt>
      <trkpt lat="45.36054" lon="6.64826">
        <ele>2437</ele>
        <time>2020-08-23T11:29:03Z</time>
      </trkpt>
      <trkpt lat="45.36051" lon="6.64819">
        <ele>2438</ele>
        <time>2020-08-23T11:29:13Z</time>
      </trkpt>
      <trkpt lat="45.3605" lon="6.6481">
        <ele>2439</ele>
        <time>2020-08-23T11:29:23Z</time>
      </trkpt>
      <trkpt lat="45.36045" lon="6.64805">
        <ele>2439</ele>
        <time>2020-08-23T11:29:33Z</time>
      </trkpt>
      <trkpt lat="45.36041" lon="6.64801">
        <ele>2439</ele>
        <time>2020-08-23T11:29:44Z</time>
      </trkpt>
      <trkpt lat="45.36038" lon="6.64795">
        <ele>2440</ele>
        <time>2020-08-23T11:30:02Z</time>
      </trkpt>
      <trkpt lat="45.36036" lon="6.64788">
        <ele>2442</ele>
        <time>2020-08-23T11:30:14Z</time>
      </trkpt>
      <trkpt lat="45.36026" lon="6.64776">
        <ele>2443</ele>
        <time>2020-08-23T11:30:44Z</time>
      </trkpt>
      <trkpt lat="45.36022" lon="6.64768">
        <ele>2444</ele>
        <time>2020-08-23T11:31:02Z</time>
      </trkpt>
      <trkpt lat="45.36017" lon="6.64763">
        <ele>2445</ele>
        <time>2020-08-23T11:31:14Z</time>
      </trkpt>
      <trkpt lat="45.36009" lon="6.64752">
        <ele>2447</ele>
        <time>2020-08-23T11:31:38Z</time>
      </trkpt>
      <trkpt lat="45.36003" lon="6.64735">
        <ele>2448</ele>
        <time>2020-08-23T11:32:02Z</time>
      </trkpt>
      <trkpt lat="45.35999" lon="6.64727">
        <ele>2448</ele>
        <time>2020-08-23T11:32:14Z</time>
      </trkpt>
      <trkpt lat="45.35994" lon="6.64722">
        <ele>2447</ele>
        <time>2020-08-23T11:33:20Z</time>
      </trkpt>
      <trkpt lat="45.35989" lon="6.6472">
        <ele>2447</ele>
        <time>2020-08-23T11:33:32Z</time>
      </trkpt>
      <trkpt lat="45.35981" lon="6.64712">
        <ele>2446</ele>
        <time>2020-08-23T11:33:44Z</time>
      </trkpt>
      <trkpt lat="45.35979" lon="6.64706">
        <ele>2447</ele>
        <time>2020-08-23T11:33:52Z</time>
      </trkpt>
      <trkpt lat="45.35973" lon="6.64703">
        <ele>2447</ele>
        <time>2020-08-23T11:34:04Z</time>
      </trkpt>
      <trkpt lat="45.3597" lon="6.64694">
        <ele>2448</ele>
        <time>2020-08-23T11:34:16Z</time>
      </trkpt>
      <trkpt lat="45.35965" lon="6.64684">
        <ele>2448</ele>
        <time>2020-08-23T11:34:28Z</time>
      </trkpt>
      <trkpt lat="45.35957" lon="6.6467">
        <ele>2449</ele>
        <time>2020-08-23T11:34:52Z</time>
      </trkpt>
      <trkpt lat="45.35953" lon="6.64664">
        <ele>2449</ele>
        <time>2020-08-23T11:35:04Z</time>
      </trkpt>
      <trkpt lat="45.3595" lon="6.64655">
        <ele>2449</ele>
        <time>2020-08-23T11:35:16Z</time>
      </trkpt>
      <trkpt lat="45.35944" lon="6.64651">
        <ele>2448</ele>
        <time>2020-08-23T11:35:34Z</time>
      </trkpt>
      <trkpt lat="45.3594" lon="6.64645">
        <ele>2448</ele>
        <time>2020-08-23T11:35:46Z</time>
      </trkpt>
      <trkpt lat="45.35935" lon="6.64637">
        <ele>2449</ele>
        <time>2020-08-23T11:35:58Z</time>
      </trkpt>
      <trkpt lat="45.3593" lon="6.64628">
        <ele>2450</ele>
        <time>2020-08-23T11:36:08Z</time>
      </trkpt>
      <trkpt lat="45.35926" lon="6.64624">
        <ele>2451</ele>
        <time>2020-08-23T11:36:18Z</time>
      </trkpt>
      <trkpt lat="45.35926" lon="6.64608">
        <ele>2453</ele>
        <time>2020-08-23T11:36:38Z</time>
      </trkpt>
      <trkpt lat="45.35927" lon="6.64602">
        <ele>2454</ele>
        <time>2020-08-23T11:36:56Z</time>
      </trkpt>
      <trkpt lat="45.35928" lon="6.64594">
        <ele>2454</ele>
        <time>2020-08-23T11:37:02Z</time>
      </trkpt>
      <trkpt lat="45.35932" lon="6.64577">
        <ele>2457</ele>
        <time>2020-08-23T11:37:48Z</time>
      </trkpt>
      <trkpt lat="45.35934" lon="6.64567">
        <ele>2458</ele>
        <time>2020-08-23T11:38:00Z</time>
      </trkpt>
      <trkpt lat="45.35941" lon="6.64549">
        <ele>2460</ele>
        <time>2020-08-23T11:38:24Z</time>
      </trkpt>
      <trkpt lat="45.35944" lon="6.64539">
        <ele>2460</ele>
        <time>2020-08-23T11:38:54Z</time>
      </trkpt>
      <trkpt lat="45.35948" lon="6.64534">
        <ele>2461</ele>
        <time>2020-08-23T11:39:12Z</time>
      </trkpt>
      <trkpt lat="45.35949" lon="6.64523">
        <ele>2461</ele>
        <time>2020-08-23T11:39:24Z</time>
      </trkpt>
      <trkpt lat="45.3596" lon="6.64498">
        <ele>2463</ele>
        <time>2020-08-23T11:40:06Z</time>
      </trkpt>
      <trkpt lat="45.35963" lon="6.64487">
        <ele>2463</ele>
        <time>2020-08-23T11:40:18Z</time>
      </trkpt>
      <trkpt lat="45.35963" lon="6.6448">
        <ele>2462</ele>
        <time>2020-08-23T11:40:24Z</time>
      </trkpt>
      <trkpt lat="45.35971" lon="6.6446">
        <ele>2462</ele>
        <time>2020-08-23T11:40:48Z</time>
      </trkpt>
      <trkpt lat="45.35978" lon="6.64439">
        <ele>2465</ele>
        <time>2020-08-23T11:41:12Z</time>
      </trkpt>
      <trkpt lat="45.3598" lon="6.64432">
        <ele>2466</ele>
        <time>2020-08-23T11:41:36Z</time>
      </trkpt>
      <trkpt lat="45.35985" lon="6.64424">
        <ele>2468</ele>
        <time>2020-08-23T11:42:00Z</time>
      </trkpt>
      <trkpt lat="45.35982" lon="6.64419">
        <ele>2470</ele>
        <time>2020-08-23T11:42:12Z</time>
      </trkpt>
      <trkpt lat="45.35981" lon="6.6441">
        <ele>2471</ele>
        <time>2020-08-23T11:42:24Z</time>
      </trkpt>
      <trkpt lat="45.35987" lon="6.64407">
        <ele>2473</ele>
        <time>2020-08-23T11:42:36Z</time>
      </trkpt>
      <trkpt lat="45.35989" lon="6.64405">
        <ele>2471</ele>
        <time>2020-08-23T11:47:09Z</time>
      </trkpt>
      <trkpt lat="45.35992" lon="6.64391">
        <ele>2470</ele>
        <time>2020-08-23T11:47:45Z</time>
      </trkpt>
      <trkpt lat="45.35989" lon="6.64383">
        <ele>2469</ele>
        <time>2020-08-23T11:48:09Z</time>
      </trkpt>
      <trkpt lat="45.3599" lon="6.64377">
        <ele>2468</ele>
        <time>2020-08-23T11:48:15Z</time>
      </trkpt>
      <trkpt lat="45.35987" lon="6.64356">
        <ele>2464</ele>
        <time>2020-08-23T11:48:39Z</time>
      </trkpt>
      <trkpt lat="45.35988" lon="6.64349">
        <ele>2464</ele>
        <time>2020-08-23T11:48:45Z</time>
      </trkpt>
      <trkpt lat="45.35991" lon="6.64328">
        <ele>2462</ele>
        <time>2020-08-23T11:49:11Z</time>
      </trkpt>
      <trkpt lat="45.35988" lon="6.64314">
        <ele>2459</ele>
        <time>2020-08-23T11:49:24Z</time>
      </trkpt>
      <trkpt lat="45.35989" lon="6.64304">
        <ele>2458</ele>
        <time>2020-08-23T11:49:41Z</time>
      </trkpt>
      <trkpt lat="45.35992" lon="6.64293">
        <ele>2457</ele>
        <time>2020-08-23T11:49:53Z</time>
      </trkpt>
      <trkpt lat="45.35991" lon="6.64285">
        <ele>2456</ele>
        <time>2020-08-23T11:49:59Z</time>
      </trkpt>
      <trkpt lat="45.35986" lon="6.6427">
        <ele>2454</ele>
        <time>2020-08-23T11:50:12Z</time>
      </trkpt>
      <trkpt lat="45.35985" lon="6.64263">
        <ele>2453</ele>
        <time>2020-08-23T11:50:17Z</time>
      </trkpt>
      <trkpt lat="45.35981" lon="6.64233">
        <ele>2451</ele>
        <time>2020-08-23T11:50:40Z</time>
      </trkpt>
      <trkpt lat="45.35982" lon="6.64226">
        <ele>2451</ele>
        <time>2020-08-23T11:50:46Z</time>
      </trkpt>
      <trkpt lat="45.35978" lon="6.64229">
        <ele>2453</ele>
        <time>2020-08-23T11:53:47Z</time>
      </trkpt>
      <trkpt lat="45.35968" lon="6.64243">
        <ele>2454</ele>
        <time>2020-08-23T11:54:03Z</time>
      </trkpt>
      <trkpt lat="45.35963" lon="6.64242">
        <ele>2454</ele>
        <time>2020-08-23T11:54:11Z</time>
      </trkpt>
      <trkpt lat="45.35959" lon="6.64246">
        <ele>2454</ele>
        <time>2020-08-23T11:54:17Z</time>
      </trkpt>
      <trkpt lat="45.35951" lon="6.64251">
        <ele>2453</ele>
        <time>2020-08-23T11:54:29Z</time>
      </trkpt>
      <trkpt lat="45.35944" lon="6.64258">
        <ele>2451</ele>
        <time>2020-08-23T11:54:41Z</time>
      </trkpt>
      <trkpt lat="45.35941" lon="6.64267">
        <ele>2449</ele>
        <time>2020-08-23T11:54:53Z</time>
      </trkpt>
      <trkpt lat="45.35937" lon="6.64272">
        <ele>2447</ele>
        <time>2020-08-23T11:54:59Z</time>
      </trkpt>
      <trkpt lat="45.35933" lon="6.64275">
        <ele>2446</ele>
        <time>2020-08-23T11:55:05Z</time>
      </trkpt>
      <trkpt lat="45.35929" lon="6.6428">
        <ele>2446</ele>
        <time>2020-08-23T11:55:11Z</time>
      </trkpt>
      <trkpt lat="45.35928" lon="6.64286">
        <ele>2446</ele>
        <time>2020-08-23T11:55:17Z</time>
      </trkpt>
      <trkpt lat="45.35926" lon="6.64292">
        <ele>2445</ele>
        <time>2020-08-23T11:55:23Z</time>
      </trkpt>
      <trkpt lat="45.35923" lon="6.64302">
        <ele>2443</ele>
        <time>2020-08-23T11:55:34Z</time>
      </trkpt>
      <trkpt lat="45.35924" lon="6.64309">
        <ele>2442</ele>
        <time>2020-08-23T11:55:42Z</time>
      </trkpt>
      <trkpt lat="45.35919" lon="6.64317">
        <ele>2439</ele>
        <time>2020-08-23T11:55:54Z</time>
      </trkpt>
      <trkpt lat="45.35915" lon="6.64327">
        <ele>2437</ele>
        <time>2020-08-23T11:56:06Z</time>
      </trkpt>
      <trkpt lat="45.35917" lon="6.64361">
        <ele>2433</ele>
        <time>2020-08-23T11:56:37Z</time>
      </trkpt>
      <trkpt lat="45.35918" lon="6.64374">
        <ele>2432</ele>
        <time>2020-08-23T11:56:49Z</time>
      </trkpt>
      <trkpt lat="45.35914" lon="6.64405">
        <ele>2429</ele>
        <time>2020-08-23T11:57:16Z</time>
      </trkpt>
      <trkpt lat="45.35908" lon="6.64415">
        <ele>2427</ele>
        <time>2020-08-23T11:57:33Z</time>
      </trkpt>
      <trkpt lat="45.35908" lon="6.64422">
        <ele>2427</ele>
        <time>2020-08-23T11:57:40Z</time>
      </trkpt>
      <trkpt lat="45.35898" lon="6.64441">
        <ele>2424</ele>
        <time>2020-08-23T11:58:00Z</time>
      </trkpt>
      <trkpt lat="45.35896" lon="6.64449">
        <ele>2423</ele>
        <time>2020-08-23T11:58:07Z</time>
      </trkpt>
      <trkpt lat="45.35881" lon="6.64474">
        <ele>2420</ele>
        <time>2020-08-23T11:58:33Z</time>
      </trkpt>
      <trkpt lat="45.35875" lon="6.64493">
        <ele>2418</ele>
        <time>2020-08-23T11:58:50Z</time>
      </trkpt>
      <trkpt lat="45.35878" lon="6.645">
        <ele>2419</ele>
        <time>2020-08-23T11:59:28Z</time>
      </trkpt>
      <trkpt lat="45.35876" lon="6.64501">
        <ele>2419</ele>
        <time>2020-08-23T12:00:54Z</time>
      </trkpt>
      <trkpt lat="45.35869" lon="6.64504">
        <ele>2417</ele>
        <time>2020-08-23T12:02:12Z</time>
      </trkpt>
      <trkpt lat="45.35864" lon="6.64506">
        <ele>2417</ele>
        <time>2020-08-23T12:02:18Z</time>
      </trkpt>
      <trkpt lat="45.35861" lon="6.64513">
        <ele>2416</ele>
        <time>2020-08-23T12:02:30Z</time>
      </trkpt>
      <trkpt lat="45.35857" lon="6.64523">
        <ele>2414</ele>
        <time>2020-08-23T12:02:48Z</time>
      </trkpt>
      <trkpt lat="45.35851" lon="6.64544">
        <ele>2411</ele>
        <time>2020-08-23T12:03:12Z</time>
      </trkpt>
      <trkpt lat="45.35849" lon="6.64575">
        <ele>2408</ele>
        <time>2020-08-23T12:03:38Z</time>
      </trkpt>
      <trkpt lat="45.35846" lon="6.64591">
        <ele>2406</ele>
        <time>2020-08-23T12:03:51Z</time>
      </trkpt>
      <trkpt lat="45.35845" lon="6.64597">
        <ele>2405</ele>
        <time>2020-08-23T12:03:56Z</time>
      </trkpt>
      <trkpt lat="45.35842" lon="6.64612">
        <ele>2404</ele>
        <time>2020-08-23T12:04:08Z</time>
      </trkpt>
      <trkpt lat="45.3584" lon="6.64619">
        <ele>2405</ele>
        <time>2020-08-23T12:04:16Z</time>
      </trkpt>
      <trkpt lat="45.3584" lon="6.64626">
        <ele>2405</ele>
        <time>2020-08-23T12:04:22Z</time>
      </trkpt>
      <trkpt lat="45.35836" lon="6.64639">
        <ele>2404</ele>
        <time>2020-08-23T12:04:34Z</time>
      </trkpt>
      <trkpt lat="45.35834" lon="6.64645">
        <ele>2403</ele>
        <time>2020-08-23T12:04:46Z</time>
      </trkpt>
      <trkpt lat="45.35834" lon="6.64658">
        <ele>2402</ele>
        <time>2020-08-23T12:05:36Z</time>
      </trkpt>
      <trkpt lat="45.35834" lon="6.64665">
        <ele>2402</ele>
        <time>2020-08-23T12:05:40Z</time>
      </trkpt>
      <trkpt lat="45.35839" lon="6.64677">
        <ele>2401</ele>
        <time>2020-08-23T12:05:52Z</time>
      </trkpt>
      <trkpt lat="45.35841" lon="6.64684">
        <ele>2400</ele>
        <time>2020-08-23T12:06:00Z</time>
      </trkpt>
      <trkpt lat="45.35843" lon="6.64694">
        <ele>2400</ele>
        <time>2020-08-23T12:06:12Z</time>
      </trkpt>
      <trkpt lat="45.35845" lon="6.64701">
        <ele>2399</ele>
        <time>2020-08-23T12:06:17Z</time>
      </trkpt>
      <trkpt lat="45.35853" lon="6.64714">
        <ele>2398</ele>
        <time>2020-08-23T12:06:32Z</time>
      </trkpt>
      <trkpt lat="45.35862" lon="6.64761">
        <ele>2396</ele>
        <time>2020-08-23T12:07:07Z</time>
      </trkpt>
      <trkpt lat="45.35864" lon="6.64767">
        <ele>2396</ele>
        <time>2020-08-23T12:07:12Z</time>
      </trkpt>
      <trkpt lat="45.35866" lon="6.6478">
        <ele>2396</ele>
        <time>2020-08-23T12:07:22Z</time>
      </trkpt>
      <trkpt lat="45.35867" lon="6.64788">
        <ele>2395</ele>
        <time>2020-08-23T12:07:27Z</time>
      </trkpt>
      <trkpt lat="45.35879" lon="6.64829">
        <ele>2396</ele>
        <time>2020-08-23T12:07:57Z</time>
      </trkpt>
      <trkpt lat="45.35885" lon="6.64842">
        <ele>2396</ele>
        <time>2020-08-23T12:08:08Z</time>
      </trkpt>
      <trkpt lat="45.35887" lon="6.6485">
        <ele>2396</ele>
        <time>2020-08-23T12:08:24Z</time>
      </trkpt>
      <trkpt lat="45.35889" lon="6.64856">
        <ele>2396</ele>
        <time>2020-08-23T12:08:42Z</time>
      </trkpt>
      <trkpt lat="45.35889" lon="6.64863">
        <ele>2397</ele>
        <time>2020-08-23T12:09:12Z</time>
      </trkpt>
      <trkpt lat="45.35891" lon="6.64869">
        <ele>2397</ele>
        <time>2020-08-23T12:09:18Z</time>
      </trkpt>
      <trkpt lat="45.35891" lon="6.64892">
        <ele>2398</ele>
        <time>2020-08-23T12:09:38Z</time>
      </trkpt>
      <trkpt lat="45.35891" lon="6.64905">
        <ele>2398</ele>
        <time>2020-08-23T12:09:48Z</time>
      </trkpt>
      <trkpt lat="45.35892" lon="6.64914">
        <ele>2399</ele>
        <time>2020-08-23T12:09:56Z</time>
      </trkpt>
      <trkpt lat="45.35896" lon="6.64929">
        <ele>2398</ele>
        <time>2020-08-23T12:10:08Z</time>
      </trkpt>
      <trkpt lat="45.359" lon="6.64942">
        <ele>2398</ele>
        <time>2020-08-23T12:10:18Z</time>
      </trkpt>
      <trkpt lat="45.35906" lon="6.64953">
        <ele>2398</ele>
        <time>2020-08-23T12:10:29Z</time>
      </trkpt>
      <trkpt lat="45.35906" lon="6.6496">
        <ele>2397</ele>
        <time>2020-08-23T12:10:35Z</time>
      </trkpt>
      <trkpt lat="45.35905" lon="6.64966">
        <ele>2397</ele>
        <time>2020-08-23T12:10:41Z</time>
      </trkpt>
      <trkpt lat="45.35906" lon="6.6499">
        <ele>2396</ele>
        <time>2020-08-23T12:10:57Z</time>
      </trkpt>
      <trkpt lat="45.35908" lon="6.64999">
        <ele>2397</ele>
        <time>2020-08-23T12:11:05Z</time>
      </trkpt>
      <trkpt lat="45.35909" lon="6.65006">
        <ele>2396</ele>
        <time>2020-08-23T12:11:10Z</time>
      </trkpt>
      <trkpt lat="45.35911" lon="6.65012">
        <ele>2396</ele>
        <time>2020-08-23T12:11:15Z</time>
      </trkpt>
      <trkpt lat="45.35915" lon="6.65017">
        <ele>2396</ele>
        <time>2020-08-23T12:11:20Z</time>
      </trkpt>
      <trkpt lat="45.35919" lon="6.65022">
        <ele>2396</ele>
        <time>2020-08-23T12:11:25Z</time>
      </trkpt>
      <trkpt lat="45.35922" lon="6.65027">
        <ele>2397</ele>
        <time>2020-08-23T12:11:30Z</time>
      </trkpt>
      <trkpt lat="45.35927" lon="6.65047">
        <ele>2397</ele>
        <time>2020-08-23T12:11:45Z</time>
      </trkpt>
      <trkpt lat="45.35934" lon="6.65057">
        <ele>2396</ele>
        <time>2020-08-23T12:11:55Z</time>
      </trkpt>
      <trkpt lat="45.35938" lon="6.65063">
        <ele>2396</ele>
        <time>2020-08-23T12:12:00Z</time>
      </trkpt>
      <trkpt lat="45.3594" lon="6.65073">
        <ele>2396</ele>
        <time>2020-08-23T12:12:08Z</time>
      </trkpt>
      <trkpt lat="45.35943" lon="6.65084">
        <ele>2397</ele>
        <time>2020-08-23T12:12:18Z</time>
      </trkpt>
      <trkpt lat="45.35948" lon="6.65111">
        <ele>2399</ele>
        <time>2020-08-23T12:12:39Z</time>
      </trkpt>
      <trkpt lat="45.35952" lon="6.65117">
        <ele>2400</ele>
        <time>2020-08-23T12:12:47Z</time>
      </trkpt>
      <trkpt lat="45.35953" lon="6.65124">
        <ele>2400</ele>
        <time>2020-08-23T12:12:52Z</time>
      </trkpt>
      <trkpt lat="45.35954" lon="6.65131">
        <ele>2400</ele>
        <time>2020-08-23T12:12:57Z</time>
      </trkpt>
      <trkpt lat="45.35959" lon="6.65142">
        <ele>2400</ele>
        <time>2020-08-23T12:13:07Z</time>
      </trkpt>
      <trkpt lat="45.3596" lon="6.65149">
        <ele>2400</ele>
        <time>2020-08-23T12:13:14Z</time>
      </trkpt>
      <trkpt lat="45.35961" lon="6.65155">
        <ele>2400</ele>
        <time>2020-08-23T12:13:19Z</time>
      </trkpt>
      <trkpt lat="45.35958" lon="6.6516">
        <ele>2401</ele>
        <time>2020-08-23T12:13:39Z</time>
      </trkpt>
      <trkpt lat="45.35961" lon="6.65166">
        <ele>2400</ele>
        <time>2020-08-23T12:13:57Z</time>
      </trkpt>
      <trkpt lat="45.35966" lon="6.65197">
        <ele>2400</ele>
        <time>2020-08-23T12:14:19Z</time>
      </trkpt>
      <trkpt lat="45.35968" lon="6.65224">
        <ele>2402</ele>
        <time>2020-08-23T12:14:45Z</time>
      </trkpt>
      <trkpt lat="45.3597" lon="6.65231">
        <ele>2403</ele>
        <time>2020-08-23T12:14:51Z</time>
      </trkpt>
      <trkpt lat="45.3597" lon="6.65238">
        <ele>2404</ele>
        <time>2020-08-23T12:14:57Z</time>
      </trkpt>
      <trkpt lat="45.35975" lon="6.65255">
        <ele>2407</ele>
        <time>2020-08-23T12:15:15Z</time>
      </trkpt>
      <trkpt lat="45.35977" lon="6.65262">
        <ele>2407</ele>
        <time>2020-08-23T12:15:21Z</time>
      </trkpt>
      <trkpt lat="45.35976" lon="6.65269">
        <ele>2406</ele>
        <time>2020-08-23T12:15:26Z</time>
      </trkpt>
      <trkpt lat="45.35979" lon="6.65278">
        <ele>2405</ele>
        <time>2020-08-23T12:15:34Z</time>
      </trkpt>
      <trkpt lat="45.35979" lon="6.65285">
        <ele>2403</ele>
        <time>2020-08-23T12:15:42Z</time>
      </trkpt>
      <trkpt lat="45.35975" lon="6.65301">
        <ele>2403</ele>
        <time>2020-08-23T12:16:01Z</time>
      </trkpt>
      <trkpt lat="45.35973" lon="6.65307">
        <ele>2402</ele>
        <time>2020-08-23T12:16:07Z</time>
      </trkpt>
      <trkpt lat="45.35974" lon="6.65315">
        <ele>2401</ele>
        <time>2020-08-23T12:16:13Z</time>
      </trkpt>
      <trkpt lat="45.35978" lon="6.6532">
        <ele>2399</ele>
        <time>2020-08-23T12:16:19Z</time>
      </trkpt>
      <trkpt lat="45.35983" lon="6.65328">
        <ele>2397</ele>
        <time>2020-08-23T12:16:31Z</time>
      </trkpt>
      <trkpt lat="45.35988" lon="6.65329">
        <ele>2396</ele>
        <time>2020-08-23T12:16:37Z</time>
      </trkpt>
      <trkpt lat="45.35992" lon="6.65335">
        <ele>2395</ele>
        <time>2020-08-23T12:16:49Z</time>
      </trkpt>
      <trkpt lat="45.35989" lon="6.65343">
        <ele>2393</ele>
        <time>2020-08-23T12:17:07Z</time>
      </trkpt>
      <trkpt lat="45.35985" lon="6.65352">
        <ele>2391</ele>
        <time>2020-08-23T12:17:19Z</time>
      </trkpt>
      <trkpt lat="45.35982" lon="6.65357">
        <ele>2390</ele>
        <time>2020-08-23T12:17:55Z</time>
      </trkpt>
      <trkpt lat="45.35977" lon="6.6536">
        <ele>2390</ele>
        <time>2020-08-23T12:18:19Z</time>
      </trkpt>
      <trkpt lat="45.35978" lon="6.6537">
        <ele>2387</ele>
        <time>2020-08-23T12:18:33Z</time>
      </trkpt>
      <trkpt lat="45.35967" lon="6.65384">
        <ele>2382</ele>
        <time>2020-08-23T12:18:57Z</time>
      </trkpt>
      <trkpt lat="45.35962" lon="6.65387">
        <ele>2381</ele>
        <time>2020-08-23T12:19:03Z</time>
      </trkpt>
      <trkpt lat="45.35956" lon="6.65394">
        <ele>2379</ele>
        <time>2020-08-23T12:19:14Z</time>
      </trkpt>
      <trkpt lat="45.35942" lon="6.65406">
        <ele>2374</ele>
        <time>2020-08-23T12:19:44Z</time>
      </trkpt>
      <trkpt lat="45.35936" lon="6.65409">
        <ele>2371</ele>
        <time>2020-08-23T12:19:55Z</time>
      </trkpt>
      <trkpt lat="45.35929" lon="6.65415">
        <ele>2370</ele>
        <time>2020-08-23T12:20:07Z</time>
      </trkpt>
      <trkpt lat="45.35926" lon="6.6542">
        <ele>2368</ele>
        <time>2020-08-23T12:20:19Z</time>
      </trkpt>
      <trkpt lat="45.3593" lon="6.65425">
        <ele>2367</ele>
        <time>2020-08-23T12:20:31Z</time>
      </trkpt>
      <trkpt lat="45.35938" lon="6.65428">
        <ele>2366</ele>
        <time>2020-08-23T12:20:43Z</time>
      </trkpt>
      <trkpt lat="45.35952" lon="6.65447">
        <ele>2362</ele>
        <time>2020-08-23T12:21:15Z</time>
      </trkpt>
      <trkpt lat="45.35958" lon="6.65453">
        <ele>2360</ele>
        <time>2020-08-23T12:21:27Z</time>
      </trkpt>
      <trkpt lat="45.35965" lon="6.65455">
        <ele>2358</ele>
        <time>2020-08-23T12:21:39Z</time>
      </trkpt>
      <trkpt lat="45.35966" lon="6.65465">
        <ele>2357</ele>
        <time>2020-08-23T12:21:57Z</time>
      </trkpt>
      <trkpt lat="45.35966" lon="6.65477">
        <ele>2356</ele>
        <time>2020-08-23T12:22:09Z</time>
      </trkpt>
      <trkpt lat="45.35971" lon="6.65488">
        <ele>2355</ele>
        <time>2020-08-23T12:22:20Z</time>
      </trkpt>
      <trkpt lat="45.35976" lon="6.65492">
        <ele>2355</ele>
        <time>2020-08-23T12:22:25Z</time>
      </trkpt>
      <trkpt lat="45.35992" lon="6.6551">
        <ele>2353</ele>
        <time>2020-08-23T12:22:44Z</time>
      </trkpt>
      <trkpt lat="45.35997" lon="6.65513">
        <ele>2352</ele>
        <time>2020-08-23T12:22:49Z</time>
      </trkpt>
      <trkpt lat="45.36005" lon="6.65522">
        <ele>2350</ele>
        <time>2020-08-23T12:22:59Z</time>
      </trkpt>
      <trkpt lat="45.36013" lon="6.65532">
        <ele>2349</ele>
        <time>2020-08-23T12:23:08Z</time>
      </trkpt>
      <trkpt lat="45.36017" lon="6.65535">
        <ele>2349</ele>
        <time>2020-08-23T12:23:13Z</time>
      </trkpt>
      <trkpt lat="45.36052" lon="6.65546">
        <ele>2344</ele>
        <time>2020-08-23T12:23:47Z</time>
      </trkpt>
      <trkpt lat="45.36057" lon="6.65549">
        <ele>2344</ele>
        <time>2020-08-23T12:23:52Z</time>
      </trkpt>
      <trkpt lat="45.36061" lon="6.65553">
        <ele>2343</ele>
        <time>2020-08-23T12:23:56Z</time>
      </trkpt>
      <trkpt lat="45.3607" lon="6.65558">
        <ele>2342</ele>
        <time>2020-08-23T12:24:06Z</time>
      </trkpt>
      <trkpt lat="45.36075" lon="6.65562">
        <ele>2342</ele>
        <time>2020-08-23T12:24:11Z</time>
      </trkpt>
      <trkpt lat="45.3608" lon="6.65563">
        <ele>2341</ele>
        <time>2020-08-23T12:24:16Z</time>
      </trkpt>
      <trkpt lat="45.3609" lon="6.65571">
        <ele>2341</ele>
        <time>2020-08-23T12:24:28Z</time>
      </trkpt>
      <trkpt lat="45.36099" lon="6.65579">
        <ele>2340</ele>
        <time>2020-08-23T12:24:40Z</time>
      </trkpt>
      <trkpt lat="45.36103" lon="6.65585">
        <ele>2339</ele>
        <time>2020-08-23T12:24:45Z</time>
      </trkpt>
      <trkpt lat="45.36107" lon="6.65589">
        <ele>2338</ele>
        <time>2020-08-23T12:24:50Z</time>
      </trkpt>
      <trkpt lat="45.36102" lon="6.65598">
        <ele>2336</ele>
        <time>2020-08-23T12:25:04Z</time>
      </trkpt>
      <trkpt lat="45.36105" lon="6.65619">
        <ele>2331</ele>
        <time>2020-08-23T12:25:28Z</time>
      </trkpt>
      <trkpt lat="45.36119" lon="6.65632">
        <ele>2326</ele>
        <time>2020-08-23T12:26:04Z</time>
      </trkpt>
      <trkpt lat="45.36127" lon="6.65637">
        <ele>2324</ele>
        <time>2020-08-23T12:26:16Z</time>
      </trkpt>
      <trkpt lat="45.3614" lon="6.65652">
        <ele>2320</ele>
        <time>2020-08-23T12:26:36Z</time>
      </trkpt>
      <trkpt lat="45.36141" lon="6.65663">
        <ele>2318</ele>
        <time>2020-08-23T12:27:07Z</time>
      </trkpt>
      <trkpt lat="45.36142" lon="6.6567">
        <ele>2317</ele>
        <time>2020-08-23T12:27:13Z</time>
      </trkpt>
      <trkpt lat="45.36144" lon="6.65678">
        <ele>2314</ele>
        <time>2020-08-23T12:27:25Z</time>
      </trkpt>
      <trkpt lat="45.36144" lon="6.65686">
        <ele>2314</ele>
        <time>2020-08-23T12:27:29Z</time>
      </trkpt>
      <trkpt lat="45.36148" lon="6.65707">
        <ele>2313</ele>
        <time>2020-08-23T12:27:43Z</time>
      </trkpt>
      <trkpt lat="45.36158" lon="6.65739">
        <ele>2312</ele>
        <time>2020-08-23T12:28:05Z</time>
      </trkpt>
      <trkpt lat="45.36159" lon="6.65754">
        <ele>2311</ele>
        <time>2020-08-23T12:28:15Z</time>
      </trkpt>
      <trkpt lat="45.36157" lon="6.65762">
        <ele>2311</ele>
        <time>2020-08-23T12:28:22Z</time>
      </trkpt>
      <trkpt lat="45.36154" lon="6.6577">
        <ele>2309</ele>
        <time>2020-08-23T12:28:30Z</time>
      </trkpt>
      <trkpt lat="45.36131" lon="6.65775">
        <ele>2302</ele>
        <time>2020-08-23T12:29:00Z</time>
      </trkpt>
      <trkpt lat="45.36127" lon="6.65779">
        <ele>2301</ele>
        <time>2020-08-23T12:29:05Z</time>
      </trkpt>
      <trkpt lat="45.36123" lon="6.65783">
        <ele>2300</ele>
        <time>2020-08-23T12:29:10Z</time>
      </trkpt>
      <trkpt lat="45.36116" lon="6.65794">
        <ele>2298</ele>
        <time>2020-08-23T12:29:20Z</time>
      </trkpt>
      <trkpt lat="45.36111" lon="6.65797">
        <ele>2298</ele>
        <time>2020-08-23T12:29:25Z</time>
      </trkpt>
      <trkpt lat="45.36108" lon="6.65801">
        <ele>2297</ele>
        <time>2020-08-23T12:29:30Z</time>
      </trkpt>
      <trkpt lat="45.36105" lon="6.65806">
        <ele>2297</ele>
        <time>2020-08-23T12:29:35Z</time>
      </trkpt>
      <trkpt lat="45.36097" lon="6.65833">
        <ele>2293</ele>
        <time>2020-08-23T12:29:57Z</time>
      </trkpt>
      <trkpt lat="45.36092" lon="6.65845">
        <ele>2291</ele>
        <time>2020-08-23T12:30:07Z</time>
      </trkpt>
      <trkpt lat="45.36082" lon="6.6587">
        <ele>2290</ele>
        <time>2020-08-23T12:30:27Z</time>
      </trkpt>
      <trkpt lat="45.3608" lon="6.65878">
        <ele>2289</ele>
        <time>2020-08-23T12:30:32Z</time>
      </trkpt>
      <trkpt lat="45.36078" lon="6.65891">
        <ele>2289</ele>
        <time>2020-08-23T12:30:42Z</time>
      </trkpt>
      <trkpt lat="45.36081" lon="6.65905">
        <ele>2288</ele>
        <time>2020-08-23T12:30:51Z</time>
      </trkpt>
      <trkpt lat="45.36085" lon="6.65918">
        <ele>2288</ele>
        <time>2020-08-23T12:31:02Z</time>
      </trkpt>
      <trkpt lat="45.36091" lon="6.65924">
        <ele>2288</ele>
        <time>2020-08-23T12:31:09Z</time>
      </trkpt>
      <trkpt lat="45.36094" lon="6.65931">
        <ele>2287</ele>
        <time>2020-08-23T12:31:16Z</time>
      </trkpt>
      <trkpt lat="45.36097" lon="6.65945">
        <ele>2286</ele>
        <time>2020-08-23T12:31:26Z</time>
      </trkpt>
      <trkpt lat="45.36096" lon="6.65952">
        <ele>2285</ele>
        <time>2020-08-23T12:31:31Z</time>
      </trkpt>
      <trkpt lat="45.36099" lon="6.65967">
        <ele>2283</ele>
        <time>2020-08-23T12:31:41Z</time>
      </trkpt>
      <trkpt lat="45.36106" lon="6.65986">
        <ele>2281</ele>
        <time>2020-08-23T12:31:56Z</time>
      </trkpt>
      <trkpt lat="45.36107" lon="6.66024">
        <ele>2277</ele>
        <time>2020-08-23T12:32:23Z</time>
      </trkpt>
      <trkpt lat="45.36111" lon="6.66038">
        <ele>2276</ele>
        <time>2020-08-23T12:32:33Z</time>
      </trkpt>
      <trkpt lat="45.3612" lon="6.66055">
        <ele>2276</ele>
        <time>2020-08-23T12:32:46Z</time>
      </trkpt>
      <trkpt lat="45.36123" lon="6.66059">
        <ele>2276</ele>
        <time>2020-08-23T12:32:50Z</time>
      </trkpt>
      <trkpt lat="45.36127" lon="6.66074">
        <ele>2274</ele>
        <time>2020-08-23T12:33:05Z</time>
      </trkpt>
      <trkpt lat="45.36125" lon="6.66081">
        <ele>2274</ele>
        <time>2020-08-23T12:33:10Z</time>
      </trkpt>
      <trkpt lat="45.36109" lon="6.6612">
        <ele>2271</ele>
        <time>2020-08-23T12:33:44Z</time>
      </trkpt>
      <trkpt lat="45.36102" lon="6.66138">
        <ele>2268</ele>
        <time>2020-08-23T12:33:59Z</time>
      </trkpt>
      <trkpt lat="45.36101" lon="6.66145">
        <ele>2267</ele>
        <time>2020-08-23T12:34:04Z</time>
      </trkpt>
      <trkpt lat="45.36101" lon="6.66152">
        <ele>2267</ele>
        <time>2020-08-23T12:34:09Z</time>
      </trkpt>
      <trkpt lat="45.36103" lon="6.66159">
        <ele>2266</ele>
        <time>2020-08-23T12:34:14Z</time>
      </trkpt>
      <trkpt lat="45.36107" lon="6.66164">
        <ele>2266</ele>
        <time>2020-08-23T12:34:19Z</time>
      </trkpt>
      <trkpt lat="45.3614" lon="6.66186">
        <ele>2265</ele>
        <time>2020-08-23T12:34:52Z</time>
      </trkpt>
      <trkpt lat="45.36144" lon="6.66189">
        <ele>2265</ele>
        <time>2020-08-23T12:34:56Z</time>
      </trkpt>
      <trkpt lat="45.36151" lon="6.66199">
        <ele>2264</ele>
        <time>2020-08-23T12:35:06Z</time>
      </trkpt>
      <trkpt lat="45.36164" lon="6.66227">
        <ele>2260</ele>
        <time>2020-08-23T12:35:28Z</time>
      </trkpt>
      <trkpt lat="45.36165" lon="6.66234">
        <ele>2259</ele>
        <time>2020-08-23T12:35:33Z</time>
      </trkpt>
      <trkpt lat="45.36164" lon="6.66242">
        <ele>2259</ele>
        <time>2020-08-23T12:35:38Z</time>
      </trkpt>
      <trkpt lat="45.36162" lon="6.66248">
        <ele>2258</ele>
        <time>2020-08-23T12:35:43Z</time>
      </trkpt>
      <trkpt lat="45.36158" lon="6.66253">
        <ele>2258</ele>
        <time>2020-08-23T12:35:48Z</time>
      </trkpt>
      <trkpt lat="45.36152" lon="6.66257">
        <ele>2258</ele>
        <time>2020-08-23T12:35:57Z</time>
      </trkpt>
      <trkpt lat="45.36138" lon="6.6627">
        <ele>2254</ele>
        <time>2020-08-23T12:36:15Z</time>
      </trkpt>
      <trkpt lat="45.36115" lon="6.66299">
        <ele>2250</ele>
        <time>2020-08-23T12:36:44Z</time>
      </trkpt>
      <trkpt lat="45.36106" lon="6.66304">
        <ele>2249</ele>
        <time>2020-08-23T12:36:53Z</time>
      </trkpt>
      <trkpt lat="45.36096" lon="6.66305">
        <ele>2248</ele>
        <time>2020-08-23T12:37:02Z</time>
      </trkpt>
      <trkpt lat="45.36086" lon="6.66304">
        <ele>2247</ele>
        <time>2020-08-23T12:37:10Z</time>
      </trkpt>
      <trkpt lat="45.36071" lon="6.66296">
        <ele>2244</ele>
        <time>2020-08-23T12:37:28Z</time>
      </trkpt>
      <trkpt lat="45.36049" lon="6.6627">
        <ele>2238</ele>
        <time>2020-08-23T12:37:59Z</time>
      </trkpt>
      <trkpt lat="45.36029" lon="6.66245">
        <ele>2233</ele>
        <time>2020-08-23T12:38:24Z</time>
      </trkpt>
      <trkpt lat="45.36021" lon="6.66238">
        <ele>2231</ele>
        <time>2020-08-23T12:38:37Z</time>
      </trkpt>
      <trkpt lat="45.36017" lon="6.66233">
        <ele>2230</ele>
        <time>2020-08-23T12:38:42Z</time>
      </trkpt>
      <trkpt lat="45.36013" lon="6.6623">
        <ele>2229</ele>
        <time>2020-08-23T12:38:47Z</time>
      </trkpt>
      <trkpt lat="45.36007" lon="6.66228">
        <ele>2229</ele>
        <time>2020-08-23T12:38:52Z</time>
      </trkpt>
      <trkpt lat="45.3599" lon="6.66219">
        <ele>2227</ele>
        <time>2020-08-23T12:39:11Z</time>
      </trkpt>
      <trkpt lat="45.35985" lon="6.66218">
        <ele>2226</ele>
        <time>2020-08-23T12:39:15Z</time>
      </trkpt>
      <trkpt lat="45.35981" lon="6.66215">
        <ele>2226</ele>
        <time>2020-08-23T12:39:20Z</time>
      </trkpt>
      <trkpt lat="45.35975" lon="6.66213">
        <ele>2226</ele>
        <time>2020-08-23T12:39:25Z</time>
      </trkpt>
      <trkpt lat="45.35971" lon="6.66216">
        <ele>2226</ele>
        <time>2020-08-23T12:42:27Z</time>
      </trkpt>
      <trkpt lat="45.35966" lon="6.66209">
        <ele>2226</ele>
        <time>2020-08-23T12:42:56Z</time>
      </trkpt>
      <trkpt lat="45.35962" lon="6.66208">
        <ele>2227</ele>
        <time>2020-08-23T12:43:35Z</time>
      </trkpt>
      <trkpt lat="45.35957" lon="6.66219">
        <ele>2225</ele>
        <time>2020-08-23T12:44:40Z</time>
      </trkpt>
      <trkpt lat="45.35956" lon="6.66233">
        <ele>2223</ele>
        <time>2020-08-23T12:44:48Z</time>
      </trkpt>
      <trkpt lat="45.35959" lon="6.66248">
        <ele>2222</ele>
        <time>2020-08-23T12:44:58Z</time>
      </trkpt>
      <trkpt lat="45.35959" lon="6.66258">
        <ele>2221</ele>
        <time>2020-08-23T12:45:03Z</time>
      </trkpt>
      <trkpt lat="45.3596" lon="6.66268">
        <ele>2220</ele>
        <time>2020-08-23T12:45:13Z</time>
      </trkpt>
      <trkpt lat="45.35963" lon="6.66274">
        <ele>2218</ele>
        <time>2020-08-23T12:45:19Z</time>
      </trkpt>
      <trkpt lat="45.35964" lon="6.6628">
        <ele>2218</ele>
        <time>2020-08-23T12:45:23Z</time>
      </trkpt>
      <trkpt lat="45.35973" lon="6.66303">
        <ele>2214</ele>
        <time>2020-08-23T12:45:44Z</time>
      </trkpt>
      <trkpt lat="45.35984" lon="6.66349">
        <ele>2209</ele>
        <time>2020-08-23T12:46:19Z</time>
      </trkpt>
      <trkpt lat="45.35991" lon="6.66379">
        <ele>2207</ele>
        <time>2020-08-23T12:46:39Z</time>
      </trkpt>
      <trkpt lat="45.35992" lon="6.66386">
        <ele>2207</ele>
        <time>2020-08-23T12:46:44Z</time>
      </trkpt>
      <trkpt lat="45.35993" lon="6.66393">
        <ele>2206</ele>
        <time>2020-08-23T12:46:49Z</time>
      </trkpt>
      <trkpt lat="45.35996" lon="6.66399">
        <ele>2206</ele>
        <time>2020-08-23T12:46:53Z</time>
      </trkpt>
      <trkpt lat="45.35999" lon="6.66404">
        <ele>2206</ele>
        <time>2020-08-23T12:46:58Z</time>
      </trkpt>
      <trkpt lat="45.36005" lon="6.66409">
        <ele>2205</ele>
        <time>2020-08-23T12:47:05Z</time>
      </trkpt>
      <trkpt lat="45.36036" lon="6.66415">
        <ele>2200</ele>
        <time>2020-08-23T12:47:35Z</time>
      </trkpt>
      <trkpt lat="45.3604" lon="6.66419">
        <ele>2199</ele>
        <time>2020-08-23T12:47:40Z</time>
      </trkpt>
      <trkpt lat="45.36057" lon="6.66463">
        <ele>2193</ele>
        <time>2020-08-23T12:48:12Z</time>
      </trkpt>
      <trkpt lat="45.36069" lon="6.66492">
        <ele>2190</ele>
        <time>2020-08-23T12:48:33Z</time>
      </trkpt>
      <trkpt lat="45.36083" lon="6.66516">
        <ele>2188</ele>
        <time>2020-08-23T12:48:52Z</time>
      </trkpt>
      <trkpt lat="45.36088" lon="6.66527">
        <ele>2189</ele>
        <time>2020-08-23T12:49:00Z</time>
      </trkpt>
      <trkpt lat="45.36091" lon="6.66532">
        <ele>2188</ele>
        <time>2020-08-23T12:49:05Z</time>
      </trkpt>
      <trkpt lat="45.36089" lon="6.66536">
        <ele>2184</ele>
        <time>2020-08-23T12:50:31Z</time>
      </trkpt>
      <trkpt lat="45.3607" lon="6.66512">
        <ele>2177</ele>
        <time>2020-08-23T12:50:56Z</time>
      </trkpt>
      <trkpt lat="45.36062" lon="6.66502">
        <ele>2176</ele>
        <time>2020-08-23T12:51:04Z</time>
      </trkpt>
      <trkpt lat="45.36057" lon="6.66499">
        <ele>2176</ele>
        <time>2020-08-23T12:51:09Z</time>
      </trkpt>
      <trkpt lat="45.36052" lon="6.66501">
        <ele>2176</ele>
        <time>2020-08-23T12:51:13Z</time>
      </trkpt>
      <trkpt lat="45.36049" lon="6.66507">
        <ele>2176</ele>
        <time>2020-08-23T12:51:16Z</time>
      </trkpt>
      <trkpt lat="45.36049" lon="6.66514">
        <ele>2175</ele>
        <time>2020-08-23T12:51:20Z</time>
      </trkpt>
      <trkpt lat="45.36049" lon="6.66521">
        <ele>2175</ele>
        <time>2020-08-23T12:51:24Z</time>
      </trkpt>
      <trkpt lat="45.36048" lon="6.66531">
        <ele>2174</ele>
        <time>2020-08-23T12:51:33Z</time>
      </trkpt>
      <trkpt lat="45.36048" lon="6.66538">
        <ele>2174</ele>
        <time>2020-08-23T12:51:37Z</time>
      </trkpt>
      <trkpt lat="45.3605" lon="6.66552">
        <ele>2174</ele>
        <time>2020-08-23T12:51:46Z</time>
      </trkpt>
      <trkpt lat="45.36049" lon="6.6658">
        <ele>2174</ele>
        <time>2020-08-23T12:52:03Z</time>
      </trkpt>
      <trkpt lat="45.3605" lon="6.66588">
        <ele>2175</ele>
        <time>2020-08-23T12:52:08Z</time>
      </trkpt>
      <trkpt lat="45.36052" lon="6.66595">
        <ele>2174</ele>
        <time>2020-08-23T12:52:13Z</time>
      </trkpt>
      <trkpt lat="45.36056" lon="6.66599">
        <ele>2173</ele>
        <time>2020-08-23T12:52:17Z</time>
      </trkpt>
      <trkpt lat="45.36062" lon="6.66592">
        <ele>2173</ele>
        <time>2020-08-23T12:52:37Z</time>
      </trkpt>
      <trkpt lat="45.36079" lon="6.66567">
        <ele>2171</ele>
        <time>2020-08-23T12:52:58Z</time>
      </trkpt>
      <trkpt lat="45.36084" lon="6.66565">
        <ele>2171</ele>
        <time>2020-08-23T12:53:02Z</time>
      </trkpt>
      <trkpt lat="45.36095" lon="6.66567">
        <ele>2171</ele>
        <time>2020-08-23T12:53:10Z</time>
      </trkpt>
      <trkpt lat="45.36105" lon="6.66566">
        <ele>2171</ele>
        <time>2020-08-23T12:53:19Z</time>
      </trkpt>
      <trkpt lat="45.3611" lon="6.66567">
        <ele>2171</ele>
        <time>2020-08-23T12:53:24Z</time>
      </trkpt>
      <trkpt lat="45.36132" lon="6.66571">
        <ele>2170</ele>
        <time>2020-08-23T12:53:50Z</time>
      </trkpt>
      <trkpt lat="45.36139" lon="6.66571">
        <ele>2170</ele>
        <time>2020-08-23T12:53:57Z</time>
      </trkpt>
      <trkpt lat="45.36144" lon="6.66572">
        <ele>2169</ele>
        <time>2020-08-23T12:54:01Z</time>
      </trkpt>
      <trkpt lat="45.36164" lon="6.66572">
        <ele>2169</ele>
        <time>2020-08-23T12:54:17Z</time>
      </trkpt>
      <trkpt lat="45.36204" lon="6.66573">
        <ele>2172</ele>
        <time>2020-08-23T12:54:50Z</time>
      </trkpt>
      <trkpt lat="45.36246" lon="6.66572">
        <ele>2171</ele>
        <time>2020-08-23T12:55:22Z</time>
      </trkpt>
      <trkpt lat="45.36266" lon="6.66565">
        <ele>2171</ele>
        <time>2020-08-23T12:55:38Z</time>
      </trkpt>
      <trkpt lat="45.36271" lon="6.66562">
        <ele>2171</ele>
        <time>2020-08-23T12:55:43Z</time>
      </trkpt>
      <trkpt lat="45.36273" lon="6.66557">
        <ele>2171</ele>
        <time>2020-08-23T12:55:48Z</time>
      </trkpt>
      <trkpt lat="45.36279" lon="6.66556">
        <ele>2171</ele>
        <time>2020-08-23T12:56:13Z</time>
      </trkpt>
      <trkpt lat="45.36284" lon="6.66556">
        <ele>2170</ele>
        <time>2020-08-23T12:56:18Z</time>
      </trkpt>
      <trkpt lat="45.36289" lon="6.66557">
        <ele>2170</ele>
        <time>2020-08-23T12:56:23Z</time>
      </trkpt>
      <trkpt lat="45.36299" lon="6.66562">
        <ele>2169</ele>
        <time>2020-08-23T12:56:32Z</time>
      </trkpt>
      <trkpt lat="45.36303" lon="6.66563">
        <ele>2169</ele>
        <time>2020-08-23T12:56:36Z</time>
      </trkpt>
      <trkpt lat="45.36342" lon="6.66559">
        <ele>2166</ele>
        <time>2020-08-23T12:57:10Z</time>
      </trkpt>
      <trkpt lat="45.36358" lon="6.66557">
        <ele>2164</ele>
        <time>2020-08-23T12:57:27Z</time>
      </trkpt>
      <trkpt lat="45.36392" lon="6.66537">
        <ele>2161</ele>
        <time>2020-08-23T12:57:59Z</time>
      </trkpt>
      <trkpt lat="45.36417" lon="6.66521">
        <ele>2159</ele>
        <time>2020-08-23T12:58:28Z</time>
      </trkpt>
      <trkpt lat="45.36422" lon="6.66519">
        <ele>2159</ele>
        <time>2020-08-23T12:58:33Z</time>
      </trkpt>
      <trkpt lat="45.36427" lon="6.66517">
        <ele>2160</ele>
        <time>2020-08-23T12:58:38Z</time>
      </trkpt>
      <trkpt lat="45.36432" lon="6.66515">
        <ele>2160</ele>
        <time>2020-08-23T12:58:43Z</time>
      </trkpt>
      <trkpt lat="45.36437" lon="6.66514">
        <ele>2160</ele>
        <time>2020-08-23T12:58:47Z</time>
      </trkpt>
      <trkpt lat="45.3645" lon="6.66505">
        <ele>2159</ele>
        <time>2020-08-23T12:59:00Z</time>
      </trkpt>
      <trkpt lat="45.36467" lon="6.66488">
        <ele>2156</ele>
        <time>2020-08-23T12:59:18Z</time>
      </trkpt>
      <trkpt lat="45.36471" lon="6.66485">
        <ele>2156</ele>
        <time>2020-08-23T12:59:22Z</time>
      </trkpt>
      <trkpt lat="45.36484" lon="6.66473">
        <ele>2156</ele>
        <time>2020-08-23T12:59:36Z</time>
      </trkpt>
      <trkpt lat="45.36514" lon="6.66443">
        <ele>2149</ele>
        <time>2020-08-23T13:00:11Z</time>
      </trkpt>
      <trkpt lat="45.36528" lon="6.66424">
        <ele>2146</ele>
        <time>2020-08-23T13:00:30Z</time>
      </trkpt>
      <trkpt lat="45.36532" lon="6.66412">
        <ele>2144</ele>
        <time>2020-08-23T13:00:40Z</time>
      </trkpt>
      <trkpt lat="45.36537" lon="6.66406">
        <ele>2143</ele>
        <time>2020-08-23T13:00:48Z</time>
      </trkpt>
      <trkpt lat="45.36544" lon="6.66398">
        <ele>2141</ele>
        <time>2020-08-23T13:05:10Z</time>
      </trkpt>
      <trkpt lat="45.36548" lon="6.66393">
        <ele>2139</ele>
        <time>2020-08-23T13:05:18Z</time>
      </trkpt>
      <trkpt lat="45.3655" lon="6.66386">
        <ele>2138</ele>
        <time>2020-08-23T13:05:24Z</time>
      </trkpt>
      <trkpt lat="45.36567" lon="6.66371">
        <ele>2135</ele>
        <time>2020-08-23T13:05:41Z</time>
      </trkpt>
      <trkpt lat="45.36586" lon="6.66336">
        <ele>2131</ele>
        <time>2020-08-23T13:06:11Z</time>
      </trkpt>
      <trkpt lat="45.3659" lon="6.66331">
        <ele>2130</ele>
        <time>2020-08-23T13:06:16Z</time>
      </trkpt>
      <trkpt lat="45.3661" lon="6.6632">
        <ele>2126</ele>
        <time>2020-08-23T13:06:36Z</time>
      </trkpt>
      <trkpt lat="45.36613" lon="6.66315">
        <ele>2125</ele>
        <time>2020-08-23T13:06:40Z</time>
      </trkpt>
      <trkpt lat="45.36615" lon="6.663">
        <ele>2123</ele>
        <time>2020-08-23T13:06:49Z</time>
      </trkpt>
      <trkpt lat="45.36611" lon="6.66271">
        <ele>2121</ele>
        <time>2020-08-23T13:07:09Z</time>
      </trkpt>
      <trkpt lat="45.36615" lon="6.66266">
        <ele>2120</ele>
        <time>2020-08-23T13:07:14Z</time>
      </trkpt>
      <trkpt lat="45.3662" lon="6.66265">
        <ele>2120</ele>
        <time>2020-08-23T13:07:18Z</time>
      </trkpt>
      <trkpt lat="45.36644" lon="6.66271">
        <ele>2118</ele>
        <time>2020-08-23T13:07:38Z</time>
      </trkpt>
      <trkpt lat="45.3666" lon="6.66271">
        <ele>2116</ele>
        <time>2020-08-23T13:07:50Z</time>
      </trkpt>
      <trkpt lat="45.36675" lon="6.66272">
        <ele>2115</ele>
        <time>2020-08-23T13:08:03Z</time>
      </trkpt>
      <trkpt lat="45.3668" lon="6.66269">
        <ele>2115</ele>
        <time>2020-08-23T13:08:07Z</time>
      </trkpt>
      <trkpt lat="45.36716" lon="6.66244">
        <ele>2111</ele>
        <time>2020-08-23T13:08:39Z</time>
      </trkpt>
      <trkpt lat="45.36736" lon="6.66213">
        <ele>2107</ele>
        <time>2020-08-23T13:09:06Z</time>
      </trkpt>
      <trkpt lat="45.3674" lon="6.66209">
        <ele>2107</ele>
        <time>2020-08-23T13:09:10Z</time>
      </trkpt>
      <trkpt lat="45.36754" lon="6.66201">
        <ele>2104</ele>
        <time>2020-08-23T13:09:23Z</time>
      </trkpt>
      <trkpt lat="45.36764" lon="6.66199">
        <ele>2103</ele>
        <time>2020-08-23T13:09:32Z</time>
      </trkpt>
      <trkpt lat="45.36783" lon="6.66206">
        <ele>2099</ele>
        <time>2020-08-23T13:09:52Z</time>
      </trkpt>
      <trkpt lat="45.36798" lon="6.66203">
        <ele>2096</ele>
        <time>2020-08-23T13:10:07Z</time>
      </trkpt>
      <trkpt lat="45.36807" lon="6.66199">
        <ele>2094</ele>
        <time>2020-08-23T13:10:16Z</time>
      </trkpt>
      <trkpt lat="45.36817" lon="6.66191">
        <ele>2092</ele>
        <time>2020-08-23T13:10:26Z</time>
      </trkpt>
      <trkpt lat="45.36836" lon="6.66181">
        <ele>2088</ele>
        <time>2020-08-23T13:10:46Z</time>
      </trkpt>
      <trkpt lat="45.36841" lon="6.6618">
        <ele>2087</ele>
        <time>2020-08-23T13:10:51Z</time>
      </trkpt>
      <trkpt lat="45.36857" lon="6.66172">
        <ele>2083</ele>
        <time>2020-08-23T13:11:11Z</time>
      </trkpt>
      <trkpt lat="45.36863" lon="6.66167">
        <ele>2082</ele>
        <time>2020-08-23T13:11:18Z</time>
      </trkpt>
      <trkpt lat="45.36871" lon="6.66158">
        <ele>2080</ele>
        <time>2020-08-23T13:11:28Z</time>
      </trkpt>
      <trkpt lat="45.36891" lon="6.66149">
        <ele>2076</ele>
        <time>2020-08-23T13:11:53Z</time>
      </trkpt>
      <trkpt lat="45.36896" lon="6.66149">
        <ele>2075</ele>
        <time>2020-08-23T13:11:58Z</time>
      </trkpt>
      <trkpt lat="45.3691" lon="6.66161">
        <ele>2072</ele>
        <time>2020-08-23T13:12:15Z</time>
      </trkpt>
      <trkpt lat="45.3691" lon="6.66168">
        <ele>2071</ele>
        <time>2020-08-23T13:12:21Z</time>
      </trkpt>
      <trkpt lat="45.36896" lon="6.66167">
        <ele>2069</ele>
        <time>2020-08-23T13:12:43Z</time>
      </trkpt>
      <trkpt lat="45.36891" lon="6.66174">
        <ele>2068</ele>
        <time>2020-08-23T13:12:52Z</time>
      </trkpt>
      <trkpt lat="45.36892" lon="6.66181">
        <ele>2067</ele>
        <time>2020-08-23T13:12:57Z</time>
      </trkpt>
      <trkpt lat="45.36904" lon="6.66193">
        <ele>2065</ele>
        <time>2020-08-23T13:13:10Z</time>
      </trkpt>
      <trkpt lat="45.36914" lon="6.66199">
        <ele>2063</ele>
        <time>2020-08-23T13:13:20Z</time>
      </trkpt>
      <trkpt lat="45.36919" lon="6.66199">
        <ele>2062</ele>
        <time>2020-08-23T13:13:25Z</time>
      </trkpt>
      <trkpt lat="45.36948" lon="6.66213">
        <ele>2058</ele>
        <time>2020-08-23T13:13:54Z</time>
      </trkpt>
      <trkpt lat="45.36968" lon="6.66216">
        <ele>2054</ele>
        <time>2020-08-23T13:14:13Z</time>
      </trkpt>
      <trkpt lat="45.36972" lon="6.66216">
        <ele>2053</ele>
        <time>2020-08-23T13:14:18Z</time>
      </trkpt>
      <trkpt lat="45.36976" lon="6.66227">
        <ele>2051</ele>
        <time>2020-08-23T13:14:28Z</time>
      </trkpt>
      <trkpt lat="45.36973" lon="6.66234">
        <ele>2050</ele>
        <time>2020-08-23T13:14:33Z</time>
      </trkpt>
      <trkpt lat="45.36969" lon="6.66238">
        <ele>2049</ele>
        <time>2020-08-23T13:14:38Z</time>
      </trkpt>
      <trkpt lat="45.36967" lon="6.66249">
        <ele>2047</ele>
        <time>2020-08-23T13:14:49Z</time>
      </trkpt>
      <trkpt lat="45.36973" lon="6.66259">
        <ele>2045</ele>
        <time>2020-08-23T13:15:00Z</time>
      </trkpt>
      <trkpt lat="45.36978" lon="6.66274">
        <ele>2041</ele>
        <time>2020-08-23T13:15:12Z</time>
      </trkpt>
      <trkpt lat="45.36986" lon="6.66287">
        <ele>2038</ele>
        <time>2020-08-23T13:15:26Z</time>
      </trkpt>
      <trkpt lat="45.36995" lon="6.66292">
        <ele>2035</ele>
        <time>2020-08-23T13:15:36Z</time>
      </trkpt>
      <trkpt lat="45.37002" lon="6.66305">
        <ele>2033</ele>
        <time>2020-08-23T13:15:48Z</time>
      </trkpt>
      <trkpt lat="45.37008" lon="6.6631">
        <ele>2031</ele>
        <time>2020-08-23T13:15:56Z</time>
      </trkpt>
      <trkpt lat="45.37011" lon="6.66314">
        <ele>2029</ele>
        <time>2020-08-23T13:16:00Z</time>
      </trkpt>
      <trkpt lat="45.37024" lon="6.66325">
        <ele>2026</ele>
        <time>2020-08-23T13:16:18Z</time>
      </trkpt>
      <trkpt lat="45.37027" lon="6.6633">
        <ele>2025</ele>
        <time>2020-08-23T13:16:24Z</time>
      </trkpt>
      <trkpt lat="45.3704" lon="6.66336">
        <ele>2020</ele>
        <time>2020-08-23T13:16:42Z</time>
      </trkpt>
      <trkpt lat="45.37049" lon="6.6633">
        <ele>2019</ele>
        <time>2020-08-23T13:16:50Z</time>
      </trkpt>
      <trkpt lat="45.37054" lon="6.66329">
        <ele>2018</ele>
        <time>2020-08-23T13:16:55Z</time>
      </trkpt>
      <trkpt lat="45.37076" lon="6.66333">
        <ele>2015</ele>
        <time>2020-08-23T13:17:18Z</time>
      </trkpt>
      <trkpt lat="45.37087" lon="6.66341">
        <ele>2013</ele>
        <time>2020-08-23T13:17:31Z</time>
      </trkpt>
      <trkpt lat="45.37101" lon="6.66351">
        <ele>2009</ele>
        <time>2020-08-23T13:17:46Z</time>
      </trkpt>
      <trkpt lat="45.37105" lon="6.66355">
        <ele>2008</ele>
        <time>2020-08-23T13:17:51Z</time>
      </trkpt>
      <trkpt lat="45.37114" lon="6.6636">
        <ele>2006</ele>
        <time>2020-08-23T13:18:01Z</time>
      </trkpt>
      <trkpt lat="45.37121" lon="6.66357">
        <ele>2005</ele>
        <time>2020-08-23T13:18:09Z</time>
      </trkpt>
      <trkpt lat="45.37144" lon="6.66343">
        <ele>2001</ele>
        <time>2020-08-23T13:18:31Z</time>
      </trkpt>
      <trkpt lat="45.3715" lon="6.66342">
        <ele>2000</ele>
        <time>2020-08-23T13:18:36Z</time>
      </trkpt>
      <trkpt lat="45.37155" lon="6.66341">
        <ele>2000</ele>
        <time>2020-08-23T13:18:41Z</time>
      </trkpt>
      <trkpt lat="45.37193" lon="6.66348">
        <ele>1992</ele>
        <time>2020-08-23T13:19:16Z</time>
      </trkpt>
      <trkpt lat="45.37203" lon="6.66351">
        <ele>1989</ele>
        <time>2020-08-23T13:19:26Z</time>
      </trkpt>
      <trkpt lat="45.37209" lon="6.66351">
        <ele>1988</ele>
        <time>2020-08-23T13:19:31Z</time>
      </trkpt>
      <trkpt lat="45.37242" lon="6.66365">
        <ele>1982</ele>
        <time>2020-08-23T13:20:05Z</time>
      </trkpt>
      <trkpt lat="45.37251" lon="6.66371">
        <ele>1980</ele>
        <time>2020-08-23T13:20:15Z</time>
      </trkpt>
      <trkpt lat="45.37268" lon="6.66388">
        <ele>1975</ele>
        <time>2020-08-23T13:20:35Z</time>
      </trkpt>
      <trkpt lat="45.37277" lon="6.66393">
        <ele>1973</ele>
        <time>2020-08-23T13:20:45Z</time>
      </trkpt>
      <trkpt lat="45.37297" lon="6.66414">
        <ele>1968</ele>
        <time>2020-08-23T13:21:07Z</time>
      </trkpt>
      <trkpt lat="45.37314" lon="6.66425">
        <ele>1964</ele>
        <time>2020-08-23T13:21:24Z</time>
      </trkpt>
      <trkpt lat="45.37322" lon="6.66433">
        <ele>1964</ele>
        <time>2020-08-23T13:21:32Z</time>
      </trkpt>
      <trkpt lat="45.37326" lon="6.66435">
        <ele>1963</ele>
        <time>2020-08-23T13:21:36Z</time>
      </trkpt>
      <trkpt lat="45.37336" lon="6.66435">
        <ele>1960</ele>
        <time>2020-08-23T13:21:44Z</time>
      </trkpt>
      <trkpt lat="45.3735" lon="6.66431">
        <ele>1958</ele>
        <time>2020-08-23T13:21:56Z</time>
      </trkpt>
      <trkpt lat="45.3738" lon="6.66438">
        <ele>1954</ele>
        <time>2020-08-23T13:22:22Z</time>
      </trkpt>
      <trkpt lat="45.37408" lon="6.66452">
        <ele>1948</ele>
        <time>2020-08-23T13:22:48Z</time>
      </trkpt>
      <trkpt lat="45.37417" lon="6.66461">
        <ele>1948</ele>
        <time>2020-08-23T13:22:56Z</time>
      </trkpt>
      <trkpt lat="45.37451" lon="6.66477">
        <ele>1940</ele>
        <time>2020-08-23T13:23:27Z</time>
      </trkpt>
      <trkpt lat="45.37455" lon="6.66479">
        <ele>1940</ele>
        <time>2020-08-23T13:23:31Z</time>
      </trkpt>
      <trkpt lat="45.37485" lon="6.66484">
        <ele>1936</ele>
        <time>2020-08-23T13:23:55Z</time>
      </trkpt>
      <trkpt lat="45.3749" lon="6.66486">
        <ele>1935</ele>
        <time>2020-08-23T13:23:59Z</time>
      </trkpt>
      <trkpt lat="45.37494" lon="6.66491">
        <ele>1935</ele>
        <time>2020-08-23T13:24:03Z</time>
      </trkpt>
      <trkpt lat="45.37498" lon="6.66495">
        <ele>1935</ele>
        <time>2020-08-23T13:24:07Z</time>
      </trkpt>
      <trkpt lat="45.37502" lon="6.66498">
        <ele>1935</ele>
        <time>2020-08-23T13:24:11Z</time>
      </trkpt>
      <trkpt lat="45.37532" lon="6.66519">
        <ele>1930</ele>
        <time>2020-08-23T13:24:39Z</time>
      </trkpt>
      <trkpt lat="45.37565" lon="6.66544">
        <ele>1926</ele>
        <time>2020-08-23T13:25:09Z</time>
      </trkpt>
      <trkpt lat="45.3758" lon="6.66551">
        <ele>1924</ele>
        <time>2020-08-23T13:25:22Z</time>
      </trkpt>
      <trkpt lat="45.37585" lon="6.66553">
        <ele>1924</ele>
        <time>2020-08-23T13:25:26Z</time>
      </trkpt>
      <trkpt lat="45.37619" lon="6.66581">
        <ele>1920</ele>
        <time>2020-08-23T13:25:58Z</time>
      </trkpt>
      <trkpt lat="45.37653" lon="6.66608">
        <ele>1916</ele>
        <time>2020-08-23T13:26:31Z</time>
      </trkpt>
      <trkpt lat="45.37657" lon="6.66612">
        <ele>1915</ele>
        <time>2020-08-23T13:26:35Z</time>
      </trkpt>
      <trkpt lat="45.37668" lon="6.66626">
        <ele>1914</ele>
        <time>2020-08-23T13:26:47Z</time>
      </trkpt>
      <trkpt lat="45.37682" lon="6.66647">
        <ele>1912</ele>
        <time>2020-08-23T13:27:04Z</time>
      </trkpt>
      <trkpt lat="45.37699" lon="6.66666">
        <ele>1911</ele>
        <time>2020-08-23T13:27:20Z</time>
      </trkpt>
      <trkpt lat="45.37702" lon="6.66671">
        <ele>1910</ele>
        <time>2020-08-23T13:27:24Z</time>
      </trkpt>
      <trkpt lat="45.37731" lon="6.66712">
        <ele>1908</ele>
        <time>2020-08-23T13:27:57Z</time>
      </trkpt>
      <trkpt lat="45.37738" lon="6.66722">
        <ele>1907</ele>
        <time>2020-08-23T13:28:05Z</time>
      </trkpt>
      <trkpt lat="45.37745" lon="6.66732">
        <ele>1906</ele>
        <time>2020-08-23T13:28:13Z</time>
      </trkpt>
      <trkpt lat="45.37758" lon="6.66741">
        <ele>1905</ele>
        <time>2020-08-23T13:28:35Z</time>
      </trkpt>
      <trkpt lat="45.37764" lon="6.66743">
        <ele>1904</ele>
        <time>2020-08-23T13:28:42Z</time>
      </trkpt>
      <trkpt lat="45.37799" lon="6.66758">
        <ele>1902</ele>
        <time>2020-08-23T13:29:15Z</time>
      </trkpt>
      <trkpt lat="45.37835" lon="6.66778">
        <ele>1900</ele>
        <time>2020-08-23T13:29:47Z</time>
      </trkpt>
      <trkpt lat="45.37868" lon="6.66795">
        <ele>1897</ele>
        <time>2020-08-23T13:30:16Z</time>
      </trkpt>
      <trkpt lat="45.37873" lon="6.66798">
        <ele>1897</ele>
        <time>2020-08-23T13:30:21Z</time>
      </trkpt>
      <trkpt lat="45.37904" lon="6.66813">
        <ele>1895</ele>
        <time>2020-08-23T13:30:52Z</time>
      </trkpt>
      <trkpt lat="45.37909" lon="6.66815">
        <ele>1895</ele>
        <time>2020-08-23T13:30:57Z</time>
      </trkpt>
      <trkpt lat="45.37912" lon="6.66819">
        <ele>1895</ele>
        <time>2020-08-23T13:31:02Z</time>
      </trkpt>
      <trkpt lat="45.37926" lon="6.66828">
        <ele>1894</ele>
        <time>2020-08-23T13:31:20Z</time>
      </trkpt>
      <trkpt lat="45.37944" lon="6.6685">
        <ele>1893</ele>
        <time>2020-08-23T13:31:40Z</time>
      </trkpt>
      <trkpt lat="45.37971" lon="6.66867">
        <ele>1892</ele>
        <time>2020-08-23T13:32:11Z</time>
      </trkpt>
      <trkpt lat="45.38009" lon="6.66893">
        <ele>1892</ele>
        <time>2020-08-23T13:32:44Z</time>
      </trkpt>
      <trkpt lat="45.38045" lon="6.66914">
        <ele>1891</ele>
        <time>2020-08-23T13:33:17Z</time>
      </trkpt>
      <trkpt lat="45.3805" lon="6.66915">
        <ele>1891</ele>
        <time>2020-08-23T13:33:21Z</time>
      </trkpt>
      <trkpt lat="45.38064" lon="6.66922">
        <ele>1892</ele>
        <time>2020-08-23T13:33:33Z</time>
      </trkpt>
      <trkpt lat="45.38068" lon="6.66925">
        <ele>1891</ele>
        <time>2020-08-23T13:33:37Z</time>
      </trkpt>
      <trkpt lat="45.38073" lon="6.66928">
        <ele>1892</ele>
        <time>2020-08-23T13:33:41Z</time>
      </trkpt>
      <trkpt lat="45.38086" lon="6.66938">
        <ele>1891</ele>
        <time>2020-08-23T13:33:53Z</time>
      </trkpt>
      <trkpt lat="45.3812" lon="6.66964">
        <ele>1890</ele>
        <time>2020-08-23T13:34:25Z</time>
      </trkpt>
      <trkpt lat="45.38133" lon="6.66976">
        <ele>1890</ele>
        <time>2020-08-23T13:34:38Z</time>
      </trkpt>
      <trkpt lat="45.3814" lon="6.66986">
        <ele>1890</ele>
        <time>2020-08-23T13:34:46Z</time>
      </trkpt>
      <trkpt lat="45.38146" lon="6.66997">
        <ele>1890</ele>
        <time>2020-08-23T13:34:54Z</time>
      </trkpt>
      <trkpt lat="45.38153" lon="6.67006">
        <ele>1889</ele>
        <time>2020-08-23T13:35:02Z</time>
      </trkpt>
      <trkpt lat="45.38165" lon="6.67022">
        <ele>1889</ele>
        <time>2020-08-23T13:35:14Z</time>
      </trkpt>
      <trkpt lat="45.38168" lon="6.67027">
        <ele>1888</ele>
        <time>2020-08-23T13:35:18Z</time>
      </trkpt>
      <trkpt lat="45.3818" lon="6.6705">
        <ele>1888</ele>
        <time>2020-08-23T13:35:34Z</time>
      </trkpt>
      <trkpt lat="45.38183" lon="6.67056">
        <ele>1888</ele>
        <time>2020-08-23T13:35:39Z</time>
      </trkpt>
      <trkpt lat="45.38192" lon="6.67063">
        <ele>1886</ele>
        <time>2020-08-23T13:35:48Z</time>
      </trkpt>
      <trkpt lat="45.38226" lon="6.67083">
        <ele>1882</ele>
        <time>2020-08-23T13:36:16Z</time>
      </trkpt>
      <trkpt lat="45.3823" lon="6.67087">
        <ele>1881</ele>
        <time>2020-08-23T13:36:20Z</time>
      </trkpt>
      <trkpt lat="45.38233" lon="6.67094">
        <ele>1881</ele>
        <time>2020-08-23T13:36:25Z</time>
      </trkpt>
      <trkpt lat="45.38235" lon="6.67117">
        <ele>1881</ele>
        <time>2020-08-23T13:36:37Z</time>
      </trkpt>
      <trkpt lat="45.38234" lon="6.67131">
        <ele>1881</ele>
        <time>2020-08-23T13:36:45Z</time>
      </trkpt>
      <trkpt lat="45.38236" lon="6.67138">
        <ele>1881</ele>
        <time>2020-08-23T13:36:49Z</time>
      </trkpt>
      <trkpt lat="45.3824" lon="6.67142">
        <ele>1881</ele>
        <time>2020-08-23T13:36:53Z</time>
      </trkpt>
      <trkpt lat="45.38265" lon="6.67155">
        <ele>1880</ele>
        <time>2020-08-23T13:37:13Z</time>
      </trkpt>
      <trkpt lat="45.38284" lon="6.67177">
        <ele>1879</ele>
        <time>2020-08-23T13:37:34Z</time>
      </trkpt>
      <trkpt lat="45.38293" lon="6.67183">
        <ele>1879</ele>
        <time>2020-08-23T13:37:42Z</time>
      </trkpt>
      <trkpt lat="45.38303" lon="6.67185">
        <ele>1880</ele>
        <time>2020-08-23T13:37:50Z</time>
      </trkpt>
      <trkpt lat="45.38308" lon="6.67186">
        <ele>1880</ele>
        <time>2020-08-23T13:37:54Z</time>
      </trkpt>
      <trkpt lat="45.38318" lon="6.67186">
        <ele>1881</ele>
        <time>2020-08-23T13:38:02Z</time>
      </trkpt>
      <trkpt lat="45.38323" lon="6.67186">
        <ele>1881</ele>
        <time>2020-08-23T13:38:06Z</time>
      </trkpt>
      <trkpt lat="45.38328" lon="6.67187">
        <ele>1880</ele>
        <time>2020-08-23T13:38:10Z</time>
      </trkpt>
      <trkpt lat="45.38337" lon="6.67192">
        <ele>1880</ele>
        <time>2020-08-23T13:38:19Z</time>
      </trkpt>
      <trkpt lat="45.38349" lon="6.67204">
        <ele>1879</ele>
        <time>2020-08-23T13:38:31Z</time>
      </trkpt>
      <trkpt lat="45.38368" lon="6.67228">
        <ele>1878</ele>
        <time>2020-08-23T13:38:52Z</time>
      </trkpt>
      <trkpt lat="45.38375" lon="6.67236">
        <ele>1876</ele>
        <time>2020-08-23T13:39:00Z</time>
      </trkpt>
      <trkpt lat="45.38378" lon="6.67243">
        <ele>1875</ele>
        <time>2020-08-23T13:39:05Z</time>
      </trkpt>
      <trkpt lat="45.3838" lon="6.67249">
        <ele>1875</ele>
        <time>2020-08-23T13:39:09Z</time>
      </trkpt>
      <trkpt lat="45.38393" lon="6.67272">
        <ele>1872</ele>
        <time>2020-08-23T13:39:37Z</time>
      </trkpt>
      <trkpt lat="45.38397" lon="6.67274">
        <ele>1871</ele>
        <time>2020-08-23T13:39:42Z</time>
      </trkpt>
      <trkpt lat="45.38403" lon="6.67275">
        <ele>1870</ele>
        <time>2020-08-23T13:39:47Z</time>
      </trkpt>
      <trkpt lat="45.38408" lon="6.67274">
        <ele>1870</ele>
        <time>2020-08-23T13:39:51Z</time>
      </trkpt>
      <trkpt lat="45.38412" lon="6.67271">
        <ele>1869</ele>
        <time>2020-08-23T13:39:55Z</time>
      </trkpt>
      <trkpt lat="45.38433" lon="6.67253">
        <ele>1866</ele>
        <time>2020-08-23T13:40:15Z</time>
      </trkpt>
      <trkpt lat="45.3846" lon="6.67243">
        <ele>1863</ele>
        <time>2020-08-23T13:40:58Z</time>
      </trkpt>
      <trkpt lat="45.3848" lon="6.67238">
        <ele>1861</ele>
        <time>2020-08-23T13:41:17Z</time>
      </trkpt>
      <trkpt lat="45.38495" lon="6.67237">
        <ele>1858</ele>
        <time>2020-08-23T13:41:32Z</time>
      </trkpt>
      <trkpt lat="45.3851" lon="6.6723">
        <ele>1856</ele>
        <time>2020-08-23T13:41:46Z</time>
      </trkpt>
      <trkpt lat="45.38526" lon="6.67227">
        <ele>1855</ele>
        <time>2020-08-23T13:42:00Z</time>
      </trkpt>
      <trkpt lat="45.3854" lon="6.67228">
        <ele>1853</ele>
        <time>2020-08-23T13:42:14Z</time>
      </trkpt>
      <trkpt lat="45.38545" lon="6.67224">
        <ele>1852</ele>
        <time>2020-08-23T13:42:18Z</time>
      </trkpt>
      <trkpt lat="45.3855" lon="6.67225">
        <ele>1852</ele>
        <time>2020-08-23T13:42:23Z</time>
      </trkpt>
      <trkpt lat="45.38564" lon="6.6723">
        <ele>1849</ele>
        <time>2020-08-23T13:42:37Z</time>
      </trkpt>
      <trkpt lat="45.38587" lon="6.67231">
        <ele>1846</ele>
        <time>2020-08-23T13:42:59Z</time>
      </trkpt>
      <trkpt lat="45.38592" lon="6.6723">
        <ele>1845</ele>
        <time>2020-08-23T13:43:03Z</time>
      </trkpt>
      <trkpt lat="45.38597" lon="6.67232">
        <ele>1845</ele>
        <time>2020-08-23T13:43:07Z</time>
      </trkpt>
      <trkpt lat="45.38622" lon="6.67243">
        <ele>1842</ele>
        <time>2020-08-23T13:43:29Z</time>
      </trkpt>
      <trkpt lat="45.38636" lon="6.67244">
        <ele>1841</ele>
        <time>2020-08-23T13:43:41Z</time>
      </trkpt>
      <trkpt lat="45.38642" lon="6.67246">
        <ele>1840</ele>
        <time>2020-08-23T13:43:46Z</time>
      </trkpt>
      <trkpt lat="45.38658" lon="6.67244">
        <ele>1839</ele>
        <time>2020-08-23T13:44:01Z</time>
      </trkpt>
      <trkpt lat="45.38663" lon="6.67245">
        <ele>1838</ele>
        <time>2020-08-23T13:44:05Z</time>
      </trkpt>
      <trkpt lat="45.38667" lon="6.67249">
        <ele>1838</ele>
        <time>2020-08-23T13:44:09Z</time>
      </trkpt>
      <trkpt lat="45.38682" lon="6.67248">
        <ele>1836</ele>
        <time>2020-08-23T13:44:22Z</time>
      </trkpt>
      <trkpt lat="45.38705" lon="6.67253">
        <ele>1833</ele>
        <time>2020-08-23T13:44:42Z</time>
      </trkpt>
      <trkpt lat="45.3871" lon="6.67253">
        <ele>1832</ele>
        <time>2020-08-23T13:44:46Z</time>
      </trkpt>
      <trkpt lat="45.38728" lon="6.67246">
        <ele>1830</ele>
        <time>2020-08-23T13:45:02Z</time>
      </trkpt>
      <trkpt lat="45.38733" lon="6.67245">
        <ele>1830</ele>
        <time>2020-08-23T13:45:06Z</time>
      </trkpt>
      <trkpt lat="45.38753" lon="6.67242">
        <ele>1827</ele>
        <time>2020-08-23T13:45:24Z</time>
      </trkpt>
      <trkpt lat="45.38757" lon="6.67238">
        <ele>1826</ele>
        <time>2020-08-23T13:45:28Z</time>
      </trkpt>
      <trkpt lat="45.3876" lon="6.67231">
        <ele>1826</ele>
        <time>2020-08-23T13:45:33Z</time>
      </trkpt>
      <trkpt lat="45.38761" lon="6.67225">
        <ele>1826</ele>
        <time>2020-08-23T13:45:37Z</time>
      </trkpt>
      <trkpt lat="45.38763" lon="6.67218">
        <ele>1825</ele>
        <time>2020-08-23T13:45:42Z</time>
      </trkpt>
      <trkpt lat="45.38767" lon="6.67214">
        <ele>1825</ele>
        <time>2020-08-23T13:45:46Z</time>
      </trkpt>
      <trkpt lat="45.38772" lon="6.67213">
        <ele>1825</ele>
        <time>2020-08-23T13:45:50Z</time>
      </trkpt>
      <trkpt lat="45.38777" lon="6.67214">
        <ele>1825</ele>
        <time>2020-08-23T13:45:55Z</time>
      </trkpt>
      <trkpt lat="45.38814" lon="6.67228">
        <ele>1821</ele>
        <time>2020-08-23T13:46:29Z</time>
      </trkpt>
      <trkpt lat="45.38831" lon="6.67238">
        <ele>1819</ele>
        <time>2020-08-23T13:46:45Z</time>
      </trkpt>
      <trkpt lat="45.38845" lon="6.67248">
        <ele>1818</ele>
        <time>2020-08-23T13:46:58Z</time>
      </trkpt>
      <trkpt lat="45.38868" lon="6.67263">
        <ele>1818</ele>
        <time>2020-08-23T13:47:18Z</time>
      </trkpt>
      <trkpt lat="45.38874" lon="6.67265">
        <ele>1818</ele>
        <time>2020-08-23T13:47:22Z</time>
      </trkpt>
      <trkpt lat="45.3889" lon="6.67266">
        <ele>1819</ele>
        <time>2020-08-23T13:47:35Z</time>
      </trkpt>
      <trkpt lat="45.38904" lon="6.67271">
        <ele>1819</ele>
        <time>2020-08-23T13:47:48Z</time>
      </trkpt>
      <trkpt lat="45.38925" lon="6.67275">
        <ele>1818</ele>
        <time>2020-08-23T13:48:06Z</time>
      </trkpt>
      <trkpt lat="45.38935" lon="6.67278">
        <ele>1818</ele>
        <time>2020-08-23T13:48:15Z</time>
      </trkpt>
      <trkpt lat="45.3894" lon="6.67276">
        <ele>1818</ele>
        <time>2020-08-23T13:48:19Z</time>
      </trkpt>
      <trkpt lat="45.38945" lon="6.67277">
        <ele>1818</ele>
        <time>2020-08-23T13:48:24Z</time>
      </trkpt>
      <trkpt lat="45.3897" lon="6.67276">
        <ele>1815</ele>
        <time>2020-08-23T13:48:46Z</time>
      </trkpt>
      <trkpt lat="45.38975" lon="6.67279">
        <ele>1814</ele>
        <time>2020-08-23T13:48:51Z</time>
      </trkpt>
      <trkpt lat="45.38986" lon="6.67294">
        <ele>1812</ele>
        <time>2020-08-23T13:49:05Z</time>
      </trkpt>
      <trkpt lat="45.3899" lon="6.67306">
        <ele>1810</ele>
        <time>2020-08-23T13:49:14Z</time>
      </trkpt>
      <trkpt lat="45.38993" lon="6.67315">
        <ele>1808</ele>
        <time>2020-08-23T13:49:22Z</time>
      </trkpt>
      <trkpt lat="45.38995" lon="6.67322">
        <ele>1807</ele>
        <time>2020-08-23T13:49:27Z</time>
      </trkpt>
      <trkpt lat="45.39012" lon="6.67347">
        <ele>1805</ele>
        <time>2020-08-23T13:49:48Z</time>
      </trkpt>
      <trkpt lat="45.39014" lon="6.67354">
        <ele>1805</ele>
        <time>2020-08-23T13:49:52Z</time>
      </trkpt>
      <trkpt lat="45.39018" lon="6.67352">
        <ele>1803</ele>
        <time>2020-08-23T13:50:06Z</time>
      </trkpt>
      <trkpt lat="45.39027" lon="6.67358">
        <ele>1803</ele>
        <time>2020-08-23T13:50:14Z</time>
      </trkpt>
      <trkpt lat="45.39036" lon="6.67357">
        <ele>1801</ele>
        <time>2020-08-23T13:50:22Z</time>
      </trkpt>
      <trkpt lat="45.39046" lon="6.67355">
        <ele>1801</ele>
        <time>2020-08-23T13:50:30Z</time>
      </trkpt>
      <trkpt lat="45.39051" lon="6.67351">
        <ele>1800</ele>
        <time>2020-08-23T13:50:34Z</time>
      </trkpt>
      <trkpt lat="45.3907" lon="6.67347">
        <ele>1799</ele>
        <time>2020-08-23T13:50:50Z</time>
      </trkpt>
      <trkpt lat="45.3908" lon="6.67349">
        <ele>1798</ele>
        <time>2020-08-23T13:51:00Z</time>
      </trkpt>
      <trkpt lat="45.39084" lon="6.67351">
        <ele>1797</ele>
        <time>2020-08-23T13:51:05Z</time>
      </trkpt>
      <trkpt lat="45.39089" lon="6.67352">
        <ele>1796</ele>
        <time>2020-08-23T13:51:10Z</time>
      </trkpt>
      <trkpt lat="45.39098" lon="6.67349">
        <ele>1795</ele>
        <time>2020-08-23T13:51:18Z</time>
      </trkpt>
      <trkpt lat="45.39108" lon="6.67344">
        <ele>1793</ele>
        <time>2020-08-23T13:51:26Z</time>
      </trkpt>
      <trkpt lat="45.39118" lon="6.67342">
        <ele>1791</ele>
        <time>2020-08-23T13:51:35Z</time>
      </trkpt>
      <trkpt lat="45.3915" lon="6.67351">
        <ele>1786</ele>
        <time>2020-08-23T13:52:04Z</time>
      </trkpt>
      <trkpt lat="45.39155" lon="6.67353">
        <ele>1786</ele>
        <time>2020-08-23T13:52:08Z</time>
      </trkpt>
      <trkpt lat="45.39174" lon="6.67367">
        <ele>1784</ele>
        <time>2020-08-23T13:52:25Z</time>
      </trkpt>
      <trkpt lat="45.39189" lon="6.67367">
        <ele>1781</ele>
        <time>2020-08-23T13:52:38Z</time>
      </trkpt>
      <trkpt lat="45.39226" lon="6.67363">
        <ele>1775</ele>
        <time>2020-08-23T13:53:12Z</time>
      </trkpt>
      <trkpt lat="45.39232" lon="6.67363">
        <ele>1774</ele>
        <time>2020-08-23T13:53:16Z</time>
      </trkpt>
      <trkpt lat="45.39273" lon="6.67378">
        <ele>1773</ele>
        <time>2020-08-23T13:53:49Z</time>
      </trkpt>
      <trkpt lat="45.39282" lon="6.67383">
        <ele>1773</ele>
        <time>2020-08-23T13:53:57Z</time>
      </trkpt>
      <trkpt lat="45.39287" lon="6.67386">
        <ele>1773</ele>
        <time>2020-08-23T13:54:01Z</time>
      </trkpt>
      <trkpt lat="45.39325" lon="6.67405">
        <ele>1772</ele>
        <time>2020-08-23T13:54:33Z</time>
      </trkpt>
      <trkpt lat="45.39345" lon="6.67408">
        <ele>1771</ele>
        <time>2020-08-23T13:54:49Z</time>
      </trkpt>
      <trkpt lat="45.39355" lon="6.67414">
        <ele>1771</ele>
        <time>2020-08-23T13:54:58Z</time>
      </trkpt>
      <trkpt lat="45.39359" lon="6.67418">
        <ele>1771</ele>
        <time>2020-08-23T13:55:02Z</time>
      </trkpt>
      <trkpt lat="45.39378" lon="6.67425">
        <ele>1771</ele>
        <time>2020-08-23T13:55:18Z</time>
      </trkpt>
      <trkpt lat="45.39388" lon="6.6743">
        <ele>1770</ele>
        <time>2020-08-23T13:55:26Z</time>
      </trkpt>
      <trkpt lat="45.39398" lon="6.67435">
        <ele>1770</ele>
        <time>2020-08-23T13:55:34Z</time>
      </trkpt>
      <trkpt lat="45.39407" lon="6.67441">
        <ele>1770</ele>
        <time>2020-08-23T13:55:42Z</time>
      </trkpt>
      <trkpt lat="45.39417" lon="6.67445">
        <ele>1769</ele>
        <time>2020-08-23T13:55:50Z</time>
      </trkpt>
      <trkpt lat="45.39422" lon="6.67449">
        <ele>1769</ele>
        <time>2020-08-23T13:55:55Z</time>
      </trkpt>
      <trkpt lat="45.39427" lon="6.67451">
        <ele>1769</ele>
        <time>2020-08-23T13:55:59Z</time>
      </trkpt>
      <trkpt lat="45.39431" lon="6.67453">
        <ele>1769</ele>
        <time>2020-08-23T13:56:03Z</time>
      </trkpt>
      <trkpt lat="45.39436" lon="6.67452">
        <ele>1769</ele>
        <time>2020-08-23T13:56:08Z</time>
      </trkpt>
      <trkpt lat="45.39442" lon="6.67454">
        <ele>1769</ele>
        <time>2020-08-23T13:56:14Z</time>
      </trkpt>
      <trkpt lat="45.39448" lon="6.6746">
        <ele>1769</ele>
        <time>2020-08-23T13:56:21Z</time>
      </trkpt>
      <trkpt lat="45.39457" lon="6.67463">
        <ele>1770</ele>
        <time>2020-08-23T13:56:31Z</time>
      </trkpt>
      <trkpt lat="45.39468" lon="6.67469">
        <ele>1771</ele>
        <time>2020-08-23T13:56:43Z</time>
      </trkpt>
      <trkpt lat="45.39493" lon="6.67468">
        <ele>1775</ele>
        <time>2020-08-23T13:57:10Z</time>
      </trkpt>
      <trkpt lat="45.39513" lon="6.67459">
        <ele>1778</ele>
        <time>2020-08-23T13:57:33Z</time>
      </trkpt>
      <trkpt lat="45.39527" lon="6.67457">
        <ele>1778</ele>
        <time>2020-08-23T13:57:49Z</time>
      </trkpt>
      <trkpt lat="45.39531" lon="6.67457">
        <ele>1778</ele>
        <time>2020-08-23T13:57:53Z</time>
      </trkpt>
      <trkpt lat="45.3954" lon="6.67459">
        <ele>1778</ele>
        <time>2020-08-23T13:58:09Z</time>
      </trkpt>
      <trkpt lat="45.39547" lon="6.67458">
        <ele>1778</ele>
        <time>2020-08-23T13:58:20Z</time>
      </trkpt>
      <trkpt lat="45.39553" lon="6.67458">
        <ele>1778</ele>
        <time>2020-08-23T13:58:24Z</time>
      </trkpt>
      <trkpt lat="45.39557" lon="6.67461">
        <ele>1778</ele>
        <time>2020-08-23T13:58:29Z</time>
      </trkpt>
      <trkpt lat="45.39575" lon="6.6746">
        <ele>1777</ele>
        <time>2020-08-23T13:58:45Z</time>
      </trkpt>
      <trkpt lat="45.39595" lon="6.67463">
        <ele>1778</ele>
        <time>2020-08-23T13:59:03Z</time>
      </trkpt>
      <trkpt lat="45.39607" lon="6.67466">
        <ele>1779</ele>
        <time>2020-08-23T13:59:15Z</time>
      </trkpt>
      <trkpt lat="45.39642" lon="6.67486">
        <ele>1779</ele>
        <time>2020-08-23T13:59:46Z</time>
      </trkpt>
      <trkpt lat="45.3965" lon="6.67486">
        <ele>1779</ele>
        <time>2020-08-23T13:59:54Z</time>
      </trkpt>
      <trkpt lat="45.39656" lon="6.67488">
        <ele>1779</ele>
        <time>2020-08-23T13:59:58Z</time>
      </trkpt>
      <trkpt lat="45.39697" lon="6.67484">
        <ele>1781</ele>
        <time>2020-08-23T14:00:36Z</time>
      </trkpt>
      <trkpt lat="45.39707" lon="6.67483">
        <ele>1781</ele>
        <time>2020-08-23T14:00:45Z</time>
      </trkpt>
      <trkpt lat="45.39716" lon="6.6748">
        <ele>1781</ele>
        <time>2020-08-23T14:00:55Z</time>
      </trkpt>
      <trkpt lat="45.39736" lon="6.6748">
        <ele>1781</ele>
        <time>2020-08-23T14:01:12Z</time>
      </trkpt>
      <trkpt lat="45.39746" lon="6.67475">
        <ele>1780</ele>
        <time>2020-08-23T14:01:19Z</time>
      </trkpt>
      <trkpt lat="45.39754" lon="6.6747">
        <ele>1780</ele>
        <time>2020-08-23T14:01:28Z</time>
      </trkpt>
      <trkpt lat="45.39764" lon="6.67467">
        <ele>1779</ele>
        <time>2020-08-23T14:01:39Z</time>
      </trkpt>
      <trkpt lat="45.39774" lon="6.67471">
        <ele>1779</ele>
        <time>2020-08-23T14:01:46Z</time>
      </trkpt>
      <trkpt lat="45.39783" lon="6.67473">
        <ele>1778</ele>
        <time>2020-08-23T14:01:55Z</time>
      </trkpt>
      <trkpt lat="45.39791" lon="6.67465">
        <ele>1777</ele>
        <time>2020-08-23T14:02:03Z</time>
      </trkpt>
      <trkpt lat="45.39801" lon="6.67469">
        <ele>1776</ele>
        <time>2020-08-23T14:02:11Z</time>
      </trkpt>
      <trkpt lat="45.39811" lon="6.67466">
        <ele>1775</ele>
        <time>2020-08-23T14:02:19Z</time>
      </trkpt>
      <trkpt lat="45.3982" lon="6.67461">
        <ele>1774</ele>
        <time>2020-08-23T14:02:27Z</time>
      </trkpt>
      <trkpt lat="45.39829" lon="6.67461">
        <ele>1773</ele>
        <time>2020-08-23T14:02:35Z</time>
      </trkpt>
      <trkpt lat="45.39838" lon="6.67462">
        <ele>1773</ele>
        <time>2020-08-23T14:02:44Z</time>
      </trkpt>
      <trkpt lat="45.39848" lon="6.67458">
        <ele>1774</ele>
        <time>2020-08-23T14:02:50Z</time>
      </trkpt>
      <trkpt lat="45.39865" lon="6.67468">
        <ele>1776</ele>
        <time>2020-08-23T14:03:07Z</time>
      </trkpt>
      <trkpt lat="45.39878" lon="6.67468">
        <ele>1778</ele>
        <time>2020-08-23T14:03:23Z</time>
      </trkpt>
      <trkpt lat="45.39896" lon="6.67465">
        <ele>1778</ele>
        <time>2020-08-23T14:03:41Z</time>
      </trkpt>
      <trkpt lat="45.39914" lon="6.6747">
        <ele>1780</ele>
        <time>2020-08-23T14:03:59Z</time>
      </trkpt>
      <trkpt lat="45.39926" lon="6.67469">
        <ele>1780</ele>
        <time>2020-08-23T14:04:15Z</time>
      </trkpt>
      <trkpt lat="45.39941" lon="6.67472">
        <ele>1781</ele>
        <time>2020-08-23T14:04:33Z</time>
      </trkpt>
      <trkpt lat="45.39965" lon="6.67493">
        <ele>1783</ele>
        <time>2020-08-23T14:05:01Z</time>
      </trkpt>
      <trkpt lat="45.39993" lon="6.67496">
        <ele>1784</ele>
        <time>2020-08-23T14:05:26Z</time>
      </trkpt>
      <trkpt lat="45.4" lon="6.67496">
        <ele>1784</ele>
        <time>2020-08-23T14:05:35Z</time>
      </trkpt>
      <trkpt lat="45.40017" lon="6.67491">
        <ele>1780</ele>
        <time>2020-08-23T14:05:56Z</time>
      </trkpt>
      <trkpt lat="45.40027" lon="6.67483">
        <ele>1778</ele>
        <time>2020-08-23T14:06:09Z</time>
      </trkpt>
      <trkpt lat="45.40038" lon="6.67479">
        <ele>1776</ele>
        <time>2020-08-23T14:06:20Z</time>
      </trkpt>
      <trkpt lat="45.40053" lon="6.67471">
        <ele>1774</ele>
        <time>2020-08-23T14:06:32Z</time>
      </trkpt>
      <trkpt lat="45.40059" lon="6.6747">
        <ele>1773</ele>
        <time>2020-08-23T14:06:37Z</time>
      </trkpt>
      <trkpt lat="45.40064" lon="6.67467">
        <ele>1772</ele>
        <time>2020-08-23T14:06:42Z</time>
      </trkpt>
      <trkpt lat="45.40075" lon="6.67455">
        <ele>1770</ele>
        <time>2020-08-23T14:06:53Z</time>
      </trkpt>
      <trkpt lat="45.40082" lon="6.67444">
        <ele>1769</ele>
        <time>2020-08-23T14:07:01Z</time>
      </trkpt>
      <trkpt lat="45.4009" lon="6.67435">
        <ele>1768</ele>
        <time>2020-08-23T14:07:09Z</time>
      </trkpt>
      <trkpt lat="45.40092" lon="6.67428">
        <ele>1767</ele>
        <time>2020-08-23T14:07:14Z</time>
      </trkpt>
      <trkpt lat="45.40096" lon="6.67423">
        <ele>1766</ele>
        <time>2020-08-23T14:07:19Z</time>
      </trkpt>
      <trkpt lat="45.401" lon="6.67416">
        <ele>1765</ele>
        <time>2020-08-23T14:07:24Z</time>
      </trkpt>
      <trkpt lat="45.40104" lon="6.67413">
        <ele>1765</ele>
        <time>2020-08-23T14:07:27Z</time>
      </trkpt>
      <trkpt lat="45.40108" lon="6.67408">
        <ele>1765</ele>
        <time>2020-08-23T14:07:31Z</time>
      </trkpt>
      <trkpt lat="45.4011" lon="6.67402">
        <ele>1764</ele>
        <time>2020-08-23T14:07:36Z</time>
      </trkpt>
      <trkpt lat="45.40123" lon="6.67392">
        <ele>1762</ele>
        <time>2020-08-23T14:07:49Z</time>
      </trkpt>
      <trkpt lat="45.40136" lon="6.67374">
        <ele>1760</ele>
        <time>2020-08-23T14:08:03Z</time>
      </trkpt>
      <trkpt lat="45.4014" lon="6.67362">
        <ele>1758</ele>
        <time>2020-08-23T14:08:11Z</time>
      </trkpt>
      <trkpt lat="45.40143" lon="6.67322">
        <ele>1754</ele>
        <time>2020-08-23T14:08:36Z</time>
      </trkpt>
      <trkpt lat="45.40138" lon="6.6728">
        <ele>1753</ele>
        <time>2020-08-23T14:08:59Z</time>
      </trkpt>
      <trkpt lat="45.4014" lon="6.67267">
        <ele>1753</ele>
        <time>2020-08-23T14:09:06Z</time>
      </trkpt>
      <trkpt lat="45.40146" lon="6.67255">
        <ele>1753</ele>
        <time>2020-08-23T14:09:14Z</time>
      </trkpt>
      <trkpt lat="45.40147" lon="6.67242">
        <ele>1753</ele>
        <time>2020-08-23T14:09:20Z</time>
      </trkpt>
      <trkpt lat="45.40147" lon="6.67229">
        <ele>1753</ele>
        <time>2020-08-23T14:09:27Z</time>
      </trkpt>
      <trkpt lat="45.40166" lon="6.67164">
        <ele>1752</ele>
        <time>2020-08-23T14:10:02Z</time>
      </trkpt>
      <trkpt lat="45.40186" lon="6.67137">
        <ele>1752</ele>
        <time>2020-08-23T14:10:26Z</time>
      </trkpt>
      <trkpt lat="45.40195" lon="6.67114">
        <ele>1752</ele>
        <time>2020-08-23T14:10:41Z</time>
      </trkpt>
      <trkpt lat="45.40207" lon="6.67091">
        <ele>1752</ele>
        <time>2020-08-23T14:10:56Z</time>
      </trkpt>
      <trkpt lat="45.40208" lon="6.67074">
        <ele>1752</ele>
        <time>2020-08-23T14:11:05Z</time>
      </trkpt>
      <trkpt lat="45.40232" lon="6.67039">
        <ele>1753</ele>
        <time>2020-08-23T14:11:35Z</time>
      </trkpt>
      <trkpt lat="45.40236" lon="6.67028">
        <ele>1753</ele>
        <time>2020-08-23T14:11:42Z</time>
      </trkpt>
      <trkpt lat="45.40238" lon="6.67023">
        <ele>1753</ele>
        <time>2020-08-23T14:11:45Z</time>
      </trkpt>
      <trkpt lat="45.40239" lon="6.67009">
        <ele>1753</ele>
        <time>2020-08-23T14:11:53Z</time>
      </trkpt>
      <trkpt lat="45.40247" lon="6.66998">
        <ele>1753</ele>
        <time>2020-08-23T14:12:01Z</time>
      </trkpt>
      <trkpt lat="45.4025" lon="6.66992">
        <ele>1754</ele>
        <time>2020-08-23T14:12:06Z</time>
      </trkpt>
      <trkpt lat="45.40267" lon="6.66977">
        <ele>1754</ele>
        <time>2020-08-23T14:12:21Z</time>
      </trkpt>
      <trkpt lat="45.40279" lon="6.66954">
        <ele>1755</ele>
        <time>2020-08-23T14:12:38Z</time>
      </trkpt>
      <trkpt lat="45.40281" lon="6.66948">
        <ele>1755</ele>
        <time>2020-08-23T14:12:42Z</time>
      </trkpt>
      <trkpt lat="45.40281" lon="6.66941">
        <ele>1755</ele>
        <time>2020-08-23T14:12:46Z</time>
      </trkpt>
      <trkpt lat="45.40283" lon="6.66927">
        <ele>1755</ele>
        <time>2020-08-23T14:12:54Z</time>
      </trkpt>
      <trkpt lat="45.40291" lon="6.66889">
        <ele>1753</ele>
        <time>2020-08-23T14:13:21Z</time>
      </trkpt>
      <trkpt lat="45.4029" lon="6.66881">
        <ele>1753</ele>
        <time>2020-08-23T14:13:26Z</time>
      </trkpt>
      <trkpt lat="45.40287" lon="6.66875">
        <ele>1753</ele>
        <time>2020-08-23T14:13:30Z</time>
      </trkpt>
      <trkpt lat="45.4029" lon="6.66833">
        <ele>1752</ele>
        <time>2020-08-23T14:13:52Z</time>
      </trkpt>
      <trkpt lat="45.40289" lon="6.66827">
        <ele>1751</ele>
        <time>2020-08-23T14:13:56Z</time>
      </trkpt>
      <trkpt lat="45.40291" lon="6.66821">
        <ele>1751</ele>
        <time>2020-08-23T14:14:06Z</time>
      </trkpt>
      <trkpt lat="45.40299" lon="6.66814">
        <ele>1752</ele>
        <time>2020-08-23T14:14:17Z</time>
      </trkpt>
      <trkpt lat="45.40309" lon="6.66803">
        <ele>1753</ele>
        <time>2020-08-23T14:14:29Z</time>
      </trkpt>
      <trkpt lat="45.40318" lon="6.6678">
        <ele>1753</ele>
        <time>2020-08-23T14:14:44Z</time>
      </trkpt>
      <trkpt lat="45.40318" lon="6.66753">
        <ele>1754</ele>
        <time>2020-08-23T14:15:01Z</time>
      </trkpt>
      <trkpt lat="45.40314" lon="6.66726">
        <ele>1753</ele>
        <time>2020-08-23T14:15:16Z</time>
      </trkpt>
      <trkpt lat="45.40317" lon="6.66699">
        <ele>1753</ele>
        <time>2020-08-23T14:15:31Z</time>
      </trkpt>
      <trkpt lat="45.40325" lon="6.6669">
        <ele>1753</ele>
        <time>2020-08-23T14:15:38Z</time>
      </trkpt>
      <trkpt lat="45.4033" lon="6.66678">
        <ele>1753</ele>
        <time>2020-08-23T14:15:46Z</time>
      </trkpt>
      <trkpt lat="45.40334" lon="6.66666">
        <ele>1753</ele>
        <time>2020-08-23T14:15:55Z</time>
      </trkpt>
      <trkpt lat="45.40337" lon="6.66652">
        <ele>1753</ele>
        <time>2020-08-23T14:16:03Z</time>
      </trkpt>
      <trkpt lat="45.4034" lon="6.66618">
        <ele>1753</ele>
        <time>2020-08-23T14:16:30Z</time>
      </trkpt>
      <trkpt lat="45.40337" lon="6.66594">
        <ele>1752</ele>
        <time>2020-08-23T14:16:47Z</time>
      </trkpt>
      <trkpt lat="45.40335" lon="6.66586">
        <ele>1751</ele>
        <time>2020-08-23T14:16:54Z</time>
      </trkpt>
      <trkpt lat="45.40337" lon="6.66579">
        <ele>1751</ele>
        <time>2020-08-23T14:16:59Z</time>
      </trkpt>
      <trkpt lat="45.40338" lon="6.66572">
        <ele>1751</ele>
        <time>2020-08-23T14:17:03Z</time>
      </trkpt>
      <trkpt lat="45.40348" lon="6.66555">
        <ele>1751</ele>
        <time>2020-08-23T14:17:15Z</time>
      </trkpt>
      <trkpt lat="45.40352" lon="6.66553">
        <ele>1751</ele>
        <time>2020-08-23T14:17:19Z</time>
      </trkpt>
      <trkpt lat="45.40355" lon="6.66548">
        <ele>1751</ele>
        <time>2020-08-23T14:17:23Z</time>
      </trkpt>
      <trkpt lat="45.4036" lon="6.66544">
        <ele>1752</ele>
        <time>2020-08-23T14:17:31Z</time>
      </trkpt>
      <trkpt lat="45.40364" lon="6.6654">
        <ele>1752</ele>
        <time>2020-08-23T14:17:35Z</time>
      </trkpt>
      <trkpt lat="45.40367" lon="6.66533">
        <ele>1752</ele>
        <time>2020-08-23T14:17:40Z</time>
      </trkpt>
      <trkpt lat="45.4037" lon="6.6653">
        <ele>1751</ele>
        <time>2020-08-23T14:17:44Z</time>
      </trkpt>
      <trkpt lat="45.40376" lon="6.66523">
        <ele>1751</ele>
        <time>2020-08-23T14:17:52Z</time>
      </trkpt>
      <trkpt lat="45.40387" lon="6.66509">
        <ele>1750</ele>
        <time>2020-08-23T14:18:04Z</time>
      </trkpt>
      <trkpt lat="45.40425" lon="6.66479">
        <ele>1747</ele>
        <time>2020-08-23T14:18:37Z</time>
      </trkpt>
      <trkpt lat="45.40428" lon="6.66472">
        <ele>1747</ele>
        <time>2020-08-23T14:18:40Z</time>
      </trkpt>
      <trkpt lat="45.40433" lon="6.66469">
        <ele>1747</ele>
        <time>2020-08-23T14:18:44Z</time>
      </trkpt>
      <trkpt lat="45.40438" lon="6.66469">
        <ele>1747</ele>
        <time>2020-08-23T14:18:49Z</time>
      </trkpt>
      <trkpt lat="45.40444" lon="6.66468">
        <ele>1747</ele>
        <time>2020-08-23T14:18:57Z</time>
      </trkpt>
      <trkpt lat="45.40455" lon="6.66463">
        <ele>1747</ele>
        <time>2020-08-23T14:19:08Z</time>
      </trkpt>
      <trkpt lat="45.4047" lon="6.6646">
        <ele>1747</ele>
        <time>2020-08-23T14:19:21Z</time>
      </trkpt>
      <trkpt lat="45.40481" lon="6.66461">
        <ele>1747</ele>
        <time>2020-08-23T14:19:31Z</time>
      </trkpt>
      <trkpt lat="45.40486" lon="6.66459">
        <ele>1747</ele>
        <time>2020-08-23T14:19:35Z</time>
      </trkpt>
      <trkpt lat="45.40495" lon="6.66451">
        <ele>1747</ele>
        <time>2020-08-23T14:19:43Z</time>
      </trkpt>
      <trkpt lat="45.40499" lon="6.66446">
        <ele>1747</ele>
        <time>2020-08-23T14:19:47Z</time>
      </trkpt>
      <trkpt lat="45.40504" lon="6.66442">
        <ele>1747</ele>
        <time>2020-08-23T14:19:51Z</time>
      </trkpt>
      <trkpt lat="45.40511" lon="6.66431">
        <ele>1746</ele>
        <time>2020-08-23T14:19:58Z</time>
      </trkpt>
      <trkpt lat="45.40522" lon="6.66416">
        <ele>1743</ele>
        <time>2020-08-23T14:20:09Z</time>
      </trkpt>
      <trkpt lat="45.40541" lon="6.66379">
        <ele>1740</ele>
        <time>2020-08-23T14:20:35Z</time>
      </trkpt>
      <trkpt lat="45.40545" lon="6.66376">
        <ele>1740</ele>
        <time>2020-08-23T14:20:39Z</time>
      </trkpt>
      <trkpt lat="45.40552" lon="6.66366">
        <ele>1740</ele>
        <time>2020-08-23T14:20:48Z</time>
      </trkpt>
      <trkpt lat="45.40571" lon="6.66353">
        <ele>1739</ele>
        <time>2020-08-23T14:21:05Z</time>
      </trkpt>
      <trkpt lat="45.40599" lon="6.6631">
        <ele>1735</ele>
        <time>2020-08-23T14:21:37Z</time>
      </trkpt>
      <trkpt lat="45.40607" lon="6.66292">
        <ele>1734</ele>
        <time>2020-08-23T14:21:49Z</time>
      </trkpt>
      <trkpt lat="45.40637" lon="6.66253">
        <ele>1731</ele>
        <time>2020-08-23T14:22:21Z</time>
      </trkpt>
      <trkpt lat="45.4064" lon="6.66248">
        <ele>1731</ele>
        <time>2020-08-23T14:22:25Z</time>
      </trkpt>
      <trkpt lat="45.40644" lon="6.66243">
        <ele>1730</ele>
        <time>2020-08-23T14:22:29Z</time>
      </trkpt>
      <trkpt lat="45.4065" lon="6.66232">
        <ele>1729</ele>
        <time>2020-08-23T14:22:37Z</time>
      </trkpt>
      <trkpt lat="45.40685" lon="6.66199">
        <ele>1725</ele>
        <time>2020-08-23T14:23:10Z</time>
      </trkpt>
      <trkpt lat="45.4069" lon="6.66199">
        <ele>1725</ele>
        <time>2020-08-23T14:23:14Z</time>
      </trkpt>
      <trkpt lat="45.40695" lon="6.66196">
        <ele>1725</ele>
        <time>2020-08-23T14:23:18Z</time>
      </trkpt>
      <trkpt lat="45.40699" lon="6.66191">
        <ele>1724</ele>
        <time>2020-08-23T14:23:22Z</time>
      </trkpt>
      <trkpt lat="45.40703" lon="6.66188">
        <ele>1725</ele>
        <time>2020-08-23T14:23:26Z</time>
      </trkpt>
      <trkpt lat="45.40708" lon="6.66184">
        <ele>1725</ele>
        <time>2020-08-23T14:23:30Z</time>
      </trkpt>
      <trkpt lat="45.40723" lon="6.66176">
        <ele>1725</ele>
        <time>2020-08-23T14:23:42Z</time>
      </trkpt>
      <trkpt lat="45.4075" lon="6.66151">
        <ele>1725</ele>
        <time>2020-08-23T14:24:08Z</time>
      </trkpt>
      <trkpt lat="45.40754" lon="6.66149">
        <ele>1725</ele>
        <time>2020-08-23T14:24:11Z</time>
      </trkpt>
      <trkpt lat="45.40758" lon="6.66144">
        <ele>1725</ele>
        <time>2020-08-23T14:24:15Z</time>
      </trkpt>
      <trkpt lat="45.40767" lon="6.66136">
        <ele>1724</ele>
        <time>2020-08-23T14:24:23Z</time>
      </trkpt>
      <trkpt lat="45.40793" lon="6.66119">
        <ele>1723</ele>
        <time>2020-08-23T14:24:43Z</time>
      </trkpt>
      <trkpt lat="45.40809" lon="6.66095">
        <ele>1722</ele>
        <time>2020-08-23T14:25:01Z</time>
      </trkpt>
      <trkpt lat="45.40814" lon="6.66094">
        <ele>1721</ele>
        <time>2020-08-23T14:25:12Z</time>
      </trkpt>
      <trkpt lat="45.40818" lon="6.66108">
        <ele>1720</ele>
        <time>2020-08-23T14:27:27Z</time>
      </trkpt>
      <trkpt lat="45.40814" lon="6.66103">
        <ele>1720</ele>
        <time>2020-08-23T14:29:18Z</time>
      </trkpt>
      <trkpt lat="45.40814" lon="6.66094">
        <ele>1722</ele>
        <time>2020-08-23T14:29:25Z</time>
      </trkpt>
    </trkseg>
  </trk>
</gpx>